Provisional Data: Quittapahilla Creek near Syner, PA


Please select a monitoring station.
Please select start date.
Please select start date.

Toggle Unit: C/F Toggle Unit: C/F
Sample Time Temperature (C) Temperature (F) Specific Conductivity (mS/cm) pH   Turbidity (NTU+) DO (mg/L)
10/20/2020 12:00:00 AM 13.41 56.138 0.648 8.3 5.45 9.15
10/20/2020 12:15:00 AM 13.42 56.156 0.648 8.3 5.73 9.14
10/20/2020 12:30:00 AM 13.42 56.156 0.648 8.3 5.71 9.11
10/20/2020 12:45:00 AM 13.43 56.174 0.648 8.3 8.99 9.1
10/20/2020 1:00:00 AM 13.44 56.192 0.649 8.3 4.18 9.08
10/20/2020 1:15:00 AM 13.45 56.21 0.649 8.29 4.32 9.07
10/20/2020 1:30:00 AM 13.46 56.228 0.65 8.29 5.49 9.05
10/20/2020 1:45:00 AM 13.47 56.246 0.65 8.29 5.44 9.04
10/20/2020 2:00:00 AM 13.48 56.264 0.65 8.28 7.64 9.02
10/20/2020 2:15:00 AM 13.49 56.282 0.65 8.28 10.82 9.01
10/20/2020 2:30:00 AM 13.49 56.282 0.65 8.28 4.49 8.99
10/20/2020 2:45:00 AM 13.5 56.3 0.651 8.27 6.51 8.97
10/20/2020 3:00:00 AM 13.5 56.3 0.651 8.27 5.53 8.96
10/20/2020 3:15:00 AM 13.5 56.3 0.651 8.27 7.39 8.95
10/20/2020 3:30:00 AM 13.5 56.3 0.651 8.27 7.38 8.94
10/20/2020 3:45:00 AM 13.5 56.3 0.651 8.27 9.06 8.93
10/20/2020 4:00:00 AM 13.49 56.282 0.651 8.27 9.69 8.91
10/20/2020 4:15:00 AM 13.49 56.282 0.651 8.28 10.15 8.88
10/20/2020 4:30:00 AM 13.48 56.264 0.651 8.27 9.81 8.89
10/20/2020 4:45:00 AM 13.48 56.264 0.651 8.27 7.88 8.88
10/20/2020 5:00:00 AM 13.47 56.246 0.651 8.27 7.06 8.87
10/20/2020 5:15:00 AM 13.47 56.246 0.651 8.27 7.19 8.85
10/20/2020 5:30:00 AM 13.46 56.228 0.651 8.27 6.52 8.85
10/20/2020 5:45:00 AM 13.46 56.228 0.651 8.27 69.99 8.85
10/20/2020 6:00:00 AM 13.45 56.21 0.651 8.27 9.28 8.85
10/20/2020 6:15:00 AM 13.45 56.21 0.651 8.26 9.19 8.85
10/20/2020 6:30:00 AM 13.44 56.192 0.651 8.26 6.72 8.84
10/20/2020 6:45:00 AM 13.45 56.21 0.651 8.26 11.39 8.84
10/20/2020 7:00:00 AM 13.45 56.21 0.651 8.26 11.44 8.83
10/20/2020 7:15:00 AM 13.46 56.228 0.651 8.25 9.62 8.83
10/20/2020 7:30:00 AM 13.46 56.228 0.602 8.25 7.91 8.84
10/20/2020 7:45:00 AM 13.47 56.246 0.651 8.25 9.89 8.84
10/20/2020 8:00:00 AM 13.49 56.282 0.651 8.25 10.4 8.88
10/20/2020 8:15:00 AM 13.51 56.318 0.651 8.25 11.39 8.96
10/20/2020 8:30:00 AM 13.53 56.354 0.65 8.26 14.97 9.03
10/20/2020 8:45:00 AM 13.56 56.408 0.65 8.26 14.71 9.1
10/20/2020 9:00:00 AM 13.59 56.462 0.65 8.26 17.55 9.22
10/20/2020 9:15:00 AM 13.61 56.498 0.649 8.27 16.65 9.31
10/20/2020 9:30:00 AM 13.65 56.57 0.649 8.27 24.13 9.41
10/20/2020 9:45:00 AM 13.69 56.642 0.649 8.27 28.68 9.56
10/20/2020 10:00:00 AM 13.75 56.75 0.649 8.28 31.35 9.75
10/20/2020 10:15:00 AM 13.81 56.858 0.648 8.29 37.47 9.93
10/20/2020 10:30:00 AM 13.87 56.966 0.648 8.3 42.92 10.11
10/20/2020 10:45:00 AM 13.94 57.092 0.648 8.31 56.96 10.31
10/20/2020 11:00:00 AM 14.02 57.236 0.647 8.32 71.06 10.44
10/20/2020 11:15:00 AM 14.09 57.362 0.647 8.33 89.75 10.6
10/20/2020 11:30:00 AM 14.17 57.506 0.647 8.34 116.5 10.77
10/20/2020 11:45:00 AM 14.27 57.686 0.647 8.35 152.9 10.91
10/20/2020 12:00:00 PM 14.38 57.884 0.646 8.36 181.1 11.14
10/20/2020 12:15:00 PM 14.45 58.01 0.646 8.37 1156 11.26
10/20/2020 12:30:00 PM 14.52 58.136 0.645 8.38 412.8 11.35
10/20/2020 12:45:00 PM 14.62 58.316 0.645 8.39 1487 11.52
10/20/2020 1:00:00 PM 14.74 58.532 0.644 8.4 366.1 11.65
10/20/2020 1:15:00 PM 14.82 58.676 0.644 8.41 375.4 11.78
10/20/2020 1:30:00 PM 14.95 58.91 0.645 8.41 374 11.88
10/20/2020 1:45:00 PM 15.1 59.18 0.646 8.42 349.8 11.98
10/20/2020 2:00:00 PM 15.2 59.36 0.646 8.42 327 11.99
10/20/2020 2:15:00 PM 15.3 59.54 0.647 8.41 352.1 11.99
10/20/2020 2:30:00 PM 15.38 59.684 0.647 8.41 308.1 11.96
10/20/2020 2:45:00 PM 15.42 59.756 0.648 8.41 356.8 11.9
10/20/2020 3:00:00 PM 15.48 59.864 0.647 8.42 346 11.94
10/20/2020 3:15:00 PM 15.51 59.918 0.646 8.42 373.2 11.93
10/20/2020 3:30:00 PM 15.51 59.918 0.644 8.42 371.7 11.88
10/20/2020 3:45:00 PM 15.49 59.882 0.643 8.42 373.5 11.8
10/20/2020 4:00:00 PM 15.45 59.81 0.642 8.42 369 11.68
10/20/2020 4:15:00 PM 15.42 59.756 0.641 8.42 370.2 11.61
10/20/2020 4:30:00 PM 15.38 59.684 0.641 8.42 380.8 11.52
10/20/2020 4:45:00 PM 15.32 59.576 0.641 8.41 394.2 11.38
10/20/2020 5:00:00 PM 15.27 59.486 0.641 8.41 415 11.23
10/20/2020 5:15:00 PM 15.24 59.432 0.641 8.4 442.8 11.05
10/20/2020 5:30:00 PM 15.22 59.396 0.641 8.39 471.6 10.93
10/20/2020 5:45:00 PM 15.2 59.36 0.641 8.39 525.6 10.82
10/20/2020 6:00:00 PM 15.17 59.306 0.642 8.38 536.5 10.68
10/20/2020 6:15:00 PM 15.12 59.216 0.642 8.38 591.9 10.5
10/20/2020 6:30:00 PM 15.09 59.162 0.642 8.36 2503 10.32
10/20/2020 6:45:00 PM 15.06 59.108 0.642 8.35 2731 10.16
10/20/2020 7:00:00 PM 15.04 59.072 0.642 8.34 3009 10.02
10/20/2020 7:15:00 PM 15.02 59.036 0.642 8.33 3264 9.89
10/20/2020 7:30:00 PM 14.99 58.982 0.642 8.32 3612 9.76
10/20/2020 7:45:00 PM 14.96 58.928 0.642 8.31 3894 9.67
10/20/2020 8:00:00 PM 14.93 58.874 0.643 8.3 4254 9.59
10/20/2020 8:15:00 PM 14.91 58.838 0.643 8.29 4680 9.51
10/20/2020 8:30:00 PM 14.88 58.784 0.643 8.29 5131 9.45
10/20/2020 8:45:00 PM 14.85 58.73 0.643 8.28 5628 9.39
10/20/2020 9:00:00 PM 14.82 58.676 0.644 8.28 6240 9.33
10/20/2020 9:15:00 PM 14.8 58.64 0.645 8.27 7624 9.28
10/20/2020 9:30:00 PM 14.77 58.586 0.645 8.27 8300 9.23
10/20/2020 9:45:00 PM 14.74 58.532 0.645 8.27 9019 9.17
10/20/2020 10:00:00 PM 14.7 58.46 0.645 8.26 9962 9.12
10/20/2020 10:15:00 PM 14.66 58.388 0.646 8.26 10550 9.09
10/20/2020 10:30:00 PM 14.63 58.334 0.646 8.25 11160 9.07
10/20/2020 10:45:00 PM 14.59 58.262 0.646 8.25 11760 9.03
10/20/2020 11:00:00 PM 14.56 58.208 0.647 8.25 11990 9
10/20/2020 11:15:00 PM 14.52 58.136 0.647 8.24 11990 8.97
10/20/2020 11:30:00 PM 14.49 58.082 0.647 8.24 11990 8.95
10/20/2020 11:45:00 PM 14.45 58.01 0.647 8.24 11990 8.91
10/21/2020 12:00:00 AM 14.42 57.956 0.648 8.24 11990 8.89
10/21/2020 12:15:00 AM 14.38 57.884 0.648 8.23 11990 8.88
10/21/2020 12:30:00 AM 14.35 57.83 0.648 8.23 11990 8.85
10/21/2020 12:45:00 AM 14.32 57.776 0.648 8.23 11990 8.82
10/21/2020 1:00:00 AM 14.29 57.722 0.648 8.23 11990 8.81
10/21/2020 1:15:00 AM 14.26 57.668 0.649 8.23 11990 8.79
10/21/2020 1:30:00 AM 14.23 57.614 0.649 8.22 11990 8.77
10/21/2020 1:45:00 AM 14.21 57.578 0.649 8.23 11070 8.75
10/21/2020 2:00:00 AM 14.18 57.524 0.649 8.22 5852 8.75
10/21/2020 2:15:00 AM 14.15 57.47 0.649 8.22 2168 8.73
10/21/2020 2:30:00 AM 14.12 57.416 0.649 8.22 1575 8.71
10/21/2020 2:45:00 AM 14.09 57.362 0.649 8.21 1517 8.7
10/21/2020 3:00:00 AM 14.06 57.308 0.649 8.21 458.1 8.69
10/21/2020 3:15:00 AM 14.04 57.272 0.649 8.21 290 8.68
10/21/2020 3:30:00 AM 14.03 57.254 0.65 8.21 437.6 8.67
10/21/2020 3:45:00 AM 14.03 57.254 0.65 8.21 1662 8.65
10/21/2020 4:00:00 AM 14.03 57.254 0.65 8.2 2289 8.65
10/21/2020 4:15:00 AM 14.03 57.254 0.65 8.2 6867 8.64
10/21/2020 4:30:00 AM 14.03 57.254 0.65 8.2 11340 8.63
10/21/2020 4:45:00 AM 14.04 57.272 0.65 8.2 11990 8.62
10/21/2020 5:00:00 AM 14.04 57.272 0.65 8.2 11990 8.62
10/21/2020 5:15:00 AM 14.04 57.272 0.65 8.2 11990 8.61
10/21/2020 5:30:00 AM 14.04 57.272 0.65 8.19 11720 8.62
10/21/2020 5:45:00 AM 14.05 57.29 0.65 8.19 7485 8.61
10/21/2020 6:00:00 AM 14.05 57.29 0.65 8.2 4176 8.62
10/21/2020 6:15:00 AM 14.05 57.29 0.651 8.2 3593 8.61
10/21/2020 6:30:00 AM 14.06 57.308 0.65 8.21 797 8.61
10/21/2020 6:45:00 AM 14.06 57.308 0.651 8.2 526.5 8.6
10/21/2020 7:00:00 AM 14.06 57.308 0.651 8.2 421.7 8.6
10/21/2020 7:15:00 AM 14.07 57.326 0.651 8.2 402.1 8.6
10/21/2020 7:30:00 AM 14.08 57.344 0.651 8.2 401 8.6
10/21/2020 7:45:00 AM 14.08 57.344 0.651 8.2 416.6 8.61
10/21/2020 8:00:00 AM 14.09 57.362 0.651 8.2 423.2 8.61
10/21/2020 8:15:00 AM 14.1 57.38 0.651 8.2 427.8 8.66
10/21/2020 8:30:00 AM 14.11 57.398 0.651 8.2 424.2 8.7
10/21/2020 8:45:00 AM 14.12 57.416 0.651 8.2 446.3 8.75
10/21/2020 9:00:00 AM 14.14 57.452 0.651 8.21 649.8 8.82
10/21/2020 9:15:00 AM 14.16 57.488 0.65 8.21 734.1 8.9
10/21/2020 9:30:00 AM 14.19 57.542 0.651 8.21 800.7 8.98
10/21/2020 9:45:00 AM 14.22 57.596 0.651 8.21 990.5 9.07
10/21/2020 10:00:00 AM 14.24 57.632 0.651 8.22 1426 9.15
10/21/2020 10:15:00 AM 14.27 57.686 0.651 8.22 1391 9.2
10/21/2020 10:30:00 AM 14.3 57.74 0.651 8.23 1287 9.3
10/21/2020 10:45:00 AM 14.33 57.794 0.65 8.24 1186 9.43
10/21/2020 11:00:00 AM 14.37 57.866 0.65 8.24 982 9.55
10/21/2020 11:15:00 AM 14.42 57.956 0.65 8.25 913 9.68
10/21/2020 11:30:00 AM 14.5 58.1 0.65 8.26 813.3 9.9
10/21/2020 11:45:00 AM 14.56 58.208 0.65 8.27 755.3 10.1
10/21/2020 12:00:00 PM 14.62 58.316 0.65 8.28 654.7 10.22
10/21/2020 12:15:00 PM 14.71 58.478 0.649 8.29 522.7 10.41
10/21/2020 12:30:00 PM 14.82 58.676 0.649 8.3 371.7 10.64
10/21/2020 12:45:00 PM 14.9 58.82 0.649 8.31 122.5 10.81
10/21/2020 1:00:00 PM 14.95 58.91 0.648 8.32 100.7 10.89
10/21/2020 1:15:00 PM 15.04 59.072 0.648 8.33 105.3 10.99
10/21/2020 1:30:00 PM 15.14 59.252 0.648 8.34 70.93 11.13
10/21/2020 1:45:00 PM 15.22 59.396 0.648 8.35 46.32 11.19
10/21/2020 2:00:00 PM 15.28 59.504 0.647 8.35 36.53 11.26
10/21/2020 2:15:00 PM 15.34 59.612 0.647 8.35 14.3 11.31
10/21/2020 2:30:00 PM 15.42 59.756 0.647 8.36 3.39 11.37
10/21/2020 2:45:00 PM 15.54 59.972 0.647 8.37 3.23 11.48
10/21/2020 3:00:00 PM 15.6 60.08 0.646 8.36 2.12 11.51
10/21/2020 3:15:00 PM 15.7 60.26 0.646 8.37 1.87 11.59
10/21/2020 3:30:00 PM 15.76 60.368 0.646 8.38 1.78 11.59
10/21/2020 3:45:00 PM 15.82 60.476 0.646 8.37 5.12 11.63
10/21/2020 4:00:00 PM 15.81 60.458 0.646 8.38 2.33 11.55
10/21/2020 4:15:00 PM 15.76 60.368 0.647 8.38 2.86 11.43
10/21/2020 4:30:00 PM 15.73 60.314 0.648 8.38 7.2 11.29
10/21/2020 4:45:00 PM 15.75 60.35 0.649 8.38 1.99 11.27
10/21/2020 5:00:00 PM 15.74 60.332 0.65 8.38 2.33 11.19
10/21/2020 5:15:00 PM 15.7 60.26 0.651 8.38 35.93 11
10/21/2020 5:30:00 PM 15.65 60.17 0.651 8.37 77.92 10.81
10/21/2020 5:45:00 PM 15.59 60.062 0.652 8.36 2.18 10.59
10/21/2020 6:00:00 PM 15.54 59.972 0.652 8.35 3.74 10.41
10/21/2020 6:15:00 PM 15.48 59.864 0.653 8.34 2.34 10.21
10/21/2020 6:30:00 PM 15.43 59.774 0.653 8.32 13.07 10.05
10/21/2020 6:45:00 PM 15.38 59.684 0.653 8.31 567.5 9.85
10/21/2020 7:00:00 PM 15.34 59.612 0.654 8.3 66.41 9.71
10/21/2020 7:15:00 PM 15.32 59.576 0.654 8.29 1412 9.56
10/21/2020 7:30:00 PM 15.3 59.54 0.654 8.28 1452 9.41
10/21/2020 7:45:00 PM 15.28 59.504 0.654 8.27 550.1 9.26
10/21/2020 8:00:00 PM 15.25 59.45 0.653 8.27 50.24 9.19
10/21/2020 8:15:00 PM 15.22 59.396 0.652 8.26 50.1 9.15
10/21/2020 8:30:00 PM 15.18 59.324 0.651 8.25 704.6 9.17
10/21/2020 8:45:00 PM 15.15 59.27 0.65 8.24 136.9 9.13
10/21/2020 9:00:00 PM 15.11 59.198 0.649 8.24 500.2 9.11
10/21/2020 9:15:00 PM 15.07 59.126 0.648 8.23 128.2 9.06
10/21/2020 9:30:00 PM 15.04 59.072 0.649 8.22 23.03 9.03
10/21/2020 9:45:00 PM 15 59 0.648 8.22 4.91 8.98
10/21/2020 10:00:00 PM 14.97 58.946 0.647 8.21 18.84 8.93
10/21/2020 10:15:00 PM 14.93 58.874 0.648 8.22 743 8.9
10/21/2020 10:30:00 PM 14.9 58.82 0.648 8.22 1796 8.86
10/21/2020 10:45:00 PM 14.87 58.766 0.647 8.21 679.4 8.82
10/21/2020 11:00:00 PM 14.84 58.712 0.647 8.2 54.5 8.79
10/21/2020 11:15:00 PM 14.82 58.676 0.648 8.2 9.71 8.77
10/21/2020 11:30:00 PM 14.8 58.64 0.648 8.19 25.74 8.72
10/21/2020 11:45:00 PM 14.78 58.604 0.648 8.19 118.9 8.69
10/22/2020 12:00:00 AM 14.78 58.604 0.648 8.19 231.2 8.67
10/22/2020 12:15:00 AM 14.77 58.586 0.648 8.19 310.3 8.65
10/22/2020 12:30:00 AM 14.76 58.568 0.648 8.19 502.4 8.62
10/22/2020 12:45:00 AM 14.76 58.568 0.648 8.17 590.2 8.61
10/22/2020 1:00:00 AM 14.75 58.55 0.648 8.17 1126 8.58
10/22/2020 1:15:00 AM 14.74 58.532 0.648 8.17 4864 8.56
10/22/2020 1:30:00 AM 14.73 58.514 0.648 8.18 5919 8.54
10/22/2020 1:45:00 AM 14.73 58.514 0.648 8.18 7451 8.52
10/22/2020 2:00:00 AM 14.72 58.496 0.648 8.18 8256 8.53
10/22/2020 2:15:00 AM 14.71 58.478 0.648 8.18 11990 8.5
10/22/2020 2:30:00 AM 14.71 58.478 0.648 8.18 1422 8.49
10/22/2020 2:45:00 AM 14.7 58.46 0.648 8.17 698.2 8.47
10/22/2020 3:00:00 AM 14.69 58.442 0.648 8.16 1429 8.46
10/22/2020 3:15:00 AM 14.69 58.442 0.648 8.16 11990 8.45
10/22/2020 3:30:00 AM 14.68 58.424 0.648 8.16 11990 8.43
10/22/2020 3:45:00 AM 14.68 58.424 0.648 8.15 11990 8.43
10/22/2020 4:00:00 AM 14.68 58.424 0.648 8.15 11990 8.41
10/22/2020 4:15:00 AM 14.67 58.406 0.648 8.15 11990 8.4
10/22/2020 4:30:00 AM 14.67 58.406 0.648 8.15 2208 8.4
10/22/2020 4:45:00 AM 14.66 58.388 0.648 8.15 1856 8.39
10/22/2020 5:00:00 AM 14.66 58.388 0.648 8.15 1500 8.39
10/22/2020 5:15:00 AM 14.66 58.388 0.648 8.14 1194 8.38
10/22/2020 5:30:00 AM 14.66 58.388 0.648 8.14 990 8.38
10/22/2020 5:45:00 AM 14.66 58.388 0.648 8.14 703.5 8.37
10/22/2020 6:00:00 AM 14.65 58.37 0.648 8.14 524.8 8.36
10/22/2020 6:15:00 AM 14.65 58.37 0.648 8.13 405.8 8.37
10/22/2020 6:30:00 AM 14.65 58.37 0.648 8.14 329.3 8.35
10/22/2020 6:45:00 AM 14.64 58.352 0.648 8.13 375.6 8.36
10/22/2020 7:00:00 AM 14.64 58.352 0.648 8.13 411.2 8.35
10/22/2020 7:15:00 AM 14.63 58.334 0.648 8.13 456.3 8.35
10/22/2020 7:30:00 AM 14.63 58.334 0.648 8.13 1147 8.35
10/22/2020 7:45:00 AM 14.63 58.334 0.647 8.13 1187 8.36
10/22/2020 8:00:00 AM 14.63 58.334 0.647 8.13 355.7 8.39
10/22/2020 8:15:00 AM 14.63 58.334 0.647 8.13 43.84 8.41
10/22/2020 8:30:00 AM 14.63 58.334 0.647 8.14 46.85 8.47
10/22/2020 8:45:00 AM 14.65 58.37 0.647 8.14 28.43 8.56
10/22/2020 9:00:00 AM 14.66 58.388 0.647 8.15 15.54 8.65
10/22/2020 9:15:00 AM 14.67 58.406 0.646 8.15 29.54 8.75
10/22/2020 9:30:00 AM 14.69 58.442 0.646 8.16 9.91 8.89
10/22/2020 9:45:00 AM 14.73 58.514 0.646 8.16 7.21 9.07
10/22/2020 10:00:00 AM 14.76 58.568 0.646 8.17 7.07 9.19
10/22/2020 10:15:00 AM 14.79 58.622 0.645 8.18 5.34 9.35
10/22/2020 10:30:00 AM 14.82 58.676 0.645 8.19 6 9.49
10/22/2020 10:45:00 AM 14.84 58.712 0.644 8.21 7.14 9.61
10/22/2020 11:00:00 AM 14.88 58.784 0.644 8.21 1.53 9.71
10/22/2020 11:15:00 AM 14.91 58.838 0.644 8.22 1.93 9.84
10/22/2020 11:30:00 AM 14.94 58.892 0.643 8.24 2.27 9.98
10/22/2020 11:45:00 AM 14.98 58.964 0.643 8.25 1.23 10.06
10/22/2020 12:00:00 PM 15 59 0.643 8.27 1.16 10.15
10/22/2020 12:15:00 PM 15.03 59.054 0.642 8.28 1.94 10.25
10/22/2020 12:30:00 PM 15.06 59.108 0.643 8.29 1.73 10.35
10/22/2020 12:45:00 PM 15.1 59.18 0.642 8.3 0.57 10.43
10/22/2020 1:00:00 PM 15.13 59.234 0.642 8.31 0.68 10.53
10/22/2020 1:15:00 PM 15.17 59.306 0.641 8.32 0.98 10.62
10/22/2020 1:30:00 PM 15.21 59.378 0.641 8.32 1.6 10.7
10/22/2020 1:45:00 PM 15.23 59.414 0.641 8.32 1.45 10.69
10/22/2020 2:00:00 PM 15.25 59.45 0.641 8.34 0.49 10.7
10/22/2020 2:15:00 PM 15.29 59.522 0.641 8.33 1.09 10.75
10/22/2020 2:30:00 PM 15.33 59.594 0.641 8.33 0.96 10.86
10/22/2020 2:45:00 PM 15.38 59.684 0.642 8.33 0.85 10.98
10/22/2020 3:00:00 PM 15.48 59.864 0.643 8.34 0.93 11.08
10/22/2020 3:15:00 PM 15.57 60.026 0.644 8.35 0.58 11.25
10/22/2020 3:30:00 PM 15.63 60.134 0.645 8.35 0.42 11.29
10/22/2020 3:45:00 PM 15.68 60.224 0.646 8.35 1.22 11.35
10/22/2020 4:00:00 PM 15.72 60.296 0.646 8.36 1.38 11.37
10/22/2020 4:15:00 PM 15.74 60.332 0.647 8.37 0.66 11.33
10/22/2020 4:30:00 PM 15.76 60.368 0.648 8.37 1.03 11.33
10/22/2020 4:45:00 PM 15.79 60.422 0.648 8.37 0.73 11.28
10/22/2020 5:00:00 PM 15.78 60.404 0.648 8.37 0.85 11.19
10/22/2020 5:15:00 PM 15.76 60.368 0.649 8.37 1.61 11.04
10/22/2020 5:30:00 PM 15.71 60.278 0.649 8.36 2.6 10.79
10/22/2020 5:45:00 PM 15.65 60.17 0.649 8.34 0.83 10.58
10/22/2020 6:00:00 PM 15.58 60.044 0.65 8.33 0.99 10.38
10/22/2020 6:15:00 PM 15.52 59.936 0.65 8.31 0.61 10.14
10/22/2020 6:30:00 PM 15.46 59.828 0.65 8.29 0.85 9.93
10/22/2020 6:45:00 PM 15.4 59.72 0.651 8.28 1.4 9.72
10/22/2020 7:00:00 PM 15.34 59.612 0.651 8.28 3.02 9.53
10/22/2020 7:15:00 PM 15.29 59.522 0.651 8.27 2.86 9.37
10/22/2020 7:30:00 PM 15.24 59.432 0.651 8.26 3.47 9.23
10/22/2020 7:45:00 PM 15.21 59.378 0.651 8.24 5.21 9.13
10/22/2020 8:00:00 PM 15.19 59.342 0.651 8.22 6.07 9.06
10/22/2020 8:15:00 PM 15.19 59.342 0.65 8.21 5.89 9.01
10/22/2020 8:30:00 PM 15.19 59.342 0.65 8.2 11.87 8.97
10/22/2020 8:45:00 PM 15.19 59.342 0.65 8.2 755.2 8.93
10/22/2020 9:00:00 PM 15.19 59.342 0.65 8.2 929.8 8.9
10/22/2020 9:15:00 PM 15.18 59.324 0.651 8.19 1226 8.86
10/22/2020 9:30:00 PM 15.17 59.306 0.652 8.2 1718 8.82
10/22/2020 9:45:00 PM 15.15 59.27 0.652 8.19 11990 8.78
10/22/2020 10:00:00 PM 15.13 59.234 0.653 8.19 11990 8.74
10/22/2020 10:15:00 PM 15.1 59.18 0.654 8.2 870.5 8.69
10/22/2020 10:30:00 PM 15.07 59.126 0.655 8.2 688.3 8.64
10/22/2020 10:45:00 PM 15.04 59.072 0.656 8.2 519.5 8.59
10/22/2020 11:00:00 PM 15.02 59.036 0.656 8.2 609.9 8.56
10/22/2020 11:15:00 PM 14.99 58.982 0.657 8.19 11990 8.51
10/22/2020 11:30:00 PM 14.97 58.946 0.658 8.19 11990 8.47
10/22/2020 11:45:00 PM 14.95 58.91 0.658 8.19 1853 8.43
10/23/2020 12:00:00 AM 14.93 58.874 0.658 8.19 196.1 8.41
10/23/2020 12:15:00 AM 14.91 58.838 0.659 8.19 346.8 8.37
10/23/2020 12:30:00 AM 14.89 58.802 0.659 8.2 373.4 8.35
10/23/2020 12:45:00 AM 14.87 58.766 0.659 8.2 541.4 8.33
10/23/2020 1:00:00 AM 14.85 58.73 0.66 8.2 103.6 8.31
10/23/2020 1:15:00 AM 14.83 58.694 0.66 8.2 73.31 8.31
10/23/2020 1:30:00 AM 14.82 58.676 0.66 8.21 50.74 8.28
10/23/2020 1:45:00 AM 14.8 58.64 0.66 8.21 18.25 8.28
10/23/2020 2:00:00 AM 14.79 58.622 0.661 8.21 5.48 8.27
10/23/2020 2:15:00 AM 14.78 58.604 0.661 8.21 5.18 8.26
10/23/2020 2:30:00 AM 14.76 58.568 0.661 8.22 6.75 8.24
10/23/2020 2:45:00 AM 14.75 58.55 0.661 8.22 7.23 8.23
10/23/2020 3:00:00 AM 14.74 58.532 0.661 8.22 6.18 8.21
10/23/2020 3:15:00 AM 14.73 58.514 0.661 8.22 7.37 8.19
10/23/2020 3:30:00 AM 14.72 58.496 0.662 8.22 11.92 8.18
10/23/2020 3:45:00 AM 14.72 58.496 0.662 8.22 8.6 8.16
10/23/2020 4:00:00 AM 14.71 58.478 0.662 8.22 8.49 8.15
10/23/2020 4:15:00 AM 14.71 58.478 0.662 8.22 10.3 8.14
10/23/2020 4:30:00 AM 14.7 58.46 0.662 8.21 6.43 8.12
10/23/2020 4:45:00 AM 14.69 58.442 0.662 8.21 7.32 8.11
10/23/2020 5:00:00 AM 14.69 58.442 0.662 8.21 8.51 8.08
10/23/2020 5:15:00 AM 14.68 58.424 0.662 8.21 9.01 8.07
10/23/2020 5:30:00 AM 14.67 58.406 0.662 8.21 7.53 8.04
10/23/2020 5:45:00 AM 14.66 58.388 0.662 8.2 9.23 8.04
10/23/2020 6:00:00 AM 14.65 58.37 0.663 8.2 6.51 8.06
10/23/2020 6:15:00 AM 14.64 58.352 0.663 8.2 5.98 8.04
10/23/2020 6:30:00 AM 14.63 58.334 0.663 8.2 9.11 8.05
10/23/2020 6:45:00 AM 14.61 58.298 0.663 8.21 12.12 8.05
10/23/2020 7:00:00 AM 14.6 58.28 0.663 8.21 7.14 8.04
10/23/2020 7:15:00 AM 14.59 58.262 0.663 8.21 6.66 8.05
10/23/2020 7:30:00 AM 14.58 58.244 0.663 8.21 5.43 8.04
10/23/2020 7:45:00 AM 14.57 58.226 0.663 8.21 18.94 8.05
10/23/2020 8:00:00 AM 14.57 58.226 0.663 8.21 23.11 8.07
10/23/2020 8:15:00 AM 14.56 58.208 0.663 8.21 36.72 8.11
10/23/2020 8:30:00 AM 14.56 58.208 0.663 8.22 401.1 8.16
10/23/2020 8:45:00 AM 14.57 58.226 0.663 8.22 545.6 8.23
10/23/2020 9:00:00 AM 14.59 58.262 0.662 8.22 9.68 8.32
10/23/2020 9:15:00 AM 14.6 58.28 0.662 8.23 6.57 8.42
10/23/2020 9:30:00 AM 14.62 58.316 0.662 8.24 4.66 8.52
10/23/2020 9:45:00 AM 14.65 58.37 0.662 8.25 1.88 8.68
10/23/2020 10:00:00 AM 14.68 58.424 0.662 8.26 2.16 8.81
10/23/2020 10:15:00 AM 14.71 58.478 0.662 8.27 1.97 8.95
10/23/2020 10:30:00 AM 14.76 58.568 0.662 8.28 1.64 9.13
10/23/2020 10:45:00 AM 14.81 58.658 0.662 8.29 2.13 9.3
10/23/2020 11:00:00 AM 14.88 58.784 0.662 8.3 1.7 9.55
10/23/2020 11:15:00 AM 14.93 58.874 0.662 8.32 2.01 9.73
10/23/2020 11:30:00 AM 14.98 58.964 0.662 8.33 2.26 9.89
10/23/2020 11:45:00 AM 15.02 59.036 0.662 8.34 1.82 9.99
10/23/2020 12:00:00 PM 15.07 59.126 0.662 8.35 1.19 10.14
10/23/2020 12:15:00 PM 15.14 59.252 0.662 8.36 1.36 10.29
10/23/2020 12:30:00 PM 15.22 59.396 0.662 8.37 1.31 10.44
10/23/2020 12:45:00 PM 15.3 59.54 0.662 8.39 2.67 10.66
10/23/2020 1:00:00 PM 15.41 59.738 0.662 8.4 1.73 10.84
10/23/2020 1:15:00 PM 15.53 59.954 0.662 8.42 1.81 11.1
10/23/2020 1:30:00 PM 15.63 60.134 0.662 8.43 1.79 11.31
10/23/2020 1:45:00 PM 15.73 60.314 0.662 8.45 1.7 11.43
10/23/2020 2:00:00 PM 15.8 60.44 0.661 8.46 2.92 11.52
10/23/2020 2:15:00 PM 15.91 60.638 0.661 8.47 2.77 11.68
10/23/2020 2:30:00 PM 15.98 60.764 0.661 8.48 2.73 11.76
10/23/2020 2:45:00 PM 16.01 60.818 0.66 8.48 1.52 11.74
10/23/2020 3:00:00 PM 16.02 60.836 0.66 8.49 2.6 11.71
10/23/2020 3:15:00 PM 16.08 60.944 0.66 8.49 2.43 11.7
10/23/2020 3:30:00 PM 16.14 61.052 0.66 8.5 3 11.76
10/23/2020 3:45:00 PM 16.12 61.016 0.66 8.5 4.98 11.62
10/23/2020 4:00:00 PM 16.13 61.034 0.66 8.49 9.55 11.54
10/23/2020 4:15:00 PM 16.16 61.088 0.659 8.48 9.7 11.49
10/23/2020 4:30:00 PM 16.15 61.07 0.659 8.48 8.1 11.4
10/23/2020 4:45:00 PM 16.12 61.016 0.66 8.47 4.12 11.23
10/23/2020 5:00:00 PM 16.09 60.962 0.662 8.45 287.6 11
10/23/2020 5:15:00 PM 16.09 60.962 0.663 8.44 2.94 10.81
10/23/2020 5:30:00 PM 16.09 60.962 0.662 8.43 428.2 10.69
10/23/2020 5:45:00 PM 16.04 60.872 0.659 8.42 7.61 10.53
10/23/2020 6:00:00 PM 15.96 60.728 0.656 8.41 2.6 10.34
10/23/2020 6:15:00 PM 15.89 60.602 0.653 8.41 874.6 10.2
10/23/2020 6:30:00 PM 15.82 60.476 0.652 8.4 2.95 10.03
10/23/2020 6:45:00 PM 15.75 60.35 0.651 8.4 1.7 9.86
10/23/2020 7:00:00 PM 15.69 60.242 0.65 8.39 3.26 9.69
10/23/2020 7:15:00 PM 15.64 60.152 0.65 8.37 2.32 9.54
10/23/2020 7:30:00 PM 15.6 60.08 0.65 8.37 3.52 9.42
10/23/2020 7:45:00 PM 15.56 60.008 0.65 8.36 3.81 9.31
10/23/2020 8:00:00 PM 15.53 59.954 0.65 8.35 3.26 9.25
10/23/2020 8:15:00 PM 15.5 59.9 0.65 8.35 5.18 9.16
10/23/2020 8:30:00 PM 15.47 59.846 0.65 8.34 3.45 9.1
10/23/2020 8:45:00 PM 15.43 59.774 0.65 8.33 4.05 9.06
10/23/2020 9:00:00 PM 15.4 59.72 0.65 8.33 3.68 8.95
10/23/2020 9:15:00 PM 15.37 59.666 0.65 8.32 5.36 8.9
10/23/2020 9:30:00 PM 15.33 59.594 0.65 8.32 4.9 8.84
10/23/2020 9:45:00 PM 15.29 59.522 0.65 8.31 21.98 8.82
10/23/2020 10:00:00 PM 15.25 59.45 0.651 8.31 7.07 8.81
10/23/2020 10:15:00 PM 15.21 59.378 0.651 8.3 8.37 8.76
10/23/2020 10:30:00 PM 15.17 59.306 0.651 8.3 88.17 8.73
10/23/2020 10:45:00 PM 15.13 59.234 0.65 8.29 299.4 8.69
10/23/2020 11:00:00 PM 15.09 59.162 0.651 8.29 5.95 8.65
10/23/2020 11:15:00 PM 15.05 59.09 0.651 8.29 5.43 8.62
10/23/2020 11:30:00 PM 15.01 59.018 0.651 8.29 5.8 8.59
10/23/2020 11:45:00 PM 14.98 58.964 0.651 8.28 8.15 8.57
10/24/2020 12:00:00 AM 14.94 58.892 0.651 8.28 7.23 8.54
10/24/2020 12:15:00 AM 14.9 58.82 0.651 8.27 11.1 8.52
10/24/2020 12:30:00 AM 14.87 58.766 0.651 8.27 11.46 8.49
10/24/2020 12:45:00 AM 14.84 58.712 0.651 8.26 13.02 8.48
10/24/2020 1:00:00 AM 14.8 58.64 0.651 8.26 6.11 8.46
10/24/2020 1:15:00 AM 14.77 58.586 0.651 8.26 8.14 8.43
10/24/2020 1:30:00 AM 14.74 58.532 0.651 8.25 7.98 8.42
10/24/2020 1:45:00 AM 14.71 58.478 0.651 8.25 5.92 8.4
10/24/2020 2:00:00 AM 14.68 58.424 0.652 8.25 9.08 8.37
10/24/2020 2:15:00 AM 14.66 58.388 0.652 8.25 7.65 8.36
10/24/2020 2:30:00 AM 14.65 58.37 0.654 8.24 5.2 8.32
10/24/2020 2:45:00 AM 14.64 58.352 0.655 8.24 29.24 8.28
10/24/2020 3:00:00 AM 14.62 58.316 0.656 8.24 10.32 8.23
10/24/2020 3:15:00 AM 14.61 58.298 0.657 8.23 7.47 8.22
10/24/2020 3:30:00 AM 14.59 58.262 0.658 8.22 4.46 8.19
10/24/2020 3:45:00 AM 14.57 58.226 0.659 8.22 7.08 8.18
10/24/2020 4:00:00 AM 14.55 58.19 0.658 8.22 7.57 8.18
10/24/2020 4:15:00 AM 14.53 58.154 0.657 8.21 7.77 8.2
10/24/2020 4:30:00 AM 14.51 58.118 0.656 8.21 4.8 8.2
10/24/2020 4:45:00 AM 14.5 58.1 0.655 8.21 9.54 8.23
10/24/2020 5:00:00 AM 14.49 58.082 0.654 8.21 5.47 8.24
10/24/2020 5:15:00 AM 14.48 58.064 0.654 8.21 11990 8.26
10/24/2020 5:30:00 AM 14.48 58.064 0.653 8.21 318.4 8.28
10/24/2020 5:45:00 AM 14.48 58.064 0.653 8.21 6.74 8.28
10/24/2020 6:00:00 AM 14.48 58.064 0.653 8.21 5.1 8.28
10/24/2020 6:15:00 AM 14.48 58.064 0.653 8.21 4.85 8.27
10/24/2020 6:30:00 AM 14.48 58.064 0.652 8.21 6.22 8.25
10/24/2020 6:45:00 AM 14.47 58.046 0.652 8.21 5.64 8.26
10/24/2020 7:00:00 AM 14.47 58.046 0.652 8.2 620.3 8.26
10/24/2020 7:15:00 AM 14.47 58.046 0.652 8.21 18.81 8.26
10/24/2020 7:30:00 AM 14.48 58.064 0.652 8.21 3.81 8.25
10/24/2020 7:45:00 AM 14.48 58.064 0.652 8.21 3.38 8.25
10/24/2020 8:00:00 AM 14.49 58.082 0.652 8.21 3.63 8.23
10/24/2020 8:15:00 AM 14.49 58.082 0.652 8.21 4.87 8.29
10/24/2020 8:30:00 AM 14.5 58.1 0.651 8.21 341.4 8.3
10/24/2020 8:45:00 AM 14.51 58.118 0.651 8.21 2842 8.34
10/24/2020 9:00:00 AM 14.52 58.136 0.651 8.21 8005 8.43
10/24/2020 9:15:00 AM 14.54 58.172 0.651 8.22 667.3 8.51
10/24/2020 9:30:00 AM 14.57 58.226 0.651 8.22 604.6 8.66
10/24/2020 9:45:00 AM 14.61 58.298 0.651 8.23 1.9 8.81
10/24/2020 10:00:00 AM 14.65 58.37 0.65 8.24 1.91 9.03
10/24/2020 10:15:00 AM 14.7 58.46 0.65 8.25 1.88 9.24
10/24/2020 10:30:00 AM 14.76 58.568 0.65 8.26 1.45 9.42
10/24/2020 10:45:00 AM 14.83 58.694 0.649 8.28 1.82 9.67
10/24/2020 11:00:00 AM 14.9 58.82 0.649 8.3 5.87 9.88
10/24/2020 11:15:00 AM 14.95 58.91 0.649 8.31 10560 10.05
10/24/2020 11:30:00 AM 14.99 58.982 0.649 8.31 3.41 10.15
10/24/2020 11:45:00 AM 15.01 59.018 0.649 8.32 1.88 10.11
10/24/2020 12:00:00 PM 15.03 59.054 0.649 8.32 1.55 10.1
10/24/2020 12:15:00 PM 15.05 59.09 0.649 8.33 1.52 10.1
10/24/2020 12:30:00 PM 15.05 59.09 0.649 8.33 2.25 10.08
10/24/2020 12:45:00 PM 15.04 59.072 0.649 8.33 509.6 10.01
10/24/2020 1:00:00 PM 15.05 59.09 0.649 8.33 1.89 10.01
10/24/2020 1:15:00 PM 15.07 59.126 0.648 8.33 1.08 10.08
10/24/2020 1:30:00 PM 15.11 59.198 0.648 8.34 2.11 10.21
10/24/2020 1:45:00 PM 15.14 59.252 0.648 8.35 7251 10.35
10/24/2020 2:00:00 PM 15.16 59.288 0.647 8.35 13.77 10.41
10/24/2020 2:15:00 PM 15.16 59.288 0.647 8.36 2.16 10.43
10/24/2020 2:30:00 PM 15.18 59.324 0.647 8.36 1166 10.53
10/24/2020 2:45:00 PM 15.21 59.378 0.647 8.37 1.26 10.67
10/24/2020 3:00:00 PM 15.24 59.432 0.646 8.38 1.91 10.79
10/24/2020 3:15:00 PM 15.27 59.486 0.646 8.39 2.34 10.89
10/24/2020 3:30:00 PM 15.29 59.522 0.646 8.41 2.12 11.05
10/24/2020 3:45:00 PM 15.29 59.522 0.645 8.42 751.7 11.13
10/24/2020 4:00:00 PM 15.29 59.522 0.645 8.43 2.06 11.15
10/24/2020 4:15:00 PM 15.29 59.522 0.645 8.43 1.79 11.19
10/24/2020 4:30:00 PM 15.31 59.558 0.645 8.44 2801 11.21
10/24/2020 4:45:00 PM 15.27 59.486 0.645 8.44 2.89 11.1
10/24/2020 5:00:00 PM 15.21 59.378 0.645 8.43 2.37 10.93
10/24/2020 5:15:00 PM 15.19 59.342 0.645 8.43 2.01 10.88
10/24/2020 5:30:00 PM 15.16 59.288 0.646 8.42 3.99 10.75
10/24/2020 5:45:00 PM 15.1 59.18 0.646 8.42 3.45 10.53
10/24/2020 6:00:00 PM 15.03 59.054 0.647 8.4 3.22 10.29
10/24/2020 6:15:00 PM 14.96 58.928 0.647 8.39 2.33 10.09
10/24/2020 6:30:00 PM 14.88 58.784 0.647 8.38 2.64 9.89
10/24/2020 6:45:00 PM 14.81 58.658 0.648 8.37 3.5 9.72
10/24/2020 7:00:00 PM 14.74 58.532 0.648 8.35 2.69 9.57
10/24/2020 7:15:00 PM 14.68 58.424 0.648 8.34 6.11 9.45
10/24/2020 7:30:00 PM 14.62 58.316 0.648 8.34 4.35 9.37
10/24/2020 7:45:00 PM 14.57 58.226 0.648 8.33 2.88 9.25
10/24/2020 8:00:00 PM 14.52 58.136 0.648 8.33 2.77 9.19
10/24/2020 8:15:00 PM 14.47 58.046 0.649 8.32 3.63 9.12
10/24/2020 8:30:00 PM 14.42 57.956 0.649 8.32 3.41 9.07
10/24/2020 8:45:00 PM 14.36 57.848 0.649 8.31 4.25 9.02
10/24/2020 9:00:00 PM 14.31 57.758 0.649 8.3 3.94 8.98
10/24/2020 9:15:00 PM 14.26 57.668 0.65 8.3 2.76 8.92
10/24/2020 9:30:00 PM 14.22 57.596 0.65 8.29 2.88 8.88
10/24/2020 9:45:00 PM 14.17 57.506 0.65 8.3 3.93 8.83
10/24/2020 10:00:00 PM 14.12 57.416 0.65 8.29 4.58 8.81
10/24/2020 10:15:00 PM 14.07 57.326 0.65 8.29 4.14 8.77
10/24/2020 10:30:00 PM 14.02 57.236 0.65 8.29 3.46 8.74
10/24/2020 10:45:00 PM 13.97 57.146 0.65 8.3 7.45 8.71
10/24/2020 11:00:00 PM 13.91 57.038 0.65 8.29 3.4 8.7
10/24/2020 11:15:00 PM 13.85 56.93 0.65 8.29 5.47 8.67
10/24/2020 11:30:00 PM 13.8 56.84 0.651 8.29 3.09 8.66
10/24/2020 11:45:00 PM 13.74 56.732 0.651 8.29 3.45 8.63
10/25/2020 12:00:00 AM 13.69 56.642 0.651 8.29 4.25 8.63
10/25/2020 12:15:00 AM 13.64 56.552 0.651 8.29 4.55 8.62
10/25/2020 12:30:00 AM 13.59 56.462 0.652 8.29 3.28 8.6
10/25/2020 12:45:00 AM 13.54 56.372 0.652 8.28 4.48 8.6
10/25/2020 1:00:00 AM 13.49 56.282 0.652 8.28 4.11 8.61
10/25/2020 1:15:00 AM 13.43 56.174 0.652 8.28 4.93 8.61
10/25/2020 1:30:00 AM 13.38 56.084 0.652 8.28 5.23 8.59
10/25/2020 1:45:00 AM 13.33 55.994 0.652 8.28 5.71 8.61
10/25/2020 2:00:00 AM 13.29 55.922 0.652 8.28 5.11 8.6
10/25/2020 2:15:00 AM 13.24 55.832 0.652 8.28 5.36 8.59
10/25/2020 2:30:00 AM 13.19 55.742 0.652 8.28 4.49 8.59
10/25/2020 2:45:00 AM 13.15 55.67 0.652 8.29 5.02 8.59
10/25/2020 3:00:00 AM 13.11 55.598 0.652 8.29 5.52 8.58
10/25/2020 3:15:00 AM 13.07 55.526 0.652 8.29 8.77 8.59
10/25/2020 3:30:00 AM 13.03 55.454 0.652 8.29 6.11 8.58
10/25/2020 4:00:00 AM 12.95 55.31 0.653 8.29 5.27 8.59
10/25/2020 4:15:00 AM 12.9 55.22 0.653 8.3 3.71 8.6
10/25/2020 4:30:00 AM 12.86 55.148 0.652 8.3 5.41 8.6
10/25/2020 4:45:00 AM 12.81 55.058 0.652 8.3 5.55 8.6
10/25/2020 5:00:00 AM 12.77 54.986 0.652 8.3 4.5 8.61
10/25/2020 5:15:00 AM 12.73 54.914 0.652 8.3 4.6 8.62
10/25/2020 5:30:00 AM 12.69 54.842 0.652 8.3 10.26 8.62
10/25/2020 5:45:00 AM 12.66 54.788 0.653 8.3 5.91 8.63
10/25/2020 6:00:00 AM 12.62 54.716 0.653 8.3 5.09 8.63
10/25/2020 6:15:00 AM 12.59 54.662 0.652 8.3 6.49 8.64
10/25/2020 6:30:00 AM 12.55 54.59 0.652 8.3 11.59 8.65
10/25/2020 6:45:00 AM 12.52 54.536 0.652 8.3 7.4 8.65
10/25/2020 7:00:00 AM 12.48 54.464 0.652 8.3 5.91 8.65
10/25/2020 7:15:00 AM 12.45 54.41 0.652 8.29 4.72 8.66
10/25/2020 7:30:00 AM 12.41 54.338 0.652 8.3 4.13 8.67
10/25/2020 7:45:00 AM 12.39 54.302 0.652 8.3 4.26 8.69
10/25/2020 8:00:00 AM 12.37 54.266 0.652 8.3 4.67 8.71
10/25/2020 8:15:00 AM 12.36 54.248 0.652 8.3 5.39 8.76
10/25/2020 8:30:00 AM 12.35 54.23 0.652 8.3 2.81 8.83
10/25/2020 8:45:00 AM 12.35 54.23 0.652 8.3 3.27 8.92
10/25/2020 9:00:00 AM 12.35 54.23 0.651 8.31 4.95 9
10/25/2020 9:15:00 AM 12.37 54.266 0.652 8.31 3.59 9.08
10/25/2020 9:30:00 AM 12.39 54.302 0.652 8.32 3.11 9.22
10/25/2020 9:45:00 AM 12.41 54.338 0.652 8.32 2.64 9.38
10/25/2020 10:00:00 AM 12.44 54.392 0.653 8.33 6.03 9.54
10/25/2020 10:15:00 AM 12.47 54.446 0.653 8.34 2.65 9.75
10/25/2020 10:30:00 AM 12.49 54.482 0.653 8.35 3.79 9.91
10/25/2020 10:45:00 AM 12.51 54.518 0.654 8.36 3 10.05
10/25/2020 11:00:00 AM 12.53 54.554 0.654 8.37 2.61 10.19
10/25/2020 11:15:00 AM 12.56 54.608 0.654 8.38 2.62 10.29
10/25/2020 11:30:00 AM 12.6 54.68 0.655 8.38 2.91 10.45
10/25/2020 11:45:00 AM 12.65 54.77 0.655 8.39 3.03 10.62
10/25/2020 12:00:00 PM 12.7 54.86 0.656 8.41 2.68 10.8
10/25/2020 12:15:00 PM 12.74 54.932 0.656 8.43 2.58 10.93
10/25/2020 12:30:00 PM 12.77 54.986 0.656 8.44 3.43 11.02
10/25/2020 12:45:00 PM 12.79 55.022 0.656 8.44 2.4 11.09
10/25/2020 1:00:00 PM 12.81 55.058 0.656 8.44 2.49 11.15
10/25/2020 1:15:00 PM 12.85 55.13 0.655 8.45 2.58 11.23
10/25/2020 1:30:00 PM 12.88 55.184 0.655 8.47 2.27 11.32
10/25/2020 1:45:00 PM 12.88 55.184 0.655 8.48 3.54 11.34
10/25/2020 2:00:00 PM 12.88 55.184 0.655 8.48 3.13 11.3
10/25/2020 2:15:00 PM 12.88 55.184 0.655 8.48 5.93 11.28
10/25/2020 2:30:00 PM 12.88 55.184 0.655 8.48 4.15 11.27
10/25/2020 2:45:00 PM 12.88 55.184 0.654 8.48 3.57 11.29
10/25/2020 3:00:00 PM 12.88 55.184 0.654 8.48 2.34 11.32
10/25/2020 3:15:00 PM 12.87 55.166 0.653 8.48 3.33 11.3
10/25/2020 3:30:00 PM 12.85 55.13 0.653 8.49 3.51 11.27
10/25/2020 3:45:00 PM 12.84 55.112 0.653 8.49 3.21 11.23
10/25/2020 4:00:00 PM 12.83 55.094 0.652 8.49 3.41 11.17
10/25/2020 4:15:00 PM 12.81 55.058 0.652 8.48 3.39 11.11
10/25/2020 4:30:00 PM 12.8 55.04 0.652 8.48 3.09 11.07
10/25/2020 4:45:00 PM 12.78 55.004 0.651 8.48 3.01 11
10/25/2020 5:00:00 PM 12.76 54.968 0.652 8.48 4.93 10.9
10/25/2020 5:15:00 PM 12.74 54.932 0.652 8.48 3.28 10.8
10/25/2020 5:30:00 PM 12.72 54.896 0.652 8.47 2.77 10.67
10/25/2020 5:45:00 PM 12.7 54.86 0.653 8.46 2.73 10.52
10/25/2020 6:00:00 PM 12.67 54.806 0.653 8.45 3.12 10.38
10/25/2020 6:15:00 PM 12.65 54.77 0.654 8.45 2.64 10.26
10/25/2020 6:30:00 PM 12.62 54.716 0.654 8.43 2.5 10.13
10/25/2020 6:45:00 PM 12.59 54.662 0.655 8.42 4.54 10.01
10/25/2020 7:00:00 PM 12.56 54.608 0.655 8.41 4.59 9.91
10/25/2020 7:15:00 PM 12.54 54.572 0.655 8.41 6.03 9.82
10/25/2020 7:30:00 PM 12.52 54.536 0.655 8.4 3.81 9.74
10/25/2020 7:45:00 PM 12.5 54.5 0.655 8.4 2.78 9.66
10/25/2020 8:00:00 PM 12.48 54.464 0.656 8.39 5.42 9.6
10/25/2020 8:15:00 PM 12.46 54.428 0.656 8.38 3.42 9.54
10/25/2020 8:30:00 PM 12.43 54.374 0.656 8.38 4.15 9.48
10/25/2020 8:45:00 PM 12.41 54.338 0.655 8.37 4.48 9.44
10/25/2020 9:00:00 PM 12.38 54.284 0.655 8.37 6.61 9.41
10/25/2020 9:15:00 PM 12.35 54.23 0.654 8.36 4.23 9.38
10/25/2020 9:30:00 PM 12.33 54.194 0.654 8.36 3.96 9.38
10/25/2020 9:45:00 PM 12.3 54.14 0.653 8.36 3.92 9.33
10/25/2020 10:00:00 PM 12.28 54.104 0.653 8.36 7.13 9.32
10/25/2020 10:15:00 PM 12.25 54.05 0.653 8.36 6.59 9.31
10/25/2020 10:30:00 PM 12.22 53.996 0.653 8.35 4.2 9.28
10/25/2020 10:45:00 PM 12.21 53.978 0.653 8.35 9.64 9.26
10/25/2020 11:00:00 PM 12.19 53.942 0.652 8.34 5.63 9.26
10/25/2020 11:15:00 PM 12.17 53.906 0.653 8.34 5.72 9.22
10/25/2020 11:30:00 PM 12.15 53.87 0.652 8.34 4.19 9.2
10/25/2020 11:45:00 PM 12.14 53.852 0.652 8.34 4.26 9.19
10/26/2020 12:00:00 AM 12.12 53.816 0.652 8.34 4.57 9.17
10/26/2020 12:15:00 AM 12.11 53.798 0.652 8.34 4.96 9.15
10/26/2020 12:30:00 AM 12.09 53.762 0.652 8.34 4.51 9.13
10/26/2020 12:45:00 AM 12.07 53.726 0.652 8.33 3.93 9.12
10/26/2020 1:00:00 AM 12.06 53.708 0.652 8.33 3.87 9.1
10/26/2020 1:15:00 AM 12.05 53.69 0.652 8.33 4.45 9.08
10/26/2020 1:30:00 AM 12.04 53.672 0.651 8.33 5.08 9.07
10/26/2020 1:45:00 AM 12.03 53.654 0.651 8.33 7.73 9.05
10/26/2020 2:00:00 AM 12.03 53.654 0.651 8.32 6.35 9.03
10/26/2020 2:15:00 AM 12.01 53.618 0.65 8.32 5.7 9.03
10/26/2020 2:30:00 AM 12 53.6 0.65 8.32 7.55 9
10/26/2020 2:45:00 AM 11.99 53.582 0.65 8.32 7.81 9
10/26/2020 3:00:00 AM 11.98 53.564 0.649 8.32 6.89 8.99
10/26/2020 3:15:00 AM 11.97 53.546 0.65 8.32 5.2 8.98
10/26/2020 3:30:00 AM 11.96 53.528 0.649 8.32 5.86 8.98
10/26/2020 3:45:00 AM 11.95 53.51 0.65 8.32 5.65 8.98
10/26/2020 4:00:00 AM 11.94 53.492 0.65 8.32 9.85 8.98
10/26/2020 4:15:00 AM 11.93 53.474 0.649 8.32 5.57 8.98
10/26/2020 4:30:00 AM 11.92 53.456 0.65 8.32 6.04 8.98
10/26/2020 4:45:00 AM 11.91 53.438 0.65 8.32 6.85 8.98
10/26/2020 5:00:00 AM 11.91 53.438 0.65 8.33 7.7 8.98
10/26/2020 5:15:00 AM 11.9 53.42 0.65 8.32 8.82 8.98
10/26/2020 5:30:00 AM 11.9 53.42 0.65 8.33 6.96 8.99
10/26/2020 5:45:00 AM 11.9 53.42 0.65 8.32 5.86 8.99
10/26/2020 6:00:00 AM 11.9 53.42 0.65 8.33 5.54 8.99
10/26/2020 6:15:00 AM 11.89 53.402 0.65 8.32 7.01 8.99
10/26/2020 6:30:00 AM 11.89 53.402 0.65 8.32 5.85 9
10/26/2020 6:45:00 AM 11.89 53.402 0.65 8.32 6.2 9.01
10/26/2020 7:00:00 AM 11.89 53.402 0.65 8.32 5.86 9
10/26/2020 7:15:00 AM 11.88 53.384 0.649 8.32 5.82 9
10/26/2020 7:30:00 AM 11.88 53.384 0.649 8.32 10.15 9
10/26/2020 7:45:00 AM 11.89 53.402 0.649 8.31 4.53 9.01
10/26/2020 8:00:00 AM 11.89 53.402 0.649 8.31 3.71 9.02
10/26/2020 8:15:00 AM 11.89 53.402 0.649 8.31 4.58 9.02
10/26/2020 8:30:00 AM 11.9 53.42 0.649 8.31 3.91 9.06
10/26/2020 8:45:00 AM 11.91 53.438 0.648 8.32 3.88 9.1
10/26/2020 9:00:00 AM 11.92 53.456 0.648 8.32 3.48 9.16
10/26/2020 9:15:00 AM 11.95 53.51 0.649 8.32 2.79 9.24
10/26/2020 9:30:00 AM 11.97 53.546 0.649 8.32 2.99 9.34
10/26/2020 9:45:00 AM 12 53.6 0.649 8.33 3.44 9.44
10/26/2020 10:00:00 AM 12.02 53.636 0.649 8.33 2.75 9.51
10/26/2020 10:15:00 AM 12.05 53.69 0.649 8.33 3.04 9.57
10/26/2020 10:30:00 AM 12.07 53.726 0.649 8.33 4.18 9.62
10/26/2020 10:45:00 AM 12.09 53.762 0.649 8.34 3.37 9.72
10/26/2020 11:00:00 AM 12.12 53.816 0.649 8.35 2.33 9.82
10/26/2020 11:15:00 AM 12.16 53.888 0.649 8.35 2.17 9.96
10/26/2020 11:30:00 AM 12.21 53.978 0.65 8.36 2.2 10.09
10/26/2020 11:45:00 AM 12.25 54.05 0.65 8.37 2.99 10.21
10/26/2020 12:00:00 PM 12.29 54.122 0.65 8.37 2.64 10.32
10/26/2020 12:15:00 PM 12.32 54.176 0.649 8.38 2.52 10.41
10/26/2020 12:30:00 PM 12.35 54.23 0.649 8.39 2.3 10.46
10/26/2020 12:45:00 PM 12.39 54.302 0.648 8.4 2.58 10.53
10/26/2020 1:00:00 PM 12.42 54.356 0.648 8.4 2.27 10.63
10/26/2020 1:15:00 PM 12.45 54.41 0.647 8.42 2.42 10.71
10/26/2020 1:30:00 PM 12.49 54.482 0.647 8.42 2.25 10.75
10/26/2020 1:45:00 PM 12.54 54.572 0.646 8.43 2.31 10.85
10/26/2020 2:00:00 PM 12.57 54.626 0.646 8.43 3.06 10.9
10/26/2020 2:15:00 PM 12.6 54.68 0.646 8.44 2.5 10.9
10/26/2020 2:30:00 PM 12.62 54.716 0.645 8.44 2.25 10.88
10/26/2020 2:45:00 PM 12.64 54.752 0.645 8.44 2.72 10.83
10/26/2020 3:00:00 PM 12.66 54.788 0.644 8.44 2.18 10.82
10/26/2020 3:15:00 PM 12.68 54.824 0.644 8.44 2.13 10.81
10/26/2020 3:30:00 PM 12.7 54.86 0.644 8.44 2.02 10.81
10/26/2020 3:45:00 PM 12.72 54.896 0.645 8.44 2.37 10.78
10/26/2020 4:00:00 PM 12.73 54.914 0.645 8.44 2.61 10.72
10/26/2020 4:15:00 PM 12.74 54.932 0.645 8.43 2.13 10.63
10/26/2020 4:30:00 PM 12.75 54.95 0.645 8.43 1.98 10.55
10/26/2020 4:45:00 PM 12.75 54.95 0.645 8.42 3.16 10.44
10/26/2020 5:00:00 PM 12.76 54.968 0.645 8.42 2.33 10.32
10/26/2020 5:15:00 PM 12.77 54.986 0.645 8.41 2.85 10.26
10/26/2020 5:30:00 PM 12.79 55.022 0.645 8.41 2.47 10.18
10/26/2020 5:45:00 PM 12.8 55.04 0.645 8.4 2.36 10.1
10/26/2020 6:00:00 PM 12.81 55.058 0.645 8.39 2.95 9.99
10/26/2020 6:15:00 PM 12.82 55.076 0.645 8.39 2.41 9.89
10/26/2020 6:30:00 PM 12.82 55.076 0.645 8.38 3.56 9.8
10/26/2020 6:45:00 PM 12.82 55.076 0.645 8.37 12.16 9.7
10/26/2020 7:00:00 PM 12.82 55.076 0.645 8.36 3.77 9.61
10/26/2020 7:15:00 PM 12.81 55.058 0.644 8.36 3.95 9.55
10/26/2020 7:30:00 PM 12.81 55.058 0.644 8.35 4.14 9.48
10/26/2020 7:45:00 PM 12.81 55.058 0.644 8.34 4.07 9.43
10/26/2020 8:00:00 PM 12.81 55.058 0.644 8.34 4.92 9.39
10/26/2020 8:15:00 PM 12.81 55.058 0.643 8.33 5.31 9.35
10/26/2020 8:30:00 PM 12.8 55.04 0.643 8.33 4.6 9.32
10/26/2020 8:45:00 PM 12.8 55.04 0.642 8.32 5.5 9.3
10/26/2020 9:00:00 PM 12.79 55.022 0.642 8.32 5.87 9.26
10/26/2020 9:15:00 PM 12.79 55.022 0.642 8.32 5.46 9.24
10/26/2020 9:30:00 PM 12.8 55.04 0.641 8.32 5.8 9.21
10/26/2020 9:45:00 PM 12.79 55.022 0.641 8.31 5.21 9.19
10/26/2020 10:00:00 PM 12.79 55.022 0.641 8.31 5.06 9.19
10/26/2020 10:15:00 PM 12.78 55.004 0.642 8.31 5.22 9.16
10/26/2020 10:30:00 PM 12.78 55.004 0.641 8.3 5.36 9.16
10/26/2020 10:45:00 PM 12.78 55.004 0.641 8.3 4.92 9.15
10/26/2020 11:00:00 PM 12.77 54.986 0.641 8.3 5.67 9.12
10/26/2020 11:15:00 PM 12.76 54.968 0.641 8.3 6.19 9.12
10/26/2020 11:30:00 PM 12.75 54.95 0.642 8.29 3.91 9.11
10/26/2020 11:45:00 PM 12.74 54.932 0.642 8.3 4.67 9.11
10/27/2020 12:00:00 AM 12.74 54.932 0.642 8.29 4.14 9.09
10/27/2020 12:15:00 AM 12.73 54.914 0.642 8.29 6.23 9.06
10/27/2020 12:30:00 AM 12.72 54.896 0.643 8.29 4.96 9.05
10/27/2020 12:45:00 AM 12.71 54.878 0.642 8.29 6.14 9.03
10/27/2020 1:00:00 AM 12.7 54.86 0.642 8.29 10.09 9.03
10/27/2020 1:15:00 AM 12.68 54.824 0.642 8.3 3.79 9.01
10/27/2020 1:30:00 AM 12.67 54.806 0.642 8.3 4.55 9
10/27/2020 1:45:00 AM 12.67 54.806 0.642 8.29 5.28 8.99
10/27/2020 2:00:00 AM 12.66 54.788 0.642 8.3 5.03 8.98
10/27/2020 2:15:00 AM 12.66 54.788 0.641 8.3 5.86 8.98
10/27/2020 2:30:00 AM 12.65 54.77 0.641 8.3 5.18 8.97
10/27/2020 2:45:00 AM 12.64 54.752 0.641 8.29 4.75 8.96
10/27/2020 3:00:00 AM 12.64 54.752 0.64 8.3 7.23 8.96
10/27/2020 3:15:00 AM 12.63 54.734 0.639 8.3 5.17 8.96
10/27/2020 3:30:00 AM 12.63 54.734 0.639 8.29 4.83 8.97
10/27/2020 3:45:00 AM 12.63 54.734 0.639 8.29 5.03 8.95
10/27/2020 4:00:00 AM 12.62 54.716 0.639 8.29 5.14 8.95
10/27/2020 4:15:00 AM 12.61 54.698 0.639 8.3 8.76 8.96
10/27/2020 4:30:00 AM 12.59 54.662 0.639 8.29 8.03 8.96
10/27/2020 4:45:00 AM 12.56 54.608 0.64 8.29 8.26 8.95
10/27/2020 5:00:00 AM 12.52 54.536 0.641 8.29 7.17 8.93
10/27/2020 5:15:00 AM 12.49 54.482 0.643 8.29 5.09 8.92
10/27/2020 5:30:00 AM 12.46 54.428 0.643 8.29 5.22 8.91
10/27/2020 5:45:00 AM 12.44 54.392 0.645 8.29 6.45 8.91
10/27/2020 6:00:00 AM 12.44 54.392 0.645 8.29 5.49 8.9
10/27/2020 6:15:00 AM 12.44 54.392 0.646 8.29 5.23 8.91
10/27/2020 6:30:00 AM 12.45 54.41 0.646 8.29 5.12 8.89
10/27/2020 6:45:00 AM 12.46 54.428 0.646 8.28 5.42 8.88
10/27/2020 7:00:00 AM 12.47 54.446 0.645 8.28 5.73 8.91
10/27/2020 7:15:00 AM 12.48 54.464 0.645 8.28 5.24 8.89
10/27/2020 7:30:00 AM 12.49 54.482 0.645 8.27 5.1 8.89
10/27/2020 7:45:00 AM 12.49 54.482 0.645 8.28 7.24 8.88
10/27/2020 8:00:00 AM 12.5 54.5 0.645 8.28 5.46 8.9
10/27/2020 8:15:00 AM 12.51 54.518 0.645 8.27 4.18 8.95
10/27/2020 8:30:00 AM 12.52 54.536 0.645 8.28 4.7 9.03
10/27/2020 8:45:00 AM 12.54 54.572 0.645 8.28 5.14 9.14
10/27/2020 9:00:00 AM 12.57 54.626 0.645 8.28 3.76 9.28
10/27/2020 9:15:00 AM 12.58 54.644 0.646 8.29 4.11 9.42
10/27/2020 9:30:00 AM 12.61 54.698 0.645 8.3 3.62 9.58
10/27/2020 9:45:00 AM 12.67 54.806 0.645 8.31 5.95 9.81
10/27/2020 10:00:00 AM 12.73 54.914 0.645 8.33 3.63 10.08
10/27/2020 10:15:00 AM 12.76 54.968 0.646 8.34 2.86 10.22
10/27/2020 10:30:00 AM 12.79 55.022 0.646 8.36 3.29 10.37
10/27/2020 10:45:00 AM 12.86 55.148 0.647 8.36 3.33 10.53
10/27/2020 11:00:00 AM 12.92 55.256 0.649 8.37 2.58 10.67
10/27/2020 11:15:00 AM 12.97 55.346 0.65 8.39 3.13 10.8
10/27/2020 11:30:00 AM 13.08 55.544 0.65 8.4 2.63 11.02
10/27/2020 11:45:00 AM 13.22 55.796 0.651 8.42 2.32 11.3
10/27/2020 12:00:00 PM 13.33 55.994 0.651 8.43 2.81 11.5
10/27/2020 12:15:00 PM 13.44 56.192 0.651 8.44 3.49 11.71
10/27/2020 12:30:00 PM 13.6 56.48 0.651 8.46 2.99 11.89
10/27/2020 12:45:00 PM 13.8 56.84 0.651 8.47 2.96 12.09
10/27/2020 1:00:00 PM 13.96 57.128 0.651 8.47 3.24 12.25
10/27/2020 1:15:00 PM 14.05 57.29 0.651 8.48 3.32 12.36
10/27/2020 1:30:00 PM 14.03 57.254 0.65 8.49 3.95 12.37
10/27/2020 1:45:00 PM 14.03 57.254 0.651 8.5 4.22 12.33
10/27/2020 2:00:00 PM 14.04 57.272 0.651 8.51 3.44 12.31
10/27/2020 2:15:00 PM 14.12 57.416 0.65 8.51 4.14 12.38
10/27/2020 2:30:00 PM 14.22 57.596 0.65 8.52 4.05 12.49
10/27/2020 2:45:00 PM 14.22 57.596 0.649 8.52 3.48 12.49
10/27/2020 3:00:00 PM 14.17 57.506 0.649 8.52 3.59 12.37
10/27/2020 3:15:00 PM 14.18 57.524 0.649 8.52 3.61 12.38
10/27/2020 3:30:00 PM 14.22 57.596 0.649 8.53 3.72 12.42
10/27/2020 3:45:00 PM 14.21 57.578 0.649 8.53 4.48 12.36
10/27/2020 4:00:00 PM 14.17 57.506 0.649 8.52 4.04 12.21
10/27/2020 4:15:00 PM 14.13 57.434 0.65 8.52 4.25 12.07
10/27/2020 4:30:00 PM 14.1 57.38 0.65 8.52 3.09 11.92
10/27/2020 4:45:00 PM 14.06 57.308 0.651 8.51 4.87 11.8
10/27/2020 5:00:00 PM 14.03 57.254 0.652 8.5 4.62 11.69
10/27/2020 5:15:00 PM 14.01 57.218 0.653 8.5 3.31 11.64
10/27/2020 5:30:00 PM 13.96 57.128 0.653 8.5 3.78 11.46
10/27/2020 5:45:00 PM 13.91 57.038 0.653 8.48 3.56 11.22
10/27/2020 6:00:00 PM 13.87 56.966 0.654 8.47 4.45 11.04
10/27/2020 6:15:00 PM 13.83 56.894 0.654 8.46 4.07 10.84
10/27/2020 6:30:00 PM 13.79 56.822 0.654 8.44 4.24 10.61
10/27/2020 6:45:00 PM 13.76 56.768 0.654 8.43 6.56 10.43
10/27/2020 7:00:00 PM 13.74 56.732 0.652 8.41 3.94 10.27
10/27/2020 7:15:00 PM 13.72 56.696 0.651 8.41 3.73 10.13
10/27/2020 7:30:00 PM 13.69 56.642 0.65 8.4 4.09 10.01
10/27/2020 7:45:00 PM 13.67 56.606 0.649 8.39 4.99 9.9
10/27/2020 8:00:00 PM 13.66 56.588 0.649 8.38 7.02 9.81
10/27/2020 8:15:00 PM 13.65 56.57 0.648 8.37 4.45 9.73
10/27/2020 8:30:00 PM 13.65 56.57 0.648 8.37 5.27 9.65
10/27/2020 8:45:00 PM 13.64 56.552 0.648 8.37 4.78 9.58
10/27/2020 9:00:00 PM 13.64 56.552 0.649 8.36 6.16 9.52
10/27/2020 9:15:00 PM 13.64 56.552 0.65 8.36 7.55 9.45
10/27/2020 9:30:00 PM 13.63 56.534 0.65 8.35 5.66 9.4
10/27/2020 9:45:00 PM 13.63 56.534 0.649 8.35 6.16 9.36
10/27/2020 10:00:00 PM 13.62 56.516 0.65 8.34 5.96 9.33
10/27/2020 10:15:00 PM 13.61 56.498 0.65 8.34 7.41 9.29
10/27/2020 10:30:00 PM 13.59 56.462 0.65 8.34 7.48 9.25
10/27/2020 10:45:00 PM 13.57 56.426 0.65 8.33 5.98 9.22
10/27/2020 11:00:00 PM 13.55 56.39 0.651 8.33 8.32 9.17
10/27/2020 11:15:00 PM 13.53 56.354 0.651 8.33 7.78 9.14
10/27/2020 11:30:00 PM 13.51 56.318 0.651 8.32 8.52 9.1
10/27/2020 11:45:00 PM 13.48 56.264 0.651 8.32 9.47 9.08
10/28/2020 12:00:00 AM 13.47 56.246 0.651 8.32 9.13 9.05
10/28/2020 12:15:00 AM 13.45 56.21 0.652 8.31 12.23 9.02
10/28/2020 12:30:00 AM 13.43 56.174 0.652 8.31 9.3 9.01
10/28/2020 12:45:00 AM 13.42 56.156 0.652 8.31 8.12 8.98
10/28/2020 1:00:00 AM 13.4 56.12 0.652 8.31 7.3 8.97
10/28/2020 1:15:00 AM 13.39 56.102 0.653 8.31 5.87 8.93
10/28/2020 1:30:00 AM 13.37 56.066 0.653 8.31 5.71 8.93
10/28/2020 1:45:00 AM 13.36 56.048 0.653 8.3 5.86 8.9
10/28/2020 2:00:00 AM 13.34 56.012 0.653 8.3 5.97 8.89
10/28/2020 2:15:00 AM 13.33 55.994 0.653 8.3 6.34 8.85
10/28/2020 2:30:00 AM 13.32 55.976 0.653 8.3 7.06 8.85
10/28/2020 2:45:00 AM 13.3 55.94 0.653 8.3 6.82 8.83
10/28/2020 3:00:00 AM 13.29 55.922 0.653 8.3 5.58 8.81
10/28/2020 3:15:00 AM 13.27 55.886 0.653 8.29 6.31 8.78
10/28/2020 3:30:00 AM 13.25 55.85 0.653 8.29 6.63 8.78
10/28/2020 3:45:00 AM 13.23 55.814 0.652 8.29 5.9 8.74
10/28/2020 4:00:00 AM 13.21 55.778 0.652 8.29 5.23 8.73
10/28/2020 4:15:00 AM 13.19 55.742 0.652 8.29 5.23 8.71
10/28/2020 4:30:00 AM 13.18 55.724 0.651 8.28 5.04 8.69
10/28/2020 4:45:00 AM 13.17 55.706 0.652 8.28 4.92 8.69
10/28/2020 5:00:00 AM 13.16 55.688 0.651 8.28 11.53 8.69
10/28/2020 5:15:00 AM 13.14 55.652 0.652 8.28 8.1 8.68
10/28/2020 5:30:00 AM 13.13 55.634 0.652 8.28 8.43 8.67
10/28/2020 5:45:00 AM 13.13 55.634 0.652 8.28 7.49 8.67
10/28/2020 6:00:00 AM 13.12 55.616 0.653 8.27 7.13 8.65
10/28/2020 6:15:00 AM 13.11 55.598 0.653 8.27 7.73 8.65
10/28/2020 6:30:00 AM 13.11 55.598 0.653 8.27 9.07 8.64
10/28/2020 6:45:00 AM 13.1 55.58 0.654 8.27 10.52 8.63
10/28/2020 7:00:00 AM 13.09 55.562 0.654 8.27 8.03 8.63
10/28/2020 7:15:00 AM 13.08 55.544 0.655 8.26 9.09 8.62
10/28/2020 7:30:00 AM 13.08 55.544 0.655 8.26 5.18 8.61
10/28/2020 7:45:00 AM 13.07 55.526 0.655 8.26 5.48 8.6
10/28/2020 8:00:00 AM 13.06 55.508 0.655 8.26 5.7 8.61
10/28/2020 8:15:00 AM 13.06 55.508 0.655 8.26 5.87 8.62
10/28/2020 8:30:00 AM 13.06 55.508 0.655 8.26 5.29 8.63
10/28/2020 8:45:00 AM 13.06 55.508 0.655 8.26 4.35 8.67
10/28/2020 9:00:00 AM 13.06 55.508 0.655 8.26 4.59 8.72
10/28/2020 9:15:00 AM 13.06 55.508 0.655 8.27 4.68 8.79
10/28/2020 9:30:00 AM 13.07 55.526 0.655 8.27 3.45 8.85
10/28/2020 9:45:00 AM 13.08 55.544 0.655 8.27 4.85 8.93
10/28/2020 10:00:00 AM 13.09 55.562 0.655 8.28 4.22 9.07
10/28/2020 10:15:00 AM 13.1 55.58 0.655 8.28 3.62 9.18
10/28/2020 10:30:00 AM 13.12 55.616 0.654 8.29 3.95 9.3
10/28/2020 10:45:00 AM 13.13 55.634 0.654 8.3 3.72 9.4
10/28/2020 11:00:00 AM 13.16 55.688 0.654 8.31 4.29 9.57
10/28/2020 11:15:00 AM 13.18 55.724 0.654 8.32 3.71 9.71
10/28/2020 11:30:00 AM 13.18 55.724 0.654 8.33 3.83 9.7
10/28/2020 11:45:00 AM 13.19 55.742 0.654 8.33 8.28 9.74
10/28/2020 12:00:00 PM 13.2 55.76 0.654 8.33 3.65 9.81
10/28/2020 12:15:00 PM 13.23 55.814 0.654 8.34 4.08 9.89
10/28/2020 12:30:00 PM 13.25 55.85 0.653 8.35 3.53 10.02
10/28/2020 12:45:00 PM 13.28 55.904 0.653 8.35 4.07 10.11
10/28/2020 1:00:00 PM 13.31 55.958 0.653 8.36 3.46 10.22
10/28/2020 1:15:00 PM 13.33 55.994 0.652 8.37 3.79 10.29
10/28/2020 1:30:00 PM 13.35 56.03 0.652 8.37 3.68 10.28
10/28/2020 1:45:00 PM 13.36 56.048 0.652 8.37 4.45 10.29
10/28/2020 2:00:00 PM 13.38 56.084 0.652 8.38 3.83 10.27
10/28/2020 2:15:00 PM 13.38 56.084 0.651 8.37 6.59 10.21
10/28/2020 2:30:00 PM 13.37 56.066 0.651 8.37 4.24 10.1
10/28/2020 2:45:00 PM 13.37 56.066 0.651 8.38 9.63 10.03
10/28/2020 3:00:00 PM 13.37 56.066 0.65 8.36 3.99 9.97
10/28/2020 3:15:00 PM 13.38 56.084 0.649 8.36 3.8 9.92
10/28/2020 3:30:00 PM 13.38 56.084 0.649 8.36 3.67 9.92
10/28/2020 3:45:00 PM 13.39 56.102 0.649 8.36 5.04 9.9
10/28/2020 4:00:00 PM 13.39 56.102 0.649 8.35 5.16 9.86
10/28/2020 4:15:00 PM 13.39 56.102 0.649 8.36 3.63 9.81
10/28/2020 4:30:00 PM 13.39 56.102 0.649 8.35 3.87 9.74
10/28/2020 4:45:00 PM 13.38 56.084 0.649 8.35 3.19 9.68
10/28/2020 5:00:00 PM 13.38 56.084 0.649 8.35 5.5 9.59
10/28/2020 5:15:00 PM 13.37 56.066 0.649 8.34 4.67 9.53
10/28/2020 5:30:00 PM 13.36 56.048 0.649 8.34 3.79 9.47
10/28/2020 5:45:00 PM 13.36 56.048 0.649 8.33 3.58 9.44
10/28/2020 6:00:00 PM 13.35 56.03 0.649 8.32 4.82 9.38
10/28/2020 6:15:00 PM 13.35 56.03 0.649 8.32 4.42 9.33
10/28/2020 6:30:00 PM 13.34 56.012 0.649 8.31 5.49 9.27
10/28/2020 6:45:00 PM 13.32 55.976 0.65 8.31 4.44 9.2
10/28/2020 7:00:00 PM 13.3 55.94 0.65 8.3 4.7 9.15
10/28/2020 7:15:00 PM 13.28 55.904 0.651 8.3 3.86 9.09
10/28/2020 7:30:00 PM 13.26 55.868 0.652 8.3 7.04 9.03
10/28/2020 7:45:00 PM 13.24 55.832 0.653 8.29 3.65 8.99
10/28/2020 8:00:00 PM 13.23 55.814 0.653 8.29 5.23 8.95
10/28/2020 8:15:00 PM 13.23 55.814 0.653 8.29 5.72 8.93
10/28/2020 8:30:00 PM 13.23 55.814 0.652 8.29 7.4 8.9
10/28/2020 8:45:00 PM 13.23 55.814 0.651 8.29 6.72 8.91
10/28/2020 9:00:00 PM 13.23 55.814 0.65 8.29 5.02 8.91
10/28/2020 9:15:00 PM 13.23 55.814 0.65 8.29 6.23 8.91
10/28/2020 9:30:00 PM 13.22 55.796 0.649 8.28 5.22 8.89
10/28/2020 9:45:00 PM 13.2 55.76 0.648 8.28 5.09 8.9
10/28/2020 10:00:00 PM 13.19 55.742 0.648 8.28 5.67 8.9
10/28/2020 10:15:00 PM 13.17 55.706 0.648 8.28 4.9 8.88
10/28/2020 10:30:00 PM 13.15 55.67 0.648 8.28 4.24 8.87
10/28/2020 10:45:00 PM 13.14 55.652 0.647 8.28 5.92 8.87
10/28/2020 11:00:00 PM 13.13 55.634 0.647 8.28 4.53 8.87
10/28/2020 11:15:00 PM 13.12 55.616 0.648 8.27 6.06 8.86
10/28/2020 11:30:00 PM 13.12 55.616 0.648 8.27 7.31 8.86
10/28/2020 11:45:00 PM 13.11 55.598 0.649 8.27 4.97 8.86
10/29/2020 12:00:00 AM 13.11 55.598 0.649 8.27 10.06 8.86
10/29/2020 12:15:00 AM 13.1 55.58 0.65 8.27 7.39 8.86
10/29/2020 12:30:00 AM 13.1 55.58 0.65 8.27 15.79 8.86
10/29/2020 12:45:00 AM 13.09 55.562 0.65 8.27 6.68 8.86
10/29/2020 1:00:00 AM 13.08 55.544 0.651 8.27 7.82 8.84
10/29/2020 1:15:00 AM 13.07 55.526 0.651 8.27 8.78 8.84
10/29/2020 1:30:00 AM 13.06 55.508 0.651 8.27 8.31 8.83
10/29/2020 1:45:00 AM 13.04 55.472 0.651 8.27 9.07 8.82
10/29/2020 2:00:00 AM 13.03 55.454 0.651 8.27 8.68 8.83
10/29/2020 2:15:00 AM 13.02 55.436 0.651 8.27 8.76 8.82
10/29/2020 2:30:00 AM 13.01 55.418 0.651 8.27 8.45 8.82
10/29/2020 2:45:00 AM 13 55.4 0.651 8.27 6.76 8.81
10/29/2020 3:00:00 AM 12.99 55.382 0.651 8.27 9.72 8.81
10/29/2020 3:15:00 AM 12.98 55.364 0.651 8.27 7.06 8.8
10/29/2020 3:30:00 AM 12.98 55.364 0.651 8.26 7.26 8.82
10/29/2020 3:45:00 AM 12.98 55.364 0.65 8.27 12.01 8.81
10/29/2020 4:00:00 AM 12.98 55.364 0.65 8.27 9.06 8.81
10/29/2020 4:15:00 AM 12.97 55.346 0.65 8.27 8.08 8.81
10/29/2020 4:30:00 AM 12.97 55.346 0.65 8.27 10.1 8.81
10/29/2020 4:45:00 AM 12.97 55.346 0.649 8.27 10.06 8.81
10/29/2020 5:00:00 AM 12.97 55.346 0.648 8.26 10.38 8.82
10/29/2020 5:15:00 AM 12.97 55.346 0.648 8.27 8.9 8.81
10/29/2020 5:30:00 AM 12.97 55.346 0.647 8.26 11.68 8.8
10/29/2020 5:45:00 AM 12.97 55.346 0.646 8.26 11.66 8.79
10/29/2020 6:00:00 AM 12.97 55.346 0.645 8.26 8.63 8.78
10/29/2020 6:15:00 AM 12.97 55.346 0.644 8.27 9.16 8.77
10/29/2020 6:30:00 AM 12.96 55.328 0.644 8.27 8.81 8.78
10/29/2020 6:45:00 AM 12.96 55.328 0.642 8.26 8.4 8.76
10/29/2020 7:00:00 AM 12.95 55.31 0.641 8.26 9.97 8.77
10/29/2020 7:15:00 AM 12.94 55.292 0.641 8.26 14.2 8.77
10/29/2020 7:30:00 AM 12.93 55.274 0.64 8.26 9.33 8.74
10/29/2020 7:45:00 AM 12.92 55.256 0.639 8.25 7.56 8.75
10/29/2020 8:00:00 AM 12.9 55.22 0.638 8.25 7.52 8.74
10/29/2020 8:15:00 AM 12.88 55.184 0.637 8.25 11.93 8.76
10/29/2020 8:30:00 AM 12.86 55.148 0.636 8.26 6.85 8.76
10/29/2020 8:45:00 AM 12.84 55.112 0.635 8.26 6.12 8.8
10/29/2020 9:00:00 AM 12.81 55.058 0.634 8.27 6.03 8.84
10/29/2020 9:15:00 AM 12.78 55.004 0.632 8.28 6.3 8.9
10/29/2020 9:30:00 AM 12.75 54.95 0.628 8.29 6.62 8.98
10/29/2020 9:45:00 AM 12.71 54.878 0.625 8.3 6.28 9.04
10/29/2020 10:00:00 AM 12.67 54.806 0.622 8.31 6.1 9.1
10/29/2020 10:15:00 AM 12.64 54.752 0.62 8.32 7.25 9.15
10/29/2020 10:30:00 AM 12.61 54.698 0.619 8.32 8.29 9.17
10/29/2020 10:45:00 AM 12.59 54.662 0.618 8.32 11.36 9.19
10/29/2020 11:00:00 AM 12.58 54.644 0.616 8.33 13.71 9.21
10/29/2020 11:15:00 AM 12.57 54.626 0.615 8.33 16.62 9.25
10/29/2020 11:30:00 AM 12.57 54.626 0.615 8.33 13.8 9.28
10/29/2020 11:45:00 AM 12.56 54.608 0.615 8.33 13.46 9.33
10/29/2020 12:00:00 PM 12.55 54.59 0.613 8.34 14.34 9.36
10/29/2020 12:15:00 PM 12.54 54.572 0.612 8.34 12.59 9.4
10/29/2020 12:30:00 PM 12.54 54.572 0.612 8.34 11.2 9.47
10/29/2020 12:45:00 PM 12.54 54.572 0.612 8.35 14.25 9.53
10/29/2020 1:00:00 PM 12.55 54.59 0.613 8.35 12.2 9.51
10/29/2020 1:15:00 PM 12.55 54.59 0.614 8.35 11.55 9.52
10/29/2020 1:30:00 PM 12.55 54.59 0.615 8.35 11.77 9.5
10/29/2020 1:45:00 PM 12.55 54.59 0.615 8.36 14.04 9.51
10/29/2020 2:00:00 PM 12.55 54.59 0.615 8.35 9.4 9.52
10/29/2020 2:15:00 PM 12.54 54.572 0.615 8.35 9.01 9.54
10/29/2020 2:30:00 PM 12.53 54.554 0.615 8.35 9.1 9.54
10/29/2020 2:45:00 PM 12.53 54.554 0.615 8.35 9.61 9.54
10/29/2020 3:00:00 PM 12.52 54.536 0.616 8.35 9.1 9.54
10/29/2020 3:15:00 PM 12.52 54.536 0.617 8.35 9.62 9.51
10/29/2020 3:30:00 PM 12.53 54.554 0.618 8.35 11.7 9.48
10/29/2020 3:45:00 PM 12.53 54.554 0.618 8.35 18.61 9.48
10/29/2020 4:00:00 PM 12.54 54.572 0.618 8.35 23.29 9.45
10/29/2020 4:15:00 PM 12.53 54.554 0.616 8.34 27.51 9.4
10/29/2020 4:30:00 PM 12.5 54.5 0.609 8.33 24.76 9.32
10/29/2020 4:45:00 PM 12.46 54.428 0.6 8.32 42.37 9.25
10/29/2020 5:00:00 PM 12.42 54.356 0.591 8.31 26.3 9.2
10/29/2020 5:15:00 PM 12.38 54.284 0.585 8.3 35.97 9.15
10/29/2020 5:30:00 PM 12.36 54.248 0.582 8.29 45.3 9.14
10/29/2020 5:45:00 PM 12.35 54.23 0.583 8.29 57.85 9.13
10/29/2020 6:00:00 PM 12.34 54.212 0.586 8.29 61.23 9.11
10/29/2020 6:15:00 PM 12.35 54.23 0.589 8.28 85.02 9.07
10/29/2020 6:30:00 PM 12.36 54.248 0.589 8.28 72.55 9.06
10/29/2020 6:45:00 PM 12.37 54.266 0.588 8.28 44.15 9.04
10/29/2020 7:00:00 PM 12.39 54.302 0.587 8.27 72.73 9.01
10/29/2020 7:15:00 PM 12.4 54.32 0.587 8.27 45.29 8.98
10/29/2020 7:30:00 PM 12.42 54.356 0.587 8.27 56.67 8.95
10/29/2020 7:45:00 PM 12.43 54.374 0.589 8.27 487.5 8.92
10/29/2020 8:00:00 PM 12.44 54.392 0.591 8.27 56.4 8.91
10/29/2020 8:15:00 PM 12.44 54.392 0.59 8.27 21.09 8.87
10/29/2020 8:30:00 PM 12.44 54.392 0.586 8.27 34.12 8.81
10/29/2020 8:45:00 PM 12.43 54.374 0.577 8.26 16.35 8.8
10/29/2020 9:00:00 PM 12.41 54.338 0.564 8.26 19.13 8.78
10/29/2020 9:15:00 PM 12.38 54.284 0.548 8.26 24.12 8.76
10/29/2020 9:30:00 PM 12.35 54.23 0.53 8.25 19.53 8.76
10/29/2020 9:45:00 PM 12.32 54.176 0.513 8.24 18.31 8.73
10/29/2020 10:00:00 PM 12.28 54.104 0.496 8.23 38.78 8.73
10/29/2020 10:15:00 PM 12.25 54.05 0.483 8.22 20.86 8.75
10/29/2020 10:30:00 PM 12.22 53.996 0.471 8.21 19.91 8.75
10/29/2020 10:45:00 PM 12.19 53.942 0.462 8.21 21.94 8.74
10/29/2020 11:00:00 PM 12.16 53.888 0.455 8.2 19.59 8.74
10/29/2020 11:15:00 PM 12.14 53.852 0.45 8.19 23.95 8.74
10/29/2020 11:30:00 PM 12.12 53.816 0.447 8.19 27.87 8.73
10/29/2020 11:45:00 PM 12.1 53.78 0.444 8.19 23.41 8.73
10/30/2020 12:00:00 AM 12.08 53.744 0.443 8.18 22.65 8.7
10/30/2020 12:15:00 AM 12.06 53.708 0.443 8.18 19.1 8.71
10/30/2020 12:30:00 AM 12.05 53.69 0.443 8.18 20.92 8.69
10/30/2020 12:45:00 AM 12.03 53.654 0.444 8.18 24.15 8.69
10/30/2020 1:00:00 AM 12.02 53.636 0.445 8.17 24.31 8.67
10/30/2020 1:15:00 AM 12.01 53.618 0.447 8.17 18.01 8.64
10/30/2020 1:30:00 AM 11.99 53.582 0.449 8.18 21.36 8.65
10/30/2020 1:45:00 AM 11.98 53.564 0.452 8.18 18.5 8.63
10/30/2020 2:00:00 AM 11.98 53.564 0.455 8.17 19.04 8.61
10/30/2020 2:15:00 AM 11.97 53.546 0.458 8.17 19.9 8.62
10/30/2020 2:30:00 AM 11.96 53.528 0.461 8.18 26.4 8.63
10/30/2020 2:45:00 AM 11.96 53.528 0.464 8.18 16.38 8.63
10/30/2020 3:00:00 AM 11.95 53.51 0.468 8.18 20.43 8.66
10/30/2020 3:15:00 AM 11.95 53.51 0.471 8.17 18.49 8.63
10/30/2020 3:30:00 AM 11.94 53.492 0.474 8.17 23.23 8.65
10/30/2020 3:45:00 AM 11.94 53.492 0.477 8.16 20.67 8.65
10/30/2020 4:00:00 AM 11.93 53.474 0.479 8.17 24 8.67
10/30/2020 4:15:00 AM 11.92 53.456 0.481 8.16 25.09 8.71
10/30/2020 4:30:00 AM 11.91 53.438 0.483 8.17 18.1 8.69
10/30/2020 4:45:00 AM 11.9 53.42 0.486 8.17 19.63 8.7
10/30/2020 5:00:00 AM 11.9 53.42 0.487 8.16 16.31 8.72
10/30/2020 5:15:00 AM 11.89 53.402 0.489 8.17 15.16 8.7
10/30/2020 5:30:00 AM 11.89 53.402 0.491 8.17 20.73 8.68
10/30/2020 5:45:00 AM 11.87 53.366 0.492 8.17 15.23 8.71
10/30/2020 6:00:00 AM 11.86 53.348 0.494 8.18 14.22 8.75
10/30/2020 6:15:00 AM 11.84 53.312 0.496 8.18 15.79 8.77
10/30/2020 6:30:00 AM 11.83 53.294 0.498 8.19 12.29 8.78
10/30/2020 6:45:00 AM 11.81 53.258 0.5 8.19 15.97 8.78
10/30/2020 7:00:00 AM 11.78 53.204 0.502 8.2 15.92 8.8
10/30/2020 7:15:00 AM 11.77 53.186 0.505 8.21 21.59 8.8
10/30/2020 7:30:00 AM 11.74 53.132 0.508 8.21 13.94 8.81
10/30/2020 7:45:00 AM 11.73 53.114 0.511 8.21 13.23 8.81
10/30/2020 8:00:00 AM 11.72 53.096 0.514 8.21 13.25 8.8
10/30/2020 8:15:00 AM 11.7 53.06 0.516 8.22 22.66 8.81
10/30/2020 8:30:00 AM 11.69 53.042 0.518 8.22 12.64 8.82
10/30/2020 8:45:00 AM 11.68 53.024 0.521 8.23 12.2 8.86
10/30/2020 9:00:00 AM 11.67 53.006 0.523 8.22 11.68 8.91
10/30/2020 9:15:00 AM 11.67 53.006 0.525 8.25 12.39 8.95
10/30/2020 9:30:00 AM 11.67 53.006 0.527 8.25 8.75 9.02
10/30/2020 9:45:00 AM 11.69 53.042 0.528 8.26 9.87 9.14
10/30/2020 10:00:00 AM 11.71 53.078 0.53 8.25 10.73 9.24
10/30/2020 10:15:00 AM 11.74 53.132 0.531 8.26 10.97 9.35
10/30/2020 10:30:00 AM 11.76 53.168 0.532 8.27 13.81 9.46
10/30/2020 10:45:00 AM 11.79 53.222 0.532 8.27 9.58 9.53
10/30/2020 11:00:00 AM 11.84 53.312 0.532 8.27 9.92 9.67
10/30/2020 11:15:00 AM 11.87 53.366 0.533 8.28 9.13 9.76
10/30/2020 11:30:00 AM 11.89 53.402 0.534 8.27 11.23 9.81
10/30/2020 11:45:00 AM 11.9 53.42 0.536 8.27 9.62 9.85
10/30/2020 12:00:00 PM 11.9 53.42 0.537 8.27 10.59 9.88
10/30/2020 12:15:00 PM 11.92 53.456 0.539 8.28 10.05 9.94
10/30/2020 12:30:00 PM 11.96 53.528 0.54 8.28 10.5 10.01
10/30/2020 12:45:00 PM 11.99 53.582 0.541 8.28 9.27 10.1
10/30/2020 1:00:00 PM 12.05 53.69 0.542 8.28 8.88 10.16
10/30/2020 1:15:00 PM 12.09 53.762 0.543 8.29 12.34 10.25
10/30/2020 1:30:00 PM 12.13 53.834 0.544 8.29 12.36 10.3
10/30/2020 1:45:00 PM 12.15 53.87 0.545 8.3 10.57 10.34
10/30/2020 2:00:00 PM 12.14 53.852 0.547 8.3 11.03 10.35
10/30/2020 2:15:00 PM 12.15 53.87 0.548 8.3 11.08 10.34
10/30/2020 2:30:00 PM 12.16 53.888 0.549 8.31 12 10.39
10/30/2020 2:45:00 PM 12.15 53.87 0.55 8.31 10.89 10.41
10/30/2020 3:00:00 PM 12.14 53.852 0.551 8.31 11.13 10.38
10/30/2020 3:15:00 PM 12.13 53.834 0.552 8.31 7.3 10.33
10/30/2020 3:30:00 PM 12.12 53.816 0.552 8.32 8.19 10.29
10/30/2020 3:45:00 PM 12.12 53.816 0.553 8.31 8.63 10.27
10/30/2020 4:00:00 PM 12.12 53.816 0.554 8.32 9.21 10.28
10/30/2020 4:15:00 PM 12.13 53.834 0.556 8.32 9.88 10.29
10/30/2020 4:30:00 PM 12.14 53.852 0.558 8.33 8.65 10.33
10/30/2020 4:45:00 PM 12.13 53.834 0.559 8.33 7.68 10.29
10/30/2020 5:00:00 PM 12.11 53.798 0.561 8.32 11.49 10.25
10/30/2020 5:15:00 PM 12.09 53.762 0.563 8.32 9.8 10.16
10/30/2020 5:30:00 PM 12.07 53.726 0.564 8.32 8.49 10.06
10/30/2020 5:45:00 PM 12.04 53.672 0.565 8.32 8.78 10
10/30/2020 6:00:00 PM 12.01 53.618 0.565 8.32 6.96 9.94
10/30/2020 6:15:00 PM 11.98 53.564 0.564 8.31 10.31 9.88
10/30/2020 6:30:00 PM 11.95 53.51 0.562 8.31 11.84 9.82
10/30/2020 6:45:00 PM 11.92 53.456 0.558 8.3 8.36 9.73
10/30/2020 7:00:00 PM 11.88 53.384 0.555 8.3 10.44 9.66
10/30/2020 7:15:00 PM 11.83 53.294 0.55 8.3 10.32 9.63
10/30/2020 7:30:00 PM 11.78 53.204 0.546 8.29 9.86 9.57
10/30/2020 7:45:00 PM 11.73 53.114 0.543 8.31 14.1 9.56
10/30/2020 8:00:00 PM 11.67 53.006 0.538 8.29 15.09 9.53
10/30/2020 8:15:00 PM 11.63 52.934 0.536 8.29 13.51 9.5
10/30/2020 8:30:00 PM 11.59 52.862 0.533 8.28 14.69 9.49
10/30/2020 8:45:00 PM 11.54 52.772 0.531 8.28 16.65 9.46
10/30/2020 9:00:00 PM 11.49 52.682 0.528 8.26 17 9.45
10/30/2020 9:15:00 PM 11.45 52.61 0.527 8.26 9.88 9.42
10/30/2020 9:30:00 PM 11.39 52.502 0.526 8.26 72.47 9.42
10/30/2020 9:45:00 PM 11.34 52.412 0.526 8.27 16 9.4
10/30/2020 10:00:00 PM 11.3 52.34 0.527 8.27 11.25 9.39
10/30/2020 10:15:00 PM 11.26 52.268 0.527 8.27 14.07 9.37
10/30/2020 10:30:00 PM 11.23 52.214 0.528 8.26 12.93 9.37
10/30/2020 10:45:00 PM 11.21 52.178 0.529 8.26 9.86 9.36
10/30/2020 11:00:00 PM 11.18 52.124 0.531 8.26 14.64 9.35
10/30/2020 11:15:00 PM 11.16 52.088 0.533 8.26 11.83 9.35
10/30/2020 11:30:00 PM 11.14 52.052 0.536 8.26 14.48 9.34
10/30/2020 11:45:00 PM 11.14 52.052 0.539 8.25 11.94 9.34
10/31/2020 12:00:00 AM 11.13 52.034 0.541 8.25 13.25 9.34
10/31/2020 12:15:00 AM 11.12 52.016 0.544 8.25 13.28 9.34
10/31/2020 12:30:00 AM 11.12 52.016 0.546 8.25 14.33 9.33
10/31/2020 12:45:00 AM 11.11 51.998 0.548 8.25 12.42 9.33
10/31/2020 1:00:00 AM 11.1 51.98 0.551 8.25 10.57 9.34
10/31/2020 1:15:00 AM 11.09 51.962 0.553 8.25 16.62 9.35
10/31/2020 1:30:00 AM 11.08 51.944 0.555 8.26 19.17 9.36
10/31/2020 1:45:00 AM 11.07 51.926 0.558 8.26 21.03 9.36
10/31/2020 2:00:00 AM 11.06 51.908 0.56 8.26 21.86 9.35
10/31/2020 2:15:00 AM 11.06 51.908 0.562 8.26 18.09 9.34
10/31/2020 2:30:00 AM 11.05 51.89 0.564 8.26 25.24 9.35
10/31/2020 2:45:00 AM 11.03 51.854 0.566 8.26 20.5 9.33
10/31/2020 3:00:00 AM 11.02 51.836 0.567 8.26 13.17 9.34
10/31/2020 3:15:00 AM 10.99 51.782 0.568 8.27 14.99 9.33
10/31/2020 3:30:00 AM 10.97 51.746 0.569 8.27 14.15 9.32
10/31/2020 3:45:00 AM 10.94 51.692 0.57 8.27 14.83 9.33
10/31/2020 4:00:00 AM 10.91 51.638 0.571 8.27 12.08 9.33
10/31/2020 4:15:00 AM 10.88 51.584 0.573 8.27 14.9 9.33
10/31/2020 4:30:00 AM 10.84 51.512 0.575 8.27 17.45 9.35
10/31/2020 4:45:00 AM 10.8 51.44 0.577 8.27 13.8 9.35
10/31/2020 5:00:00 AM 10.76 51.368 0.578 8.28 30.47 9.37
10/31/2020 5:15:00 AM 10.72 51.296 0.58 8.28 13.19 9.38
10/31/2020 5:30:00 AM 10.68 51.224 0.582 8.28 11.59 9.4
10/31/2020 5:45:00 AM 10.64 51.152 0.584 8.28 15.03 9.41
10/31/2020 6:00:00 AM 10.61 51.098 0.586 8.29 8.25 9.39
10/31/2020 6:15:00 AM 10.58 51.044 0.588 8.3 10.35 9.4
10/31/2020 6:30:00 AM 10.54 50.972 0.572 8.31 10.13 9.41
10/31/2020 6:45:00 AM 10.51 50.918 0.585 8.31 9.06 9.43
10/31/2020 7:00:00 AM 10.47 50.846 0.527 8.31 8.21 9.43
10/31/2020 7:15:00 AM 10.45 50.81 0.502 8.31 8.3 9.44
10/31/2020 7:30:00 AM 10.43 50.774 0.52 8.31 9.37 9.45
10/31/2020 7:45:00 AM 10.42 50.756 0.6 8.31 7.18 9.46
10/31/2020 8:00:00 AM 10.41 50.738 0.601 8.31 6.77 9.47
10/31/2020 8:15:00 AM 10.4 50.72 0.602 8.31 9.02 9.49
10/31/2020 8:30:00 AM 10.39 50.702 0.604 8.31 6.24 9.53
10/31/2020 8:45:00 AM 10.39 50.702 0.605 8.31 7.66 9.56
10/31/2020 9:00:00 AM 10.4 50.72 0.606 8.32 7.98 9.62
10/31/2020 9:15:00 AM 10.4 50.72 0.608 8.32 6.47 9.69
10/31/2020 9:30:00 AM 10.42 50.756 0.609 8.32 5.93 9.77
10/31/2020 9:45:00 AM 10.44 50.792 0.61 8.33 6.26 9.86
10/31/2020 10:00:00 AM 10.46 50.828 0.611 8.33 6.58 9.96
10/31/2020 10:15:00 AM 10.49 50.882 0.612 8.34 8.08 10.07
10/31/2020 10:30:00 AM 10.52 50.936 0.612 8.35 6.59 10.18
10/31/2020 10:45:00 AM 10.55 50.99 0.613 8.35 5.61 10.29
10/31/2020 11:00:00 AM 10.59 51.062 0.613 8.36 7.31 10.38
10/31/2020 11:15:00 AM 10.63 51.134 0.613 8.36 8.32 10.52
10/31/2020 11:30:00 AM 10.69 51.242 0.613 8.36 7.59 10.65
10/31/2020 11:45:00 AM 10.76 51.368 0.606 8.37 6.59 10.79
10/31/2020 12:00:00 PM 10.82 51.476 0.613 8.37 6.15 10.92
10/31/2020 12:15:00 PM 10.89 51.602 0.614 8.38 6.38 11.03
10/31/2020 12:30:00 PM 10.95 51.71 0.614 8.4 6.42 11.14
10/31/2020 12:45:00 PM 10.99 51.782 0.613 8.4 6.13 11.2
10/31/2020 1:00:00 PM 11.02 51.836 0.613 8.41 7.18 11.24
10/31/2020 1:15:00 PM 11.04 51.872 0.613 8.42 5.87 11.26
10/31/2020 1:30:00 PM 11.05 51.89 0.524 8.42 6.83 11.23
10/31/2020 1:45:00 PM 11.05 51.89 0.548 8.42 7.59 11.21
10/31/2020 2:00:00 PM 11.06 51.908 0.583 8.43 5.72 11.2
10/31/2020 2:15:00 PM 11.07 51.926 0.594 8.43 6.68 11.21
10/31/2020 2:30:00 PM 11.09 51.962 0.539 8.43 5.71 11.22
10/31/2020 2:45:00 PM 11.13 52.034 0.541 8.43 5.85 11.28
10/31/2020 3:00:00 PM 11.16 52.088 0.568 8.43 6.49 11.32
10/31/2020 3:15:00 PM 11.19 52.142 0.534 8.44 5.16 11.36
10/31/2020 3:30:00 PM 11.2 52.16 0.536 8.44 5.49 11.38
10/31/2020 3:45:00 PM 11.22 52.196 0.539 8.44 6.11 11.38
10/31/2020 4:00:00 PM 11.24 52.232 0.517 8.44 5.47 11.41
10/31/2020 4:15:00 PM 11.24 52.232 0.601 8.45 5.36 11.42
10/31/2020 4:30:00 PM 11.24 52.232 0.615 8.44 5.56 11.39
10/31/2020 4:45:00 PM 11.24 52.232 0.619 8.44 7.19 11.37
10/31/2020 5:00:00 PM 11.22 52.196 0.618 8.45 4.85 11.32
10/31/2020 5:15:00 PM 11.19 52.142 0.621 8.45 5.94 11.29
10/31/2020 5:30:00 PM 11.15 52.07 0.615 8.45 5.78 11.19
10/31/2020 5:45:00 PM 11.12 52.016 0.616 8.44 5.34 11.1
10/31/2020 6:00:00 PM 11.09 51.962 0.595 8.44 4.7 10.99
10/31/2020 6:15:00 PM 11.06 51.908 0.597 8.43 6.75 10.89
10/31/2020 6:30:00 PM 11.03 51.854 0.626 8.43 6.53 10.77
10/31/2020 6:45:00 PM 11.01 51.818 0.566 8.43 5.8 10.67
10/31/2020 7:00:00 PM 10.98 51.764 0.628 8.42 10.49 10.59
10/31/2020 7:15:00 PM 10.96 51.728 0.628 8.42 5.95 10.51
10/31/2020 7:30:00 PM 10.94 51.692 0.628 8.42 9.97 10.46
10/31/2020 7:45:00 PM 10.92 51.656 0.629 8.41 7.98 10.4
10/31/2020 8:00:00 PM 10.9 51.62 0.629 8.41 5.67 10.36
10/31/2020 8:15:00 PM 10.89 51.602 0.63 8.41 5.77 10.31
10/31/2020 8:30:00 PM 10.88 51.584 0.63 8.4 6.93 10.28
10/31/2020 8:45:00 PM 10.86 51.548 0.63 8.4 7.52 10.25
10/31/2020 9:00:00 PM 10.85 51.53 0.631 8.4 7.31 10.21
10/31/2020 9:15:00 PM 10.83 51.494 0.631 8.4 8.94 10.17
10/31/2020 9:30:00 PM 10.81 51.458 0.632 8.4 6.34 10.15
10/31/2020 9:45:00 PM 10.77 51.386 0.632 8.4 8.73 10.11
10/31/2020 10:00:00 PM 10.74 51.332 0.632 8.41 5.92 10.08
10/31/2020 10:15:00 PM 10.71 51.278 0.632 8.41 5.98 10.05
10/31/2020 10:30:00 PM 10.68 51.224 0.632 8.4 8.08 10.01
10/31/2020 10:45:00 PM 10.65 51.17 0.633 8.4 6.75 9.99
10/31/2020 11:00:00 PM 10.62 51.116 0.633 8.4 7.54 9.96
10/31/2020 11:15:00 PM 10.58 51.044 0.633 8.4 7.68 9.93
10/31/2020 11:30:00 PM 10.55 50.99 0.633 8.4 9.09 9.91
10/31/2020 11:45:00 PM 10.52 50.936 0.634 8.4 7.15 9.9
11/1/2020 12:00:00 AM 10.49 50.882 0.634 8.4 7.71 9.89
11/1/2020 12:15:00 AM 10.47 50.846 0.635 8.39 6.13 9.88
11/1/2020 12:30:00 AM 10.46 50.828 0.635 8.4 6 9.87
11/1/2020 12:45:00 AM 10.46 50.828 0.636 8.39 8.43 9.86
11/1/2020 1:00:00 AM 10.45 50.81 0.637 8.38 8.51 9.85
11/1/2020 1:15:00 AM 10.45 50.81 0.638 8.38 6.85 9.84
11/1/2020 1:30:00 AM 10.45 50.81 0.639 8.38 8.48 9.83
11/1/2020 1:45:00 AM 10.45 50.81 0.639 8.38 8.41 9.82
11/1/2020 2:00:00 AM 10.44 50.792 0.568 8.38 7.74 9.81
11/1/2020 2:15:00 AM 10.43 50.774 0.586 8.37 7.25 9.8
11/1/2020 2:30:00 AM 10.44 50.792 0.548 8.37 6.89 9.79
11/1/2020 2:45:00 AM 10.44 50.792 0.544 8.37 7.26 9.78
11/1/2020 3:00:00 AM 10.44 50.792 0.616 8.37 6.98 9.77
11/1/2020 3:15:00 AM 10.45 50.81 0.583 8.37 12.4 9.75
11/1/2020 3:30:00 AM 10.46 50.828 0.642 8.37 6.48 9.75
11/1/2020 3:45:00 AM 10.47 50.846 0.642 8.36 7.08 9.72
11/1/2020 4:00:00 AM 10.53 50.954 0.643 8.35 8.21 9.68
11/1/2020 4:15:00 AM 10.54 50.972 0.643 8.35 6.49 9.67
11/1/2020 4:30:00 AM 10.54 50.972 0.643 8.35 7.86 9.66
11/1/2020 4:45:00 AM 10.55 50.99 0.643 8.35 7.75 9.65
11/1/2020 5:00:00 AM 10.55 50.99 0.643 8.35 6.94 9.64
11/1/2020 5:15:00 AM 10.56 51.008 0.643 8.35 8.47 9.64
11/1/2020 5:30:00 AM 10.56 51.008 0.643 8.35 8.49 9.64
11/1/2020 5:45:00 AM 10.56 51.008 0.643 8.35 7.08 9.62
11/1/2020 6:00:00 AM 10.56 51.008 0.644 8.35 6.9 9.61
11/1/2020 6:15:00 AM 10.56 51.008 0.644 8.35 8.56 9.6
11/1/2020 6:30:00 AM 10.56 51.008 0.644 8.35 7.66 9.59
11/1/2020 6:45:00 AM 10.57 51.026 0.644 8.35 6.3 9.59
11/1/2020 7:00:00 AM 10.58 51.044 0.645 8.35 7.71 9.6
11/1/2020 7:15:00 AM 10.6 51.08 0.644 8.35 8.38 9.6
11/1/2020 7:30:00 AM 10.62 51.116 0.645 8.34 6.24 9.6
11/1/2020 7:45:00 AM 10.64 51.152 0.645 8.34 6.13 9.63
11/1/2020 8:00:00 AM 10.67 51.206 0.645 8.34 6.2 9.69
11/1/2020 8:15:00 AM 10.71 51.278 0.644 8.34 6.42 9.74
11/1/2020 8:30:00 AM 10.73 51.314 0.644 8.35 6.84 9.79
11/1/2020 8:45:00 AM 10.76 51.368 0.644 8.35 6.57 9.84
11/1/2020 9:00:00 AM 10.8 51.44 0.644 8.36 5.66 9.91
11/1/2020 9:15:00 AM 10.83 51.494 0.644 8.36 4.95 9.95
11/1/2020 9:30:00 AM 10.85 51.53 0.644 8.37 6.42 9.97
11/1/2020 9:45:00 AM 10.88 51.584 0.644 8.36 5.87 10.01
11/1/2020 10:00:00 AM 10.9 51.62 0.644 8.37 4.84 10.07
11/1/2020 10:15:00 AM 10.93 51.674 0.644 8.37 5.57 10.1
11/1/2020 10:30:00 AM 10.94 51.692 0.644 8.37 5.54 10.11
11/1/2020 10:45:00 AM 10.96 51.728 0.644 8.37 4.84 10.11
11/1/2020 11:00:00 AM 10.98 51.764 0.644 8.37 5.2 10.09
11/1/2020 11:15:00 AM 10.99 51.782 0.643 8.37 4.94 10.08
11/1/2020 11:30:00 AM 10.99 51.782 0.641 8.38 4.41 10.07
11/1/2020 11:45:00 AM 11 51.8 0.64 8.38 5.11 10.05
11/1/2020 12:00:00 PM 11.01 51.818 0.639 8.38 4.33 10.06
11/1/2020 12:15:00 PM 11.02 51.836 0.638 8.38 4.55 10.05
11/1/2020 12:30:00 PM 11.03 51.854 0.637 8.39 5.81 10.07
11/1/2020 12:45:00 PM 11.05 51.89 0.636 8.39 5.86 10.08
11/1/2020 1:00:00 PM 11.08 51.944 0.635 8.39 5.25 10.15
11/1/2020 1:15:00 PM 11.13 52.034 0.635 8.4 5.6 10.27
11/1/2020 1:30:00 PM 11.18 52.124 0.635 8.4 6.1 10.36
11/1/2020 1:45:00 PM 11.21 52.178 0.635 8.4 6.24 10.37
11/1/2020 2:00:00 PM 11.25 52.25 0.635 8.4 6.01 10.41
11/1/2020 2:15:00 PM 11.28 52.304 0.634 8.4 6.51 10.43
11/1/2020 2:30:00 PM 11.31 52.358 0.634 8.4 7.59 10.43
11/1/2020 2:45:00 PM 11.34 52.412 0.634 8.4 5.52 10.44
11/1/2020 3:00:00 PM 11.37 52.466 0.634 8.4 5.17 10.46
11/1/2020 3:15:00 PM 11.4 52.52 0.634 8.41 4.69 10.45
11/1/2020 3:30:00 PM 11.41 52.538 0.634 8.41 4.67 10.38
11/1/2020 3:45:00 PM 11.41 52.538 0.634 8.41 5.6 10.31
11/1/2020 4:00:00 PM 11.42 52.556 0.634 8.4 4.74 10.28
11/1/2020 4:15:00 PM 11.41 52.538 0.635 8.39 4.56 10.2
11/1/2020 4:30:00 PM 11.41 52.538 0.635 8.39 4.4 10.13
11/1/2020 4:45:00 PM 11.41 52.538 0.635 8.38 4.53 10.09
11/1/2020 5:00:00 PM 11.42 52.556 0.635 8.38 5.07 10.02
11/1/2020 5:15:00 PM 11.41 52.538 0.635 8.38 5.53 9.96
11/1/2020 5:30:00 PM 11.39 52.502 0.634 8.38 5.02 9.94
11/1/2020 5:45:00 PM 11.36 52.448 0.634 8.38 6.08 9.9
11/1/2020 6:00:00 PM 11.31 52.358 0.634 8.39 9.77 9.84
11/1/2020 6:15:00 PM 11.26 52.268 0.635 8.39 6.16 9.77
11/1/2020 6:30:00 PM 11.22 52.196 0.634 8.39 6.25 9.73
11/1/2020 6:45:00 PM 11.18 52.124 0.633 8.39 6.56 9.7
11/1/2020 7:00:00 PM 11.15 52.07 0.63 8.38 13.72 9.64
11/1/2020 7:15:00 PM 11.11 51.998 0.628 8.38 8.28 9.61
11/1/2020 7:30:00 PM 11.08 51.944 0.624 8.37 7.44 9.59
11/1/2020 7:45:00 PM 11.02 51.836 0.621 8.37 6.39 9.57
11/1/2020 8:00:00 PM 10.97 51.746 0.619 8.36 10.34 9.55
11/1/2020 8:15:00 PM 10.91 51.638 0.619 8.36 14.49 9.54
11/1/2020 8:30:00 PM 10.85 51.53 0.619 8.36 13.28 9.52
11/1/2020 8:45:00 PM 10.81 51.458 0.622 8.36 21.46 9.52
11/1/2020 9:00:00 PM 10.77 51.386 0.624 8.36 15.08 9.52
11/1/2020 9:15:00 PM 10.74 51.332 0.626 8.36 12.23 9.51
11/1/2020 9:30:00 PM 10.7 51.26 0.629 8.36 16.51 9.52
11/1/2020 9:45:00 PM 10.67 51.206 0.63 8.36 8.95 9.52
11/1/2020 10:00:00 PM 10.64 51.152 0.631 8.37 7.13 9.5
11/1/2020 10:15:00 PM 10.61 51.098 0.632 8.37 8.58 9.52
11/1/2020 10:30:00 PM 10.58 51.044 0.632 8.36 6.45 9.5
11/1/2020 10:45:00 PM 10.53 50.954 0.632 8.38 7.53 9.51
11/1/2020 11:00:00 PM 10.49 50.882 0.631 8.4 7.7 9.51
11/1/2020 11:15:00 PM 10.44 50.792 0.631 8.4 8 9.52
11/1/2020 11:30:00 PM 10.41 50.738 0.63 8.41 7.95 9.53
11/1/2020 11:45:00 PM 10.38 50.684 0.63 8.42 9.11 9.49
11/2/2020 12:00:00 AM 10.36 50.648 0.631 8.43 7.68 9.47
11/2/2020 12:15:00 AM 10.37 50.666 0.632 8.44 6.84 9.47
11/2/2020 12:30:00 AM 10.36 50.648 0.633 8.44 7.82 9.45
11/2/2020 12:45:00 AM 10.37 50.666 0.633 8.41 7.42 9.44
11/2/2020 1:00:00 AM 10.37 50.666 0.634 8.38 9.12 9.45
11/2/2020 1:15:00 AM 10.34 50.612 0.635 8.38 9.94 9.45
11/2/2020 1:30:00 AM 10.33 50.594 0.634 8.38 6.3 9.47
11/2/2020 1:45:00 AM 10.32 50.576 0.633 8.37 7.78 9.44
11/2/2020 2:00:00 AM 10.3 50.54 0.63 8.37 6.94 9.41
11/2/2020 2:15:00 AM 10.27 50.486 0.625 8.37 6.56 9.39
11/2/2020 2:30:00 AM 10.24 50.432 0.62 8.37 8.23 9.39
11/2/2020 2:45:00 AM 10.21 50.378 0.613 8.36 8.95 9.42
11/2/2020 3:00:00 AM 10.18 50.324 0.605 8.36 9.96 9.4
11/2/2020 3:15:00 AM 10.12 50.216 0.597 8.35 9.37 9.39
11/2/2020 3:30:00 AM 10.07 50.126 0.589 8.35 9.67 9.37
11/2/2020 3:45:00 AM 10 50 0.581 8.34 11.25 9.37
11/2/2020 4:00:00 AM 9.95 49.91 0.574 8.34 11.24 9.4
11/2/2020 4:15:00 AM 9.9 49.82 0.568 8.34 11.46 9.39
11/2/2020 4:30:00 AM 9.86 49.748 0.563 8.33 11.66 9.38
11/2/2020 4:45:00 AM 9.82 49.676 0.559 8.33 10.81 9.38
11/2/2020 5:00:00 AM 9.77 49.586 0.556 8.33 14.79 9.41
11/2/2020 5:15:00 AM 9.74 49.532 0.554 8.33 10.44 9.38
11/2/2020 5:30:00 AM 9.69 49.442 0.553 8.32 13.73 9.41
11/2/2020 5:45:00 AM 9.65 49.37 0.552 8.33 12.14 9.42
11/2/2020 6:00:00 AM 9.61 49.298 0.553 8.33 13.58 9.44
11/2/2020 6:15:00 AM 9.59 49.262 0.554 8.32 13.79 9.45
11/2/2020 6:30:00 AM 9.57 49.226 0.555 8.32 12.58 9.47
11/2/2020 6:45:00 AM 9.55 49.19 0.557 8.33 9 9.48
11/2/2020 7:00:00 AM 9.53 49.154 0.559 8.33 11.24 9.51
11/2/2020 7:15:00 AM 9.52 49.136 0.561 8.33 10.81 9.55
11/2/2020 7:30:00 AM 9.5 49.1 0.563 8.33 12.26 9.59
11/2/2020 7:45:00 AM 9.5 49.1 0.565 8.33 9.73 9.66
11/2/2020 8:00:00 AM 9.48 49.064 0.567 8.34 8.33 9.74
11/2/2020 8:15:00 AM 9.49 49.082 0.569 8.35 9.99 9.84
11/2/2020 8:30:00 AM 9.48 49.064 0.57 8.36 8.65 9.95
11/2/2020 8:45:00 AM 9.47 49.046 0.572 8.36 7.58 10.06
11/2/2020 9:00:00 AM 9.47 49.046 0.573 8.36 6.49 10.18
11/2/2020 9:15:00 AM 9.48 49.064 0.574 8.37 7.22 10.31
11/2/2020 9:30:00 AM 9.46 49.028 0.574 8.37 6.73 10.43
11/2/2020 9:45:00 AM 9.45 49.01 0.575 8.38 6.39 10.55
11/2/2020 10:00:00 AM 9.46 49.028 0.576 8.38 5.87 10.66
11/2/2020 10:15:00 AM 9.49 49.082 0.577 8.39 6.71 10.75
11/2/2020 10:30:00 AM 9.55 49.19 0.578 8.41 6.49 10.87
11/2/2020 10:45:00 AM 9.64 49.352 0.579 8.41 6.57 10.97
11/2/2020 11:00:00 AM 9.74 49.532 0.58 8.42 6.68 11.08
11/2/2020 11:15:00 AM 9.85 49.73 0.582 8.42 6.69 11.17
11/2/2020 11:30:00 AM 9.97 49.946 0.583 8.43 5.62 11.27
11/2/2020 11:45:00 AM 10.07 50.126 0.584 8.43 6.17 11.35
11/2/2020 12:00:00 PM 10.16 50.288 0.584 8.43 6.17 11.4
11/2/2020 12:15:00 PM 10.25 50.45 0.585 8.44 15.94 11.48
11/2/2020 12:30:00 PM 10.33 50.594 0.586 8.44 7.25 11.52
11/2/2020 12:45:00 PM 10.4 50.72 0.587 8.45 6.2 11.57
11/2/2020 1:00:00 PM 10.45 50.81 0.588 8.46 6.86 11.59
11/2/2020 1:15:00 PM 10.49 50.882 0.589 8.46 5.13 11.65
11/2/2020 1:30:00 PM 10.49 50.882 0.591 8.47 6.87 11.65
11/2/2020 1:45:00 PM 10.51 50.918 0.592 8.48 5.39 11.64
11/2/2020 2:00:00 PM 10.52 50.936 0.594 8.49 6.27 11.64
11/2/2020 2:15:00 PM 10.47 50.846 0.596 8.5 6.03 11.65
11/2/2020 2:30:00 PM 10.45 50.81 0.597 8.51 4.97 11.63
11/2/2020 2:45:00 PM 10.46 50.828 0.599 8.52 5.87 11.66
11/2/2020 3:00:00 PM 10.44 50.792 0.6 8.51 5.83 11.64
11/2/2020 3:15:00 PM 10.41 50.738 0.602 8.51 7.17 11.6
11/2/2020 3:30:00 PM 10.36 50.648 0.603 8.51 7.88 11.56
11/2/2020 3:45:00 PM 10.32 50.576 0.604 8.52 5.79 11.55
11/2/2020 4:00:00 PM 10.25 50.45 0.606 8.52 6.31 11.48
11/2/2020 4:15:00 PM 10.19 50.342 0.607 8.52 5.67 11.38
11/2/2020 4:30:00 PM 10.12 50.216 0.607 8.52 7.23 11.27
11/2/2020 4:45:00 PM 10.07 50.126 0.608 8.52 7.1 11.17
11/2/2020 5:00:00 PM 10.02 50.036 0.609 8.52 6.54 11.06
11/2/2020 5:15:00 PM 9.96 49.928 0.61 8.51 7.3 10.95
11/2/2020 5:30:00 PM 9.89 49.802 0.611 8.51 7.77 10.84
11/2/2020 5:45:00 PM 9.84 49.712 0.612 8.5 7.98 10.75
11/2/2020 6:00:00 PM 9.79 49.622 0.612 8.49 11.87 10.64
11/2/2020 6:15:00 PM 9.74 49.532 0.613 8.49 11.46 10.59
11/2/2020 6:30:00 PM 9.69 49.442 0.613 8.48 8.81 10.54
11/2/2020 6:45:00 PM 9.66 49.388 0.614 8.47 7.76 10.49
11/2/2020 7:00:00 PM 9.63 49.334 0.615 8.47 9.89 10.45
11/2/2020 7:15:00 PM 9.61 49.298 0.616 8.46 9.2 10.41
11/2/2020 7:30:00 PM 9.58 49.244 0.617 8.46 8.57 10.38
11/2/2020 7:45:00 PM 9.55 49.19 0.618 8.46 9.39 10.32
11/2/2020 8:00:00 PM 9.52 49.136 0.619 8.46 7.9 10.29
11/2/2020 8:15:00 PM 9.49 49.082 0.619 8.45 7.62 10.25
11/2/2020 8:30:00 PM 9.46 49.028 0.62 8.45 13.85 10.23
11/2/2020 8:45:00 PM 9.42 48.956 0.62 8.44 8.13 10.2
11/2/2020 9:00:00 PM 9.4 48.92 0.621 8.44 6.58 10.19
11/2/2020 9:15:00 PM 9.37 48.866 0.622 8.44 6.99 10.17
11/2/2020 9:30:00 PM 9.34 48.812 0.622 8.44 6.91 10.14
11/2/2020 9:45:00 PM 9.32 48.776 0.623 8.44 7.71 10.12
11/2/2020 10:00:00 PM 9.29 48.722 0.624 8.43 7.67 10.09
11/2/2020 10:15:00 PM 9.26 48.668 0.625 8.43 6.74 10.06
11/2/2020 10:30:00 PM 9.24 48.632 0.625 8.42 5.68 10.03
11/2/2020 10:45:00 PM 9.22 48.596 0.626 8.43 4.82 10.02
11/2/2020 11:00:00 PM 9.21 48.578 0.626 8.42 4.31 10.01
11/2/2020 11:15:00 PM 9.19 48.542 0.627 8.43 4.52 9.99
11/2/2020 11:30:00 PM 9.17 48.506 0.627 8.42 5.55 9.97
11/2/2020 11:45:00 PM 9.15 48.47 0.628 8.42 6.82 9.95
11/3/2020 12:00:00 AM 9.12 48.416 0.629 8.42 5.96 9.94
11/3/2020 12:15:00 AM 9.1 48.38 0.63 8.42 5.57 9.92
11/3/2020 12:30:00 AM 9.08 48.344 0.63 8.41 5.71 9.9
11/3/2020 12:45:00 AM 9.06 48.308 0.631 8.41 4.52 9.9
11/3/2020 1:00:00 AM 9.04 48.272 0.632 8.41 4.16 9.88
11/3/2020 1:15:00 AM 9.03 48.254 0.633 8.41 4.08 9.86
11/3/2020 1:30:00 AM 9.02 48.236 0.634 8.41 4.77 9.87
11/3/2020 1:45:00 AM 9.01 48.218 0.634 8.41 4.63 9.87
11/3/2020 2:00:00 AM 9 48.2 0.636 8.41 5.49 9.87
11/3/2020 2:15:00 AM 8.98 48.164 0.636 8.41 5.06 9.85
11/3/2020 2:30:00 AM 8.97 48.146 0.637 8.41 6.81 9.85
11/3/2020 2:45:00 AM 8.96 48.128 0.637 8.41 7 9.86
11/3/2020 3:00:00 AM 8.94 48.092 0.638 8.4 6.64 9.87
11/3/2020 3:15:00 AM 8.92 48.056 0.638 8.41 9.02 9.87
11/3/2020 3:30:00 AM 8.89 48.002 0.639 8.42 10.53 9.87
11/3/2020 3:45:00 AM 8.87 47.966 0.639 8.41 6.49 9.88
11/3/2020 4:00:00 AM 8.85 47.93 0.639 8.41 6.05 9.87
11/3/2020 4:15:00 AM 8.83 47.894 0.639 8.41 5.15 9.87
11/3/2020 4:30:00 AM 8.82 47.876 0.64 8.41 8.39 9.89
11/3/2020 4:45:00 AM 8.8 47.84 0.64 8.41 4.71 9.89
11/3/2020 5:00:00 AM 8.78 47.804 0.641 8.41 6.79 9.9
11/3/2020 5:15:00 AM 8.78 47.804 0.641 8.41 7.5 9.88
11/3/2020 5:30:00 AM 8.78 47.804 0.642 8.41 7.49 9.89
11/3/2020 5:45:00 AM 8.76 47.768 0.641 8.41 4.45 9.89
11/3/2020 6:00:00 AM 8.75 47.75 0.642 8.41 6.12 9.9
11/3/2020 6:15:00 AM 8.75 47.75 0.642 8.41 5.14 9.9
11/3/2020 6:30:00 AM 8.75 47.75 0.641 8.41 6.38 9.91
11/3/2020 6:45:00 AM 8.74 47.732 0.642 8.41 5.44 9.91
11/3/2020 7:00:00 AM 8.74 47.732 0.642 8.41 6.69 9.93
11/3/2020 7:15:00 AM 8.74 47.732 0.642 8.41 4.92 9.96
11/3/2020 7:30:00 AM 8.73 47.714 0.642 8.41 5.31 9.98
11/3/2020 7:45:00 AM 8.73 47.714 0.642 8.41 4.89 10.05
11/3/2020 8:00:00 AM 8.74 47.732 0.642 8.42 5.01 10.12
11/3/2020 8:15:00 AM 8.77 47.786 0.642 8.42 5 10.2
11/3/2020 8:30:00 AM 8.8 47.84 0.642 8.42 4.93 10.32
11/3/2020 8:45:00 AM 8.83 47.894 0.642 8.42 4.05 10.43
11/3/2020 9:00:00 AM 8.88 47.984 0.642 8.43 5 10.55
11/3/2020 9:15:00 AM 8.93 48.074 0.641 8.44 4.43 10.65
11/3/2020 9:30:00 AM 9 48.2 0.641 8.44 5.14 10.78
11/3/2020 9:45:00 AM 9.06 48.308 0.641 8.45 4.32 10.91
11/3/2020 10:00:00 AM 9.14 48.452 0.641 8.45 4.66 11.05
11/3/2020 10:15:00 AM 9.23 48.614 0.64 8.45 5.37 11.17
11/3/2020 10:30:00 AM 9.34 48.812 0.64 8.46 4.26 11.28
11/3/2020 10:45:00 AM 9.46 49.028 0.64 8.46 4.23 11.39
11/3/2020 11:00:00 AM 9.59 49.262 0.641 8.47 3.75 11.49
11/3/2020 11:15:00 AM 9.72 49.496 0.641 8.47 4.16 11.58
11/3/2020 11:30:00 AM 9.86 49.748 0.64 8.48 4.4 11.66
11/3/2020 11:45:00 AM 9.99 49.982 0.641 8.48 4.37 11.73
11/3/2020 12:00:00 PM 10.12 50.216 0.641 8.48 3.82 11.79
11/3/2020 12:15:00 PM 10.25 50.45 0.64 8.49 3.47 11.88
11/3/2020 12:30:00 PM 10.35 50.63 0.64 8.49 4.33 11.92
11/3/2020 12:45:00 PM 10.45 50.81 0.641 8.49 3.58 11.96
11/3/2020 1:00:00 PM 10.54 50.972 0.641 8.5 4.09 11.97
11/3/2020 1:15:00 PM 10.61 51.098 0.641 8.5 4 11.99
11/3/2020 1:30:00 PM 10.66 51.188 0.642 8.5 4.11 12
11/3/2020 1:45:00 PM 10.71 51.278 0.642 8.5 3.65 12
11/3/2020 2:00:00 PM 10.73 51.314 0.642 8.51 3.79 12
11/3/2020 2:15:00 PM 10.76 51.368 0.642 8.51 3.54 11.99
11/3/2020 2:30:00 PM 10.78 51.404 0.643 8.52 3.33 11.97
11/3/2020 2:45:00 PM 10.79 51.422 0.643 8.52 4.15 11.94
11/3/2020 3:00:00 PM 10.79 51.422 0.644 8.52 4.84 11.9
11/3/2020 3:15:00 PM 10.79 51.422 0.644 8.52 4.04 11.85
11/3/2020 3:30:00 PM 10.78 51.404 0.644 8.53 4.98 11.76
11/3/2020 3:45:00 PM 10.74 51.332 0.644 8.53 4.19 11.67
11/3/2020 4:00:00 PM 10.71 51.278 0.645 8.52 3.48 11.57
11/3/2020 4:15:00 PM 10.67 51.206 0.645 8.52 3.33 11.46
11/3/2020 4:30:00 PM 10.62 51.116 0.646 8.52 3.34 11.32
11/3/2020 4:45:00 PM 10.59 51.062 0.646 8.51 2.82 11.21
11/3/2020 5:00:00 PM 10.58 51.044 0.647 8.51 4.22 11.1
11/3/2020 5:15:00 PM 10.56 51.008 0.647 8.5 3.56 10.98
11/3/2020 5:30:00 PM 10.55 50.99 0.647 8.49 3.98 10.85
11/3/2020 5:45:00 PM 10.53 50.954 0.647 8.48 4.59 10.76
11/3/2020 6:00:00 PM 10.51 50.918 0.608 8.48 4.4 10.67
11/3/2020 6:15:00 PM 10.49 50.882 0.616 8.48 4.1 10.58
11/3/2020 6:30:00 PM 10.47 50.846 0.647 8.47 4.29 10.52
11/3/2020 6:45:00 PM 10.44 50.792 0.649 8.47 5.29 10.46
11/3/2020 7:00:00 PM 10.41 50.738 0.643 8.46 4.21 10.41
11/3/2020 7:15:00 PM 10.38 50.684 0.648 8.46 3.86 10.38
11/3/2020 7:30:00 PM 10.34 50.612 0.651 8.46 4.2 10.33
11/3/2020 7:45:00 PM 10.3 50.54 0.651 8.46 6.56 10.28
11/3/2020 8:00:00 PM 10.26 50.468 0.651 8.46 5.11 10.24
11/3/2020 8:15:00 PM 10.22 50.396 0.651 8.46 4.48 10.19
11/3/2020 8:30:00 PM 10.18 50.324 0.652 8.46 6.95 10.16
11/3/2020 8:45:00 PM 10.14 50.252 0.652 8.46 5.36 10.14
11/3/2020 9:00:00 PM 10.1 50.18 0.652 8.46 4.95 10.1
11/3/2020 9:15:00 PM 10.07 50.126 0.652 8.45 5.07 10.08
11/3/2020 9:30:00 PM 10.05 50.09 0.652 8.45 4.44 10.07
11/3/2020 9:45:00 PM 10.02 50.036 0.652 8.45 5.63 10.03
11/3/2020 10:00:00 PM 10 50 0.653 8.45 4.65 10.03
11/3/2020 10:15:00 PM 9.97 49.946 0.653 8.45 6.15 10.01
11/3/2020 10:30:00 PM 9.94 49.892 0.653 8.45 5.76 10
11/3/2020 10:45:00 PM 9.92 49.856 0.653 8.44 6.04 9.99
11/3/2020 11:00:00 PM 9.89 49.802 0.654 8.45 8.02 9.98
11/3/2020 11:15:00 PM 9.87 49.766 0.654 8.44 7.7 9.96
11/3/2020 11:30:00 PM 9.85 49.73 0.655 8.44 6 9.93
11/3/2020 11:45:00 PM 9.83 49.694 0.656 8.44 4.31 9.91
11/4/2020 12:00:00 AM 9.82 49.676 0.656 8.44 4.91 9.91
11/4/2020 12:15:00 AM 9.8 49.64 0.656 8.44 7.59 9.91
11/4/2020 12:30:00 AM 9.79 49.622 0.657 8.44 4.75 9.9
11/4/2020 12:45:00 AM 9.77 49.586 0.658 8.44 4.07 9.88
11/4/2020 1:00:00 AM 9.76 49.568 0.658 8.44 4.26 9.87
11/4/2020 1:15:00 AM 9.74 49.532 0.659 8.43 6.04 9.87
11/4/2020 1:30:00 AM 9.73 49.514 0.659 8.43 5.19 9.86
11/4/2020 1:45:00 AM 9.71 49.478 0.66 8.43 4.63 9.84
11/4/2020 2:00:00 AM 9.69 49.442 0.66 8.43 5.04 9.84
11/4/2020 2:15:00 AM 9.68 49.424 0.661 8.43 3.95 9.83
11/4/2020 2:30:00 AM 9.66 49.388 0.662 8.42 6.48 9.83
11/4/2020 2:45:00 AM 9.64 49.352 0.662 8.43 3.87 9.82
11/4/2020 3:00:00 AM 9.62 49.316 0.662 8.42 3.72 9.82
11/4/2020 3:15:00 AM 9.59 49.262 0.662 8.43 5.09 9.81
11/4/2020 3:30:00 AM 9.57 49.226 0.662 8.43 7.01 9.81
11/4/2020 3:45:00 AM 9.55 49.19 0.663 8.43 3.51 9.8
11/4/2020 4:00:00 AM 9.53 49.154 0.663 8.43 4.75 9.81
11/4/2020 4:15:00 AM 9.51 49.118 0.663 8.43 3.9 9.81
11/4/2020 4:30:00 AM 9.49 49.082 0.662 8.43 4.12 9.81
11/4/2020 4:45:00 AM 9.46 49.028 0.663 8.43 4.46 9.83
11/4/2020 5:00:00 AM 9.44 48.992 0.663 8.43 4.39 9.81
11/4/2020 5:15:00 AM 9.41 48.938 0.664 8.43 3.97 9.84
11/4/2020 5:30:00 AM 9.38 48.884 0.663 8.43 3.21 9.84
11/4/2020 5:45:00 AM 9.34 48.812 0.663 8.43 3.11 9.85
11/4/2020 6:00:00 AM 9.31 48.758 0.663 8.43 3.74 9.85
11/4/2020 6:15:00 AM 9.29 48.722 0.663 8.43 3.9 9.87
11/4/2020 6:30:00 AM 9.26 48.668 0.663 8.44 3.43 9.86
11/4/2020 6:45:00 AM 9.24 48.632 0.663 8.44 5.13 9.88
11/4/2020 7:00:00 AM 9.22 48.596 0.663 8.44 4.46 9.91
11/4/2020 7:15:00 AM 9.2 48.56 0.663 8.44 4.9 9.95
11/4/2020 7:30:00 AM 9.19 48.542 0.663 8.44 4.49 10
11/4/2020 7:45:00 AM 9.18 48.524 0.662 8.45 4.1 10.06
11/4/2020 8:00:00 AM 9.17 48.506 0.662 8.45 4.3 10.14
11/4/2020 8:15:00 AM 9.17 48.506 0.662 8.45 4.07 10.24
11/4/2020 8:30:00 AM 9.19 48.542 0.661 8.45 4.34 10.33
11/4/2020 8:45:00 AM 9.22 48.596 0.661 8.45 4.26 10.46
11/4/2020 9:00:00 AM 9.27 48.686 0.661 8.46 5.56 10.6
11/4/2020 9:15:00 AM 9.35 48.83 0.66 8.47 3.68 10.75
11/4/2020 9:30:00 AM 9.44 48.992 0.66 8.47 3.71 10.88
11/4/2020 9:45:00 AM 9.54 49.172 0.659 8.48 3.62 11.02
11/4/2020 10:00:00 AM 9.65 49.37 0.659 8.49 2.88 11.17
11/4/2020 10:15:00 AM 9.77 49.586 0.659 8.49 3.62 11.29
11/4/2020 10:30:00 AM 9.9 49.82 0.658 8.49 2.95 11.41
11/4/2020 10:45:00 AM 10.04 50.072 0.658 8.5 3.09 11.54
11/4/2020 11:00:00 AM 10.19 50.342 0.658 8.5 2.55 11.63
11/4/2020 11:15:00 AM 10.34 50.612 0.657 8.51 3.02 11.76
11/4/2020 11:30:00 AM 10.49 50.882 0.657 8.51 2.76 11.88
11/4/2020 11:45:00 AM 10.63 51.134 0.657 8.52 2.83 11.97
11/4/2020 12:00:00 PM 10.75 51.35 0.657 8.52 2.46 12.04
11/4/2020 12:15:00 PM 10.85 51.53 0.658 8.52 2.61 12.11
11/4/2020 12:30:00 PM 10.95 51.71 0.658 8.52 2.66 12.14
11/4/2020 12:45:00 PM 11.05 51.89 0.659 8.52 2.75 12.18
11/4/2020 1:00:00 PM 11.15 52.07 0.66 8.52 2.78 12.19
11/4/2020 1:15:00 PM 11.25 52.25 0.661 8.52 2.67 12.22
11/4/2020 1:30:00 PM 11.34 52.412 0.661 8.53 2.57 12.26
11/4/2020 1:45:00 PM 11.41 52.538 0.661 8.53 2.99 12.26
11/4/2020 2:00:00 PM 11.46 52.628 0.661 8.53 2.63 12.27
11/4/2020 2:15:00 PM 11.5 52.7 0.661 8.53 2.49 12.24
11/4/2020 2:30:00 PM 11.53 52.754 0.662 8.53 2.56 12.22
11/4/2020 2:45:00 PM 11.55 52.79 0.662 8.54 2.36 12.19
11/4/2020 3:00:00 PM 11.56 52.808 0.662 8.54 2.64 12.14
11/4/2020 3:15:00 PM 11.55 52.79 0.662 8.54 2.53 12.08
11/4/2020 3:30:00 PM 11.53 52.754 0.662 8.54 2.23 11.99
11/4/2020 3:45:00 PM 11.5 52.7 0.662 8.54 2.22 11.89
11/4/2020 4:00:00 PM 11.46 52.628 0.663 8.53 3.45 11.77
11/4/2020 4:15:00 PM 11.42 52.556 0.662 8.53 3.04 11.63
11/4/2020 4:30:00 PM 11.37 52.466 0.662 8.53 3.07 11.48
11/4/2020 4:45:00 PM 11.34 52.412 0.663 8.52 3.28 11.32
11/4/2020 5:00:00 PM 11.31 52.358 0.663 8.52 3.31 11.16
11/4/2020 5:15:00 PM 11.28 52.304 0.662 8.51 2.37 11.02
11/4/2020 5:30:00 PM 11.25 52.25 0.663 8.5 3.87 10.87
11/4/2020 5:45:00 PM 11.23 52.214 0.662 8.49 2.77 10.74
11/4/2020 6:00:00 PM 11.2 52.16 0.662 8.49 3.53 10.64
11/4/2020 6:15:00 PM 11.17 52.106 0.662 8.47 4.26 10.55
11/4/2020 6:30:00 PM 11.15 52.07 0.663 8.47 3.37 10.48
11/4/2020 6:45:00 PM 11.13 52.034 0.662 8.47 5.82 10.42
11/4/2020 7:00:00 PM 11.11 51.998 0.662 8.46 4.71 10.37
11/4/2020 7:15:00 PM 11.1 51.98 0.661 8.45 4.52 10.3
11/4/2020 7:30:00 PM 11.09 51.962 0.66 8.45 3.78 10.26
11/4/2020 7:45:00 PM 11.07 51.926 0.659 8.45 4.59 10.2
11/4/2020 8:00:00 PM 11.05 51.89 0.658 8.45 5.69 10.16
11/4/2020 8:15:00 PM 11.02 51.836 0.658 8.45 5.32 10.12
11/4/2020 8:30:00 PM 10.99 51.782 0.658 8.45 4.31 10.08
11/4/2020 8:45:00 PM 10.96 51.728 0.657 8.45 4.4 10.04
11/4/2020 9:00:00 PM 10.92 51.656 0.657 8.45 4.64 10.02
11/4/2020 9:15:00 PM 10.88 51.584 0.657 8.45 3.84 9.99
11/4/2020 9:30:00 PM 10.84 51.512 0.657 8.44 4.82 9.97
11/4/2020 9:45:00 PM 10.81 51.458 0.657 8.44 4.31 9.94
11/4/2020 10:00:00 PM 10.77 51.386 0.657 8.44 4.56 9.92
11/4/2020 10:15:00 PM 10.75 51.35 0.657 8.43 3.85 9.91
11/4/2020 10:30:00 PM 10.72 51.296 0.657 8.45 4.54 9.89
11/4/2020 10:45:00 PM 10.69 51.242 0.657 8.44 9.18 9.87
11/4/2020 11:00:00 PM 10.66 51.188 0.657 8.44 5.14 9.86
11/4/2020 11:15:00 PM 10.64 51.152 0.657 8.44 5.03 9.83
11/4/2020 11:30:00 PM 10.62 51.116 0.658 8.44 4.23 9.83
11/4/2020 11:45:00 PM 10.59 51.062 0.658 8.43 3.73 9.81
11/5/2020 12:00:00 AM 10.57 51.026 0.658 8.43 5.04 9.8
11/5/2020 12:15:00 AM 10.55 50.99 0.658 8.43 4.67 9.77
11/5/2020 12:30:00 AM 10.53 50.954 0.658 8.43 3.68 9.76
11/5/2020 12:45:00 AM 10.5 50.9 0.659 8.42 4.56 9.74
11/5/2020 1:00:00 AM 10.48 50.864 0.659 8.42 3.13 9.72
11/5/2020 1:15:00 AM 10.47 50.846 0.66 8.43 3.24 9.71
11/5/2020 1:30:00 AM 10.45 50.81 0.661 8.42 3.79 9.69
11/5/2020 1:45:00 AM 10.44 50.792 0.661 8.42 3.46 9.68
11/5/2020 2:00:00 AM 10.42 50.756 0.662 8.42 4.16 9.66
11/5/2020 2:15:00 AM 10.41 50.738 0.663 8.42 4.93 9.65
11/5/2020 2:30:00 AM 10.39 50.702 0.663 8.43 7.59 9.63
11/5/2020 2:45:00 AM 10.38 50.684 0.663 8.43 4.84 9.64
11/5/2020 3:00:00 AM 10.36 50.648 0.663 8.42 3.13 9.62
11/5/2020 3:15:00 AM 10.34 50.612 0.664 8.42 3.99 9.61
11/5/2020 3:30:00 AM 10.32 50.576 0.664 8.43 4.58 9.62
11/5/2020 3:45:00 AM 10.3 50.54 0.665 8.43 5.5 9.62
11/5/2020 4:00:00 AM 10.28 50.504 0.665 8.42 3.84 9.61
11/5/2020 4:15:00 AM 10.25 50.45 0.665 8.43 4.04 9.6
11/5/2020 4:30:00 AM 10.23 50.414 0.665 8.44 4.92 9.62
11/5/2020 4:45:00 AM 10.2 50.36 0.665 8.45 4.89 9.6
11/5/2020 5:00:00 AM 10.18 50.324 0.666 8.43 5.16 9.61
11/5/2020 5:15:00 AM 10.15 50.27 0.666 8.43 6.12 9.62
11/5/2020 5:30:00 AM 10.13 50.234 0.666 8.45 4.89 9.61
11/5/2020 5:45:00 AM 10.11 50.198 0.666 8.46 6.2 9.63
11/5/2020 6:00:00 AM 10.08 50.144 0.666 8.43 12.7 9.63
11/5/2020 6:15:00 AM 10.06 50.108 0.666 8.43 4.29 9.63
11/5/2020 6:30:00 AM 10.03 50.054 0.666 8.43 5.48 9.65
11/5/2020 6:45:00 AM 10 50 0.666 8.45 6.55 9.65
11/5/2020 7:00:00 AM 9.98 49.964 0.665 8.46 5 9.68
11/5/2020 7:15:00 AM 9.95 49.91 0.666 8.44 4.94 9.71
11/5/2020 7:30:00 AM 9.92 49.856 0.665 8.44 5 9.76
11/5/2020 7:45:00 AM 9.9 49.82 0.665 8.44 4.15 9.83
11/5/2020 8:00:00 AM 9.88 49.784 0.665 8.44 3.38 9.91
11/5/2020 8:15:00 AM 9.88 49.784 0.665 8.45 4.13 10.02
11/5/2020 8:30:00 AM 9.89 49.802 0.666 8.45 3.38 10.16
11/5/2020 8:45:00 AM 9.93 49.874 0.666 8.46 4.06 10.32
11/5/2020 9:00:00 AM 9.97 49.946 0.667 8.48 3.18 10.47
11/5/2020 9:15:00 AM 10.03 50.054 0.668 8.47 2.7 10.61
11/5/2020 9:30:00 AM 10.13 50.234 0.668 8.48 3.14 10.75
11/5/2020 9:45:00 AM 10.23 50.414 0.669 8.49 2.89 10.88
11/5/2020 10:00:00 AM 10.33 50.594 0.669 8.51 3.53 11.04
11/5/2020 10:15:00 AM 10.47 50.846 0.667 8.5 3.49 11.19
11/5/2020 10:30:00 AM 10.61 51.098 0.666 8.5 3.09 11.37
11/5/2020 10:45:00 AM 10.76 51.368 0.664 8.5 5.4 11.52
11/5/2020 11:00:00 AM 10.92 51.656 0.663 8.51 3.24 11.67
11/5/2020 11:15:00 AM 11.07 51.926 0.662 8.51 4.94 11.81
11/5/2020 11:30:00 AM 11.24 52.232 0.661 8.52 2.79 11.93
11/5/2020 11:45:00 AM 11.38 52.484 0.66 8.52 3.17 12.03
11/5/2020 12:00:00 PM 11.5 52.7 0.66 8.53 2.85 12.12
11/5/2020 12:15:00 PM 11.62 52.916 0.659 8.53 2.84 12.19
11/5/2020 12:30:00 PM 11.72 53.096 0.66 8.54 3.64 12.28
11/5/2020 12:45:00 PM 11.83 53.294 0.659 8.55 3.09 12.35
11/5/2020 1:00:00 PM 11.92 53.456 0.659 8.55 2.34 12.44
11/5/2020 1:15:00 PM 11.99 53.582 0.659 8.55 3.62 12.49
11/5/2020 1:30:00 PM 12.06 53.708 0.659 8.56 3.2 12.54
11/5/2020 1:45:00 PM 12.1 53.78 0.658 8.56 2.56 12.55
11/5/2020 2:00:00 PM 12.13 53.834 0.659 8.56 2.59 12.55
11/5/2020 2:15:00 PM 12.15 53.87 0.659 8.57 3.59 12.53
11/5/2020 2:30:00 PM 12.18 53.924 0.659 8.57 3.03 12.54
11/5/2020 2:45:00 PM 12.2 53.96 0.659 8.57 3.3 12.51
11/5/2020 3:00:00 PM 12.19 53.942 0.66 8.57 4.34 12.5
11/5/2020 3:15:00 PM 12.17 53.906 0.66 8.58 2.25 12.47
11/5/2020 3:30:00 PM 12.15 53.87 0.66 8.58 2.49 12.39
11/5/2020 3:45:00 PM 12.11 53.798 0.661 8.58 2.85 12.3
11/5/2020 4:00:00 PM 12.07 53.726 0.66 8.58 2.66 12.12
11/5/2020 4:15:00 PM 12.03 53.654 0.661 8.57 3.14 11.97
11/5/2020 4:30:00 PM 11.99 53.582 0.661 8.57 2.68 11.82
11/5/2020 4:45:00 PM 11.96 53.528 0.661 8.56 2.57 11.63
11/5/2020 5:00:00 PM 11.95 53.51 0.661 8.55 2.84 11.44
11/5/2020 5:15:00 PM 11.95 53.51 0.661 8.53 3.6 11.24
11/5/2020 5:30:00 PM 11.96 53.528 0.661 8.52 3.56 11.07
11/5/2020 5:45:00 PM 11.96 53.528 0.661 8.51 3.73 10.88
11/5/2020 6:00:00 PM 11.95 53.51 0.661 8.5 5.32 10.76
11/5/2020 6:15:00 PM 11.93 53.474 0.661 8.49 4.7 10.64
11/5/2020 6:30:00 PM 11.9 53.42 0.66 8.48 3.16 10.54
11/5/2020 6:45:00 PM 11.87 53.366 0.659 8.47 3.86 10.45
11/5/2020 7:00:00 PM 11.83 53.294 0.658 8.47 5.25 10.41
11/5/2020 7:15:00 PM 11.78 53.204 0.658 8.47 5.48 10.38
11/5/2020 7:30:00 PM 11.74 53.132 0.658 8.46 7.21 10.36
11/5/2020 7:45:00 PM 11.7 53.06 0.657 8.46 7.71 10.34
11/5/2020 8:00:00 PM 11.67 53.006 0.657 8.45 7.14 10.29
11/5/2020 8:15:00 PM 11.64 52.952 0.658 8.45 7.63 10.23
11/5/2020 8:30:00 PM 11.61 52.898 0.659 8.45 7.84 10.15
11/5/2020 8:45:00 PM 11.59 52.862 0.662 8.44 4.25 10.07
11/5/2020 9:00:00 PM 11.57 52.826 0.663 8.44 4.72 9.99
11/5/2020 9:15:00 PM 11.56 52.808 0.665 8.44 3.9 9.9
11/5/2020 9:30:00 PM 11.55 52.79 0.666 8.44 6.96 9.82
11/5/2020 9:45:00 PM 11.53 52.754 0.667 8.43 4.26 9.77
11/5/2020 10:00:00 PM 11.51 52.718 0.668 8.43 3.81 9.7
11/5/2020 10:15:00 PM 11.49 52.682 0.668 8.43 3.83 9.66
11/5/2020 10:30:00 PM 11.47 52.646 0.668 8.42 5.65 9.62
11/5/2020 10:45:00 PM 11.45 52.61 0.669 8.42 4.29 9.59
11/5/2020 11:00:00 PM 11.43 52.574 0.669 8.42 4.74 9.55
11/5/2020 11:15:00 PM 11.41 52.538 0.669 8.42 3.88 9.53
11/5/2020 11:30:00 PM 11.39 52.502 0.67 8.42 3.6 9.49
11/5/2020 11:45:00 PM 11.37 52.466 0.67 8.41 4.31 9.46
11/6/2020 12:00:00 AM 11.35 52.43 0.67 8.41 4.85 9.42
11/6/2020 12:15:00 AM 11.33 52.394 0.671 8.4 4.01 9.4
11/6/2020 12:30:00 AM 11.31 52.358 0.671 8.4 5.13 9.38
11/6/2020 12:45:00 AM 11.29 52.322 0.672 8.4 3.25 9.35
11/6/2020 1:00:00 AM 11.27 52.286 0.672 8.39 3.44 9.32
11/6/2020 1:15:00 AM 11.25 52.25 0.672 8.39 2.88 9.3
11/6/2020 1:30:00 AM 11.23 52.214 0.673 8.39 4.42 9.27
11/6/2020 1:45:00 AM 11.22 52.196 0.673 8.38 4.28 9.25
11/6/2020 2:00:00 AM 11.2 52.16 0.673 8.38 3.3 9.23
11/6/2020 2:15:00 AM 11.19 52.142 0.674 8.38 2.73 9.21
11/6/2020 2:30:00 AM 11.19 52.142 0.674 8.38 3.74 9.2
11/6/2020 2:45:00 AM 11.18 52.124 0.674 8.38 3.33 9.17
11/6/2020 3:00:00 AM 11.18 52.124 0.675 8.38 4.13 9.17
11/6/2020 3:15:00 AM 11.17 52.106 0.675 8.38 3.07 9.14
11/6/2020 3:30:00 AM 11.16 52.088 0.676 8.38 3.26 9.13
11/6/2020 3:45:00 AM 11.16 52.088 0.676 8.38 2.68 9.13
11/6/2020 4:00:00 AM 11.15 52.07 0.676 8.38 3.23 9.1
11/6/2020 4:15:00 AM 11.15 52.07 0.677 8.38 4.04 9.09
11/6/2020 4:30:00 AM 11.14 52.052 0.677 8.38 3.66 9.08
11/6/2020 4:45:00 AM 11.13 52.034 0.677 8.38 6 9.07
11/6/2020 5:00:00 AM 11.12 52.016 0.678 8.37 3.92 9.06
11/6/2020 5:15:00 AM 11.11 51.998 0.678 8.37 3.75 9.06
11/6/2020 5:30:00 AM 11.09 51.962 0.678 8.37 7 9.05
11/6/2020 5:45:00 AM 11.08 51.944 0.678 8.37 3.81 9.05
11/6/2020 6:00:00 AM 11.06 51.908 0.678 8.37 4.21 9.05
11/6/2020 6:15:00 AM 11.04 51.872 0.678 8.37 3.4 9.04
11/6/2020 6:30:00 AM 11.01 51.818 0.678 8.37 4.31 9.04
11/6/2020 6:45:00 AM 10.99 51.782 0.678 8.37 4.41 9.05
11/6/2020 7:00:00 AM 10.97 51.746 0.678 8.38 3.32 9.07
11/6/2020 7:15:00 AM 10.94 51.692 0.678 8.38 4.81 9.11
11/6/2020 7:30:00 AM 10.92 51.656 0.678 8.39 4.02 9.14
11/6/2020 7:45:00 AM 10.89 51.602 0.678 8.39 3.53 9.2
11/6/2020 8:00:00 AM 10.86 51.548 0.677 8.39 3.11 9.27
11/6/2020 8:15:00 AM 10.85 51.53 0.677 8.4 4.46 9.36
11/6/2020 8:30:00 AM 10.84 51.512 0.677 8.41 3.42 9.5
11/6/2020 8:45:00 AM 10.85 51.53 0.677 8.41 4.42 9.66
11/6/2020 9:00:00 AM 10.88 51.584 0.677 8.42 2.97 9.83
11/6/2020 9:15:00 AM 10.94 51.692 0.677 8.43 3.66 10.02
11/6/2020 9:30:00 AM 11.02 51.836 0.677 8.44 2.46 10.22
11/6/2020 9:45:00 AM 11.12 52.016 0.677 8.46 3.21 10.42
11/6/2020 10:00:00 AM 11.23 52.214 0.677 8.46 4.14 10.61
11/6/2020 10:15:00 AM 11.34 52.412 0.679 8.47 4.03 10.77
11/6/2020 10:30:00 AM 11.46 52.628 0.678 8.46 3.2 10.94
11/6/2020 10:45:00 AM 11.57 52.826 0.675 8.48 3.17 11.16
11/6/2020 11:00:00 AM 11.7 53.06 0.671 8.49 3.44 11.39
11/6/2020 11:15:00 AM 11.84 53.312 0.668 8.49 3.73 11.59
11/6/2020 11:30:00 AM 11.98 53.564 0.666 8.5 3.92 11.76
11/6/2020 11:45:00 AM 12.13 53.834 0.664 8.51 2.9 11.91
11/6/2020 12:00:00 PM 12.27 54.086 0.663 8.52 3.24 12.02
11/6/2020 12:15:00 PM 12.4 54.32 0.662 8.52 3.12 12.11
11/6/2020 12:30:00 PM 12.52 54.536 0.662 8.53 3.16 12.18
11/6/2020 12:45:00 PM 12.62 54.716 0.66 8.53 2.6 12.25
11/6/2020 1:00:00 PM 12.71 54.878 0.66 8.52 3.38 12.32
11/6/2020 1:15:00 PM 12.79 55.022 0.659 8.53 2.59 12.35
11/6/2020 1:30:00 PM 12.87 55.166 0.659 8.53 2.27 12.39
11/6/2020 1:45:00 PM 12.92 55.256 0.659 8.54 6.03 12.42
11/6/2020 2:00:00 PM 12.96 55.328 0.659 8.54 2.78 12.41
11/6/2020 2:15:00 PM 12.98 55.364 0.659 8.55 2.52 12.43
11/6/2020 2:30:00 PM 13.01 55.418 0.658 8.56 3.04 12.42
11/6/2020 2:45:00 PM 13.01 55.418 0.659 8.56 10.13 12.39
11/6/2020 3:00:00 PM 13.01 55.418 0.659 8.57 3.38 12.34
11/6/2020 3:15:00 PM 13 55.4 0.66 8.58 2.67 12.26
11/6/2020 3:30:00 PM 12.98 55.364 0.661 8.57 2.42 12.15
11/6/2020 3:45:00 PM 12.95 55.31 0.662 8.57 2.41 12.02
11/6/2020 4:00:00 PM 12.9 55.22 0.662 8.57 2.38 11.85
11/6/2020 4:15:00 PM 12.86 55.148 0.662 8.56 2.48 11.66
11/6/2020 4:30:00 PM 12.81 55.058 0.662 8.55 2.36 11.45
11/6/2020 4:45:00 PM 12.77 54.986 0.663 8.54 2.56 11.24
11/6/2020 5:00:00 PM 12.73 54.914 0.663 8.53 2.92 11.05
11/6/2020 5:15:00 PM 12.69 54.842 0.663 8.52 2.83 10.86
11/6/2020 5:30:00 PM 12.65 54.77 0.663 8.51 4.1 10.68
11/6/2020 5:45:00 PM 12.61 54.698 0.663 8.5 3.48 10.52
11/6/2020 6:00:00 PM 12.57 54.626 0.663 8.49 2.23 10.39
11/6/2020 6:15:00 PM 12.53 54.554 0.663 8.48 2.84 10.28
11/6/2020 6:30:00 PM 12.49 54.482 0.663 8.47 2.93 10.2
11/6/2020 6:45:00 PM 12.45 54.41 0.661 8.47 6.41 10.14
11/6/2020 7:00:00 PM 12.39 54.302 0.66 8.46 4.15 10.07
11/6/2020 7:15:00 PM 12.33 54.194 0.659 8.46 3.87 10.01
11/6/2020 7:30:00 PM 12.28 54.104 0.659 8.46 3.46 9.96
11/6/2020 7:45:00 PM 12.22 53.996 0.659 8.45 3.93 9.91
11/6/2020 8:00:00 PM 12.17 53.906 0.658 8.45 3.77 9.85
11/6/2020 8:15:00 PM 12.12 53.816 0.658 8.44 3.89 9.82
11/6/2020 8:30:00 PM 12.08 53.744 0.658 8.44 3.57 9.76
11/6/2020 8:45:00 PM 12.03 53.654 0.658 8.44 5.57 9.73
11/6/2020 9:00:00 PM 11.98 53.564 0.658 8.43 3.9 9.68
11/6/2020 9:15:00 PM 11.94 53.492 0.658 8.43 3.34 9.65
11/6/2020 9:30:00 PM 11.89 53.402 0.658 8.43 3.37 9.62
11/6/2020 9:45:00 PM 11.85 53.33 0.658 8.43 3.21 9.58
11/6/2020 10:00:00 PM 11.81 53.258 0.658 8.43 2.58 9.55
11/6/2020 10:15:00 PM 11.77 53.186 0.658 8.42 3.86 9.52
11/6/2020 10:30:00 PM 11.73 53.114 0.658 8.42 3.65 9.49
11/6/2020 10:45:00 PM 11.7 53.06 0.658 8.42 3.5 9.47
11/6/2020 11:00:00 PM 11.66 52.988 0.658 8.42 3.56 9.46
11/6/2020 11:15:00 PM 11.63 52.934 0.658 8.42 3.8 9.43
11/6/2020 11:30:00 PM 11.6 52.88 0.658 8.41 3.31 9.43
11/6/2020 11:45:00 PM 11.57 52.826 0.658 8.41 3.51 9.4
11/7/2020 12:00:00 AM 11.54 52.772 0.658 8.4 3.45 9.4
11/7/2020 12:15:00 AM 11.5 52.7 0.658 8.4 7.08 9.39
11/7/2020 12:30:00 AM 11.47 52.646 0.658 8.4 4.64 9.38
11/7/2020 12:45:00 AM 11.44 52.592 0.658 8.4 3.87 9.36
11/7/2020 1:00:00 AM 11.41 52.538 0.658 8.4 2.85 9.35
11/7/2020 1:15:00 AM 11.38 52.484 0.657 8.4 2.66 9.34
11/7/2020 1:30:00 AM 11.35 52.43 0.657 8.4 3.15 9.33
11/7/2020 1:45:00 AM 11.32 52.376 0.657 8.4 2.59 9.32
11/7/2020 2:00:00 AM 11.29 52.322 0.658 8.4 3.37 9.31
11/7/2020 2:15:00 AM 11.26 52.268 0.658 8.4 3.84 9.3
11/7/2020 2:30:00 AM 11.24 52.232 0.659 8.4 7.29 9.29
11/7/2020 2:45:00 AM 11.22 52.196 0.659 8.39 3.74 9.29
11/7/2020 3:00:00 AM 11.19 52.142 0.659 8.39 3.97 9.27
11/7/2020 3:15:00 AM 11.16 52.088 0.659 8.39 3.76 9.26
11/7/2020 3:30:00 AM 11.14 52.052 0.66 8.39 3.2 9.26
11/7/2020 3:45:00 AM 11.11 51.998 0.576 8.39 4.38 9.26
11/7/2020 4:00:00 AM 11.09 51.962 0.514 8.39 3.28 9.25
11/7/2020 4:15:00 AM 11.06 51.908 0.559 8.38 3.72 9.24
11/7/2020 4:30:00 AM 11.03 51.854 0.625 8.38 5.08 9.24
11/7/2020 4:45:00 AM 11.01 51.818 0.661 8.38 3.17 9.25
11/7/2020 5:00:00 AM 10.98 51.764 0.662 8.38 4.19 9.23
11/7/2020 5:15:00 AM 10.95 51.71 0.662 8.38 3.46 9.24
11/7/2020 5:30:00 AM 10.92 51.656 0.662 8.38 3.65 9.26
11/7/2020 5:45:00 AM 10.89 51.602 0.662 8.38 4.03 9.26
11/7/2020 6:00:00 AM 10.86 51.548 0.663 8.38 3.53 9.27
11/7/2020 6:15:00 AM 10.83 51.494 0.663 8.38 4.47 9.27
11/7/2020 6:30:00 AM 10.8 51.44 0.663 8.37 2.98 9.28
11/7/2020 6:45:00 AM 10.77 51.386 0.663 8.37 3.36 9.3
11/7/2020 7:00:00 AM 10.73 51.314 0.663 8.38 3.37 9.32
11/7/2020 7:15:00 AM 10.7 51.26 0.663 8.38 4.69 9.35
11/7/2020 7:30:00 AM 10.67 51.206 0.663 8.38 3.87 9.42
11/7/2020 7:45:00 AM 10.65 51.17 0.663 8.38 4.93 9.51
11/7/2020 8:00:00 AM 10.63 51.134 0.663 8.39 2.99 9.6
11/7/2020 8:15:00 AM 10.62 51.116 0.663 8.4 2.94 9.73
11/7/2020 8:30:00 AM 10.63 51.134 0.663 8.4 2.55 9.87
11/7/2020 8:45:00 AM 10.66 51.188 0.663 8.41 2.76 10.04
11/7/2020 9:00:00 AM 10.7 51.26 0.663 8.41 2.75 10.23
11/7/2020 9:15:00 AM 10.77 51.386 0.663 8.42 3.49 10.45
11/7/2020 9:30:00 AM 10.85 51.53 0.663 8.43 3.24 10.66
11/7/2020 9:45:00 AM 10.96 51.728 0.663 8.44 3.22 10.87
11/7/2020 10:00:00 AM 11.07 51.926 0.662 8.45 3.12 11.09
11/7/2020 10:15:00 AM 11.19 52.142 0.662 8.46 3.66 11.3
11/7/2020 10:30:00 AM 11.32 52.376 0.662 8.47 2.73 11.51
11/7/2020 10:45:00 AM 11.46 52.628 0.662 8.47 2.96 11.69
11/7/2020 11:00:00 AM 11.6 52.88 0.662 8.48 2.43 11.85
11/7/2020 11:15:00 AM 11.75 53.15 0.661 8.49 2.51 12
11/7/2020 11:30:00 AM 11.91 53.438 0.661 8.49 3.04 12.16
11/7/2020 11:45:00 AM 12.05 53.69 0.661 8.5 2.48 12.3
11/7/2020 12:00:00 PM 12.19 53.942 0.66 8.51 2.78 12.41
11/7/2020 12:15:00 PM 12.32 54.176 0.66 8.51 2.5 12.51
11/7/2020 12:30:00 PM 12.43 54.374 0.66 8.52 2.84 12.59
11/7/2020 12:45:00 PM 12.54 54.572 0.66 8.52 2.94 12.65
11/7/2020 1:00:00 PM 12.63 54.734 0.659 8.53 3.1 12.69
11/7/2020 1:15:00 PM 12.7 54.86 0.66 8.53 2.63 12.73
11/7/2020 1:30:00 PM 12.77 54.986 0.66 8.54 2.64 12.77
11/7/2020 1:45:00 PM 12.82 55.076 0.659 8.54 2.53 12.79
11/7/2020 2:00:00 PM 12.86 55.148 0.659 8.54 2.31 12.77
11/7/2020 2:15:00 PM 12.89 55.202 0.658 8.55 2.45 12.74
11/7/2020 2:30:00 PM 12.9 55.22 0.658 8.56 3.24 12.7
11/7/2020 2:45:00 PM 12.9 55.22 0.658 8.57 2.42 12.64
11/7/2020 3:00:00 PM 12.89 55.202 0.659 8.57 2.39 12.55
11/7/2020 3:15:00 PM 12.87 55.166 0.659 8.57 11.25 12.47
11/7/2020 3:30:00 PM 12.84 55.112 0.659 8.57 2.15 12.34
11/7/2020 3:45:00 PM 12.81 55.058 0.659 8.57 2.44 12.2
11/7/2020 4:00:00 PM 12.76 54.968 0.661 8.57 2.13 12.04
11/7/2020 4:15:00 PM 12.7 54.86 0.661 8.56 1.91 11.81
11/7/2020 4:30:00 PM 12.64 54.752 0.661 8.55 3.36 11.59
11/7/2020 4:45:00 PM 12.59 54.662 0.661 8.54 2.89 11.39
11/7/2020 5:00:00 PM 12.54 54.572 0.662 8.53 2.03 11.19
11/7/2020 5:15:00 PM 12.5 54.5 0.663 8.52 2.68 11.01
11/7/2020 5:30:00 PM 12.46 54.428 0.664 8.51 3.24 10.81
11/7/2020 5:45:00 PM 12.42 54.356 0.664 8.49 2.46 10.66
11/7/2020 6:00:00 PM 12.38 54.284 0.665 8.48 3.61 10.52
11/7/2020 6:15:00 PM 12.34 54.212 0.665 8.47 5.19 10.44
11/7/2020 6:30:00 PM 12.31 54.158 0.666 8.46 2.52 10.33
11/7/2020 6:45:00 PM 12.28 54.104 0.666 8.45 3.17 10.26
11/7/2020 7:00:00 PM 12.25 54.05 0.666 8.45 3.67 10.18
11/7/2020 7:15:00 PM 12.22 53.996 0.666 8.44 3.28 10.12
11/7/2020 7:30:00 PM 12.18 53.924 0.666 8.44 3.56 10.05
11/7/2020 7:45:00 PM 12.14 53.852 0.666 8.43 2.56 9.99
11/7/2020 8:00:00 PM 12.09 53.762 0.665 8.43 3.32 9.94
11/7/2020 8:15:00 PM 12.04 53.672 0.665 8.42 3.48 9.89
11/7/2020 8:30:00 PM 12 53.6 0.665 8.42 2.68 9.83
11/7/2020 8:45:00 PM 11.96 53.528 0.664 8.42 3.47 9.79
11/7/2020 9:00:00 PM 11.91 53.438 0.665 8.42 2.44 9.75
11/7/2020 9:15:00 PM 11.87 53.366 0.665 8.41 3.53 9.7
11/7/2020 9:30:00 PM 11.83 53.294 0.664 8.41 2.88 9.66
11/7/2020 9:45:00 PM 11.78 53.204 0.664 8.4 3.84 9.63
11/7/2020 10:00:00 PM 11.74 53.132 0.664 8.4 3.7 9.59
11/7/2020 10:15:00 PM 11.7 53.06 0.664 8.4 2.99 9.57
11/7/2020 10:30:00 PM 11.66 52.988 0.664 8.4 3.41 9.55
11/7/2020 10:45:00 PM 11.62 52.916 0.664 8.39 5.01 9.51
11/7/2020 11:00:00 PM 11.58 52.844 0.664 8.39 3.81 9.5
11/7/2020 11:15:00 PM 11.55 52.79 0.664 8.39 4.46 9.48
11/7/2020 11:30:00 PM 11.51 52.718 0.664 8.39 4.56 9.44
11/7/2020 11:45:00 PM 11.47 52.646 0.664 8.39 3.15 9.41
11/8/2020 12:00:00 AM 11.43 52.574 0.663 8.39 3.15 9.4
11/8/2020 12:15:00 AM 11.41 52.538 0.665 8.39 3.48 9.36
11/8/2020 12:30:00 AM 11.38 52.484 0.666 8.38 3.22 9.3
11/8/2020 12:45:00 AM 11.36 52.448 0.667 8.38 2.32 9.27
11/8/2020 1:00:00 AM 11.34 52.412 0.669 8.37 3.16 9.23
11/8/2020 1:15:00 AM 11.32 52.376 0.669 8.37 2.28 9.19
11/8/2020 1:30:00 AM 11.3 52.34 0.669 8.37 3.09 9.16
11/8/2020 1:45:00 AM 11.27 52.286 0.633 8.37 2.51 9.14
11/8/2020 2:00:00 AM 11.25 52.25 0.671 8.37 7.69 9.11
11/8/2020 2:15:00 AM 11.21 52.178 0.671 8.36 3.33 9.1
11/8/2020 2:30:00 AM 11.18 52.124 0.671 8.37 3.79 9.08
11/8/2020 2:45:00 AM 11.15 52.07 0.672 8.37 2.55 9.08
11/8/2020 3:00:00 AM 11.12 52.016 0.673 8.38 4.33 9.06
11/8/2020 3:15:00 AM 11.09 51.962 0.673 8.37 4.06 9.05
11/8/2020 3:30:00 AM 11.06 51.908 0.674 8.38 4.49 9.04
11/8/2020 3:45:00 AM 11.02 51.836 0.675 8.37 3.5 9.04
11/8/2020 4:00:00 AM 10.99 51.782 0.676 8.36 3.42 9.03
11/8/2020 4:15:00 AM 10.96 51.728 0.677 8.36 3.51 9.02
11/8/2020 4:30:00 AM 10.93 51.674 0.677 8.36 3.63 9.01
11/8/2020 4:45:00 AM 10.91 51.638 0.678 8.36 4.92 9
11/8/2020 5:00:00 AM 10.88 51.584 0.678 8.36 3.98 9
11/8/2020 5:15:00 AM 10.85 51.53 0.679 8.36 3.7 8.99
11/8/2020 5:30:00 AM 10.82 51.476 0.68 8.36 4.09 8.99
11/8/2020 5:45:00 AM 10.78 51.404 0.68 8.36 3.24 8.99
11/8/2020 6:00:00 AM 10.75 51.35 0.68 8.36 3.55 8.98
11/8/2020 6:15:00 AM 10.72 51.296 0.681 8.36 3.03 8.99
11/8/2020 6:30:00 AM 10.69 51.242 0.682 8.36 6.19 9
11/8/2020 6:45:00 AM 10.65 51.17 0.681 8.35 2.88 9
11/8/2020 7:00:00 AM 10.62 51.116 0.682 8.35 3.21 9.03
11/8/2020 7:15:00 AM 10.58 51.044 0.683 8.35 3.8 9.05
11/8/2020 7:30:00 AM 10.55 50.99 0.683 8.36 2.61 9.12
11/8/2020 7:45:00 AM 10.53 50.954 0.683 8.36 3.15 9.19
11/8/2020 8:00:00 AM 10.51 50.918 0.683 8.37 3.83 9.31
11/8/2020 8:15:00 AM 10.5 50.9 0.684 8.37 3.41 9.43
11/8/2020 8:30:00 AM 10.5 50.9 0.683 8.38 3.59 9.56
11/8/2020 8:45:00 AM 10.51 50.918 0.683 8.38 3.3 9.73
11/8/2020 9:00:00 AM 10.54 50.972 0.683 8.39 3.84 9.93
11/8/2020 9:15:00 AM 10.6 51.08 0.683 8.4 3.21 10.17
11/8/2020 9:30:00 AM 10.68 51.224 0.682 8.41 2.65 10.41
11/8/2020 9:45:00 AM 10.78 51.404 0.682 8.42 3.25 10.68
11/8/2020 10:00:00 AM 10.89 51.602 0.682 8.43 3.93 10.93
11/8/2020 10:15:00 AM 11.01 51.818 0.682 8.45 3.01 11.17
11/8/2020 10:30:00 AM 11.13 52.034 0.681 8.46 3.45 11.4
11/8/2020 10:45:00 AM 11.27 52.286 0.682 8.47 2.8 11.63
11/8/2020 11:00:00 AM 11.42 52.556 0.681 8.48 2.55 11.84
11/8/2020 11:15:00 AM 11.57 52.826 0.681 8.49 2.52 12.05
11/8/2020 11:30:00 AM 11.73 53.114 0.681 8.5 2.83 12.24
11/8/2020 11:45:00 AM 11.89 53.402 0.681 8.51 2.53 12.41
11/8/2020 12:00:00 PM 12.04 53.672 0.68 8.51 2.23 12.56
11/8/2020 12:15:00 PM 12.19 53.942 0.68 8.52 3.78 12.69
11/8/2020 12:30:00 PM 12.32 54.176 0.679 8.53 3.12 12.78
11/8/2020 12:45:00 PM 12.43 54.374 0.679 8.54 4.27 12.81
11/8/2020 1:00:00 PM 12.53 54.554 0.679 8.53 2.21 12.86
11/8/2020 1:15:00 PM 12.61 54.698 0.678 8.53 2.24 12.87
11/8/2020 1:30:00 PM 12.68 54.824 0.678 8.54 4.21 12.87
11/8/2020 1:45:00 PM 12.75 54.95 0.678 8.55 5.36 12.87
11/8/2020 2:00:00 PM 12.79 55.022 0.677 8.55 4.34 12.84
11/8/2020 2:15:00 PM 12.79 55.022 0.673 8.55 2.48 12.83
11/8/2020 2:30:00 PM 12.8 55.04 0.67 8.56 3.43 12.81
11/8/2020 2:45:00 PM 12.8 55.04 0.667 8.56 3.27 12.77
11/8/2020 3:00:00 PM 12.8 55.04 0.665 8.57 3.12 12.72
11/8/2020 3:15:00 PM 12.78 55.004 0.664 8.58 2.46 12.62
11/8/2020 3:30:00 PM 12.75 54.95 0.663 8.58 3.21 12.49
11/8/2020 3:45:00 PM 12.71 54.878 0.663 8.59 2.39 12.31
11/8/2020 4:00:00 PM 12.66 54.788 0.664 8.58 4.36 12.12
11/8/2020 4:15:00 PM 12.61 54.698 0.664 8.56 4.91 11.89
11/8/2020 4:30:00 PM 12.56 54.608 0.664 8.55 3.21 11.66
11/8/2020 4:45:00 PM 12.51 54.518 0.664 8.54 2.64 11.43
11/8/2020 5:00:00 PM 12.47 54.446 0.664 8.52 2.54 11.22
11/8/2020 5:15:00 PM 12.43 54.374 0.665 8.51 2.81 11.02
11/8/2020 5:30:00 PM 12.38 54.284 0.665 8.5 2.98 10.82
11/8/2020 5:45:00 PM 12.34 54.212 0.665 8.49 2.42 10.65
11/8/2020 6:00:00 PM 12.3 54.14 0.666 8.48 2.3 10.51
11/8/2020 6:15:00 PM 12.27 54.086 0.666 8.47 2.83 10.4
11/8/2020 6:30:00 PM 12.24 54.032 0.666 8.46 2.95 10.29
11/8/2020 6:45:00 PM 12.22 53.996 0.667 8.45 5.22 10.22
11/8/2020 7:00:00 PM 12.19 53.942 0.667 8.44 3.07 10.15
11/8/2020 7:15:00 PM 12.15 53.87 0.667 8.44 3.51 10.07
11/8/2020 7:30:00 PM 12.12 53.816 0.667 8.43 3.99 10.01
11/8/2020 7:45:00 PM 12.08 53.744 0.667 8.43 5.24 9.95
11/8/2020 8:00:00 PM 12.04 53.672 0.666 8.43 3.27 9.88
11/8/2020 8:15:00 PM 12 53.6 0.666 8.42 5.71 9.83
11/8/2020 8:30:00 PM 11.96 53.528 0.666 8.42 4.2 9.78
11/8/2020 8:45:00 PM 11.93 53.474 0.665 8.42 4.37 9.73
11/8/2020 9:00:00 PM 11.89 53.402 0.665 8.42 3.12 9.7
11/8/2020 9:15:00 PM 11.85 53.33 0.665 8.41 2.95 9.63
11/8/2020 9:30:00 PM 11.81 53.258 0.665 8.41 2.57 9.61
11/8/2020 9:45:00 PM 11.77 53.186 0.665 8.4 3.8 9.58
11/8/2020 10:00:00 PM 11.73 53.114 0.664 8.41 4.5 9.55
11/8/2020 10:15:00 PM 11.7 53.06 0.664 8.41 4.37 9.53
11/8/2020 10:30:00 PM 11.67 53.006 0.665 8.41 3.04 9.51
11/8/2020 10:45:00 PM 11.64 52.952 0.664 8.41 3.63 9.49
11/8/2020 11:00:00 PM 11.61 52.898 0.664 8.41 4.93 9.48
11/8/2020 11:15:00 PM 11.58 52.844 0.664 8.4 2.59 9.45
11/8/2020 11:30:00 PM 11.54 52.772 0.664 8.4 7.05 9.44
11/8/2020 11:45:00 PM 11.51 52.718 0.664 8.4 4.09 9.43
11/9/2020 12:00:00 AM 11.49 52.682 0.664 8.4 3.53 9.41
11/9/2020 12:15:00 AM 11.46 52.628 0.664 8.4 5.13 9.39
11/9/2020 12:30:00 AM 11.44 52.592 0.664 8.4 3.95 9.38
11/9/2020 12:45:00 AM 11.42 52.556 0.664 8.4 6.64 9.36
11/9/2020 1:00:00 AM 11.39 52.502 0.664 8.4 5.75 9.35
11/9/2020 1:15:00 AM 11.37 52.466 0.663 8.4 3.76 9.32
11/9/2020 1:30:00 AM 11.34 52.412 0.663 8.4 3.47 9.32
11/9/2020 1:45:00 AM 11.31 52.358 0.663 8.4 4.16 9.3
11/9/2020 2:00:00 AM 11.28 52.304 0.663 8.4 3.62 9.29
11/9/2020 2:15:00 AM 11.26 52.268 0.663 8.4 4.61 9.29
11/9/2020 2:30:00 AM 11.24 52.232 0.663 8.4 4.71 9.27
11/9/2020 2:45:00 AM 11.22 52.196 0.663 8.4 8.51 9.27
11/9/2020 3:00:00 AM 11.2 52.16 0.663 8.4 4.21 9.25
11/9/2020 3:15:00 AM 11.18 52.124 0.663 8.4 3.4 9.26
11/9/2020 3:30:00 AM 11.16 52.088 0.663 8.39 4.06 9.23
11/9/2020 3:45:00 AM 11.13 52.034 0.663 8.4 3.91 9.23
11/9/2020 4:00:00 AM 11.11 51.998 0.662 8.4 2.97 9.21
11/9/2020 4:15:00 AM 11.1 51.98 0.663 8.4 5.75 9.21
11/9/2020 4:30:00 AM 11.08 51.944 0.664 8.39 4.7 9.2
11/9/2020 4:45:00 AM 11.06 51.908 0.664 8.38 5.49 9.19
11/9/2020 5:00:00 AM 11.05 51.89 0.664 8.38 4.14 9.19
11/9/2020 5:15:00 AM 11.03 51.854 0.665 8.38 4.15 9.18
11/9/2020 5:30:00 AM 11 51.8 0.665 8.38 3.95 9.18
11/9/2020 5:45:00 AM 10.98 51.764 0.666 8.38 4.37 9.17
11/9/2020 6:00:00 AM 10.96 51.728 0.666 8.38 3.72 9.17
11/9/2020 6:15:00 AM 10.93 51.674 0.666 8.38 3.9 9.18
11/9/2020 6:30:00 AM 10.91 51.638 0.666 8.38 5.1 9.18
11/9/2020 6:45:00 AM 10.89 51.602 0.667 8.38 3.96 9.18
11/9/2020 7:00:00 AM 10.87 51.566 0.667 8.37 5.36 9.2
11/9/2020 7:15:00 AM 10.84 51.512 0.667 8.37 3.78 9.24
11/9/2020 7:30:00 AM 10.82 51.476 0.667 8.38 4.5 9.3
11/9/2020 7:45:00 AM 10.8 51.44 0.668 8.37 3.46 9.38
11/9/2020 8:00:00 AM 10.79 51.422 0.668 8.38 3.61 9.48
11/9/2020 8:15:00 AM 10.79 51.422 0.667 8.38 2.88 9.6
11/9/2020 8:30:00 AM 10.79 51.422 0.668 8.39 2.99 9.76
11/9/2020 8:45:00 AM 10.81 51.458 0.668 8.39 2.59 9.94
11/9/2020 9:00:00 AM 10.86 51.548 0.667 8.4 3.6 10.15
11/9/2020 9:15:00 AM 10.92 51.656 0.667 8.4 3.57 10.37
11/9/2020 9:30:00 AM 11.01 51.818 0.667 8.42 2.46 10.62
11/9/2020 9:45:00 AM 11.1 51.98 0.666 8.42 17.2 10.87
11/9/2020 10:00:00 AM 11.21 52.178 0.666 8.44 3.27 11.11
11/9/2020 10:15:00 AM 11.33 52.394 0.665 8.44 3.64 11.35
11/9/2020 10:30:00 AM 11.45 52.61 0.665 8.46 2.91 11.58
11/9/2020 10:45:00 AM 11.58 52.844 0.665 8.47 3.08 11.79
11/9/2020 11:00:00 AM 11.73 53.114 0.664 8.48 3.32 12
11/9/2020 11:15:00 AM 11.88 53.384 0.663 8.49 3.55 12.2
11/9/2020 11:30:00 AM 12.04 53.672 0.663 8.51 3.18 12.37
11/9/2020 11:45:00 AM 12.19 53.942 0.663 8.53 2.88 12.52
11/9/2020 12:00:00 PM 12.34 54.212 0.662 8.53 2.14 12.65
11/9/2020 12:15:00 PM 12.48 54.464 0.662 8.54 2.86 12.76
11/9/2020 12:30:00 PM 12.6 54.68 0.661 8.55 2.78 12.85
11/9/2020 12:45:00 PM 12.71 54.878 0.661 8.56 3.33 12.93
11/9/2020 1:00:00 PM 12.81 55.058 0.661 8.56 2.75 12.99
11/9/2020 1:15:00 PM 12.91 55.238 0.66 8.56 2.31 13.06
11/9/2020 1:30:00 PM 13 55.4 0.66 8.57 2.65 13.11
11/9/2020 1:45:00 PM 13.06 55.508 0.66 8.57 2.65 13.11
11/9/2020 2:00:00 PM 13.1 55.58 0.66 8.58 2.77 13.08
11/9/2020 2:15:00 PM 13.13 55.634 0.66 8.58 3.16 13.04
11/9/2020 2:30:00 PM 13.14 55.652 0.66 8.58 4.57 12.98
11/9/2020 2:45:00 PM 13.14 55.652 0.661 8.58 2.23 12.91
11/9/2020 3:00:00 PM 13.13 55.634 0.661 8.59 2.33 12.82
11/9/2020 3:15:00 PM 13.13 55.634 0.661 8.6 2.45 12.7
11/9/2020 3:30:00 PM 13.11 55.598 0.662 8.59 2.42 12.56
11/9/2020 3:45:00 PM 13.08 55.544 0.662 8.58 2.73 12.36
11/9/2020 4:00:00 PM 13.04 55.472 0.662 8.57 2.5 12.15
11/9/2020 4:15:00 PM 12.99 55.382 0.663 8.56 2.66 11.9
11/9/2020 4:30:00 PM 12.95 55.31 0.664 8.55 2.33 11.61
11/9/2020 4:45:00 PM 12.9 55.22 0.664 8.54 2.4 11.36
11/9/2020 5:00:00 PM 12.85 55.13 0.664 8.52 1.91 11.12
11/9/2020 5:15:00 PM 12.81 55.058 0.665 8.5 4.27 10.89
11/9/2020 5:30:00 PM 12.78 55.004 0.665 8.49 2.53 10.66
11/9/2020 5:45:00 PM 12.75 54.95 0.665 8.47 3.2 10.48
11/9/2020 6:00:00 PM 12.73 54.914 0.665 8.46 2.82 10.33
11/9/2020 6:15:00 PM 12.71 54.878 0.665 8.45 3.24 10.21
11/9/2020 6:30:00 PM 12.69 54.842 0.664 8.44 3.29 10.11
11/9/2020 6:45:00 PM 12.67 54.806 0.665 8.44 2.57 10.02
11/9/2020 7:00:00 PM 12.65 54.77 0.664 8.43 7.15 9.95
11/9/2020 7:15:00 PM 12.62 54.716 0.664 8.42 4.37 9.87
11/9/2020 7:30:00 PM 12.59 54.662 0.664 8.41 4.56 9.81
11/9/2020 7:45:00 PM 12.56 54.608 0.664 8.4 4.79 9.75
11/9/2020 8:00:00 PM 12.53 54.554 0.664 8.39 3.36 9.69
11/9/2020 8:15:00 PM 12.51 54.518 0.663 8.39 3.83 9.65
11/9/2020 8:30:00 PM 12.48 54.464 0.663 8.38 3.62 9.59
11/9/2020 8:45:00 PM 12.45 54.41 0.663 8.4 5.51 9.54
11/9/2020 9:00:00 PM 12.41 54.338 0.662 8.38 3.35 9.51
11/9/2020 9:15:00 PM 12.38 54.284 0.662 8.38 9.12 9.46
11/9/2020 9:30:00 PM 12.34 54.212 0.662 8.37 5.53 9.42
11/9/2020 9:45:00 PM 12.31 54.158 0.662 8.37 5.1 9.38
11/9/2020 10:00:00 PM 12.28 54.104 0.661 8.37 6.67 9.36
11/9/2020 10:15:00 PM 12.25 54.05 0.661 8.37 4.34 9.32
11/9/2020 10:30:00 PM 12.22 53.996 0.661 8.37 6.18 9.31
11/9/2020 10:45:00 PM 12.19 53.942 0.66 8.37 10.98 9.3
11/9/2020 11:00:00 PM 12.16 53.888 0.66 8.36 3.49 9.28
11/9/2020 11:15:00 PM 12.13 53.834 0.66 8.36 3.27 9.25
11/9/2020 11:30:00 PM 12.11 53.798 0.66 8.35 4.49 9.24
11/9/2020 11:45:00 PM 12.08 53.744 0.66 8.35 4.77 9.23
11/10/2020 12:00:00 AM 12.05 53.69 0.66 8.35 5.61 9.21
11/10/2020 12:15:00 AM 12.03 53.654 0.66 8.36 4.85 9.19
11/10/2020 12:30:00 AM 12.01 53.618 0.66 8.35 3.92 9.17
11/10/2020 12:45:00 AM 11.99 53.582 0.66 8.34 3.81 9.16
11/10/2020 1:00:00 AM 11.97 53.546 0.659 8.34 4 9.14
11/10/2020 1:15:00 AM 11.95 53.51 0.66 8.34 3.44 9.12
11/10/2020 1:30:00 AM 11.94 53.492 0.66 8.34 4.44 9.11
11/10/2020 1:45:00 AM 11.92 53.456 0.66 8.34 3.53 9.09
11/10/2020 2:00:00 AM 11.91 53.438 0.659 8.34 5.27 9.08
11/10/2020 2:15:00 AM 11.89 53.402 0.659 8.34 7.39 9.08
11/10/2020 2:30:00 AM 11.87 53.366 0.659 8.34 4.72 9.06
11/10/2020 2:45:00 AM 11.86 53.348 0.659 8.34 4.51 9.05
11/10/2020 3:00:00 AM 11.84 53.312 0.659 8.33 8.42 9.04
11/10/2020 3:15:00 AM 11.84 53.312 0.66 8.33 4.54 9.03
11/10/2020 3:30:00 AM 11.83 53.294 0.66 8.34 7.35 9.01
11/10/2020 3:45:00 AM 11.82 53.276 0.661 8.34 5.87 9
11/10/2020 4:00:00 AM 11.82 53.276 0.661 8.33 5.36 8.96
11/10/2020 4:15:00 AM 11.81 53.258 0.661 8.32 4.04 8.96
11/10/2020 4:30:00 AM 11.8 53.24 0.661 8.32 5.95 8.95
11/10/2020 4:45:00 AM 11.78 53.204 0.661 8.32 6.13 8.94
11/10/2020 5:00:00 AM 11.77 53.186 0.661 8.31 6.47 8.93
11/10/2020 5:15:00 AM 11.75 53.15 0.661 8.32 4.86 8.93
11/10/2020 5:30:00 AM 11.72 53.096 0.661 8.32 9.27 8.92
11/10/2020 5:45:00 AM 11.7 53.06 0.661 8.32 6.37 8.91
11/10/2020 6:00:00 AM 11.67 53.006 0.662 8.33 4.74 8.93
11/10/2020 6:15:00 AM 11.64 52.952 0.662 8.33 5.21 8.92
11/10/2020 6:30:00 AM 11.62 52.916 0.662 8.33 4.69 8.93
11/10/2020 6:45:00 AM 11.6 52.88 0.662 8.34 4.41 8.94
11/10/2020 7:00:00 AM 11.58 52.844 0.662 8.34 4.09 8.95
11/10/2020 7:15:00 AM 11.56 52.808 0.662 8.34 3.66 8.98
11/10/2020 7:30:00 AM 11.54 52.772 0.662 8.34 4.58 9.06
11/10/2020 7:45:00 AM 11.54 52.772 0.661 8.34 5.48 9.16
11/10/2020 8:00:00 AM 11.55 52.79 0.661 8.34 3.48 9.32
11/10/2020 8:15:00 AM 11.56 52.808 0.661 8.35 4.56 9.5
11/10/2020 8:30:00 AM 11.59 52.862 0.661 8.37 4 9.7
11/10/2020 8:45:00 AM 11.63 52.934 0.66 8.38 3 9.95
11/10/2020 9:00:00 AM 11.66 52.988 0.66 8.39 2.91 10.17
11/10/2020 9:15:00 AM 11.69 53.042 0.66 8.41 2.71 10.37
11/10/2020 9:30:00 AM 11.73 53.114 0.66 8.45 3.29 10.57
11/10/2020 9:45:00 AM 11.78 53.204 0.659 8.47 3.77 10.79
11/10/2020 10:00:00 AM 11.86 53.348 0.659 8.48 4.01 11.05
11/10/2020 10:15:00 AM 11.97 53.546 0.658 8.48 5.25 11.31
11/10/2020 10:30:00 AM 12.08 53.744 0.658 8.49 4.47 11.55
11/10/2020 10:45:00 AM 12.21 53.978 0.658 8.5 3.57 11.79
11/10/2020 11:00:00 AM 12.35 54.23 0.657 8.52 8.72 12.02
11/10/2020 11:15:00 AM 12.49 54.482 0.657 8.53 3.35 12.24
11/10/2020 11:30:00 AM 12.65 54.77 0.656 8.54 2.25 12.44
11/10/2020 11:45:00 AM 12.79 55.022 0.656 8.55 2.37 12.6
11/10/2020 12:00:00 PM 12.93 55.274 0.655 8.57 2.55 12.74
11/10/2020 12:15:00 PM 13.08 55.544 0.655 8.57 3.2 12.88
11/10/2020 12:30:00 PM 13.18 55.724 0.654 8.58 2.68 12.96
11/10/2020 12:45:00 PM 13.26 55.868 0.654 8.58 3.18 12.98
11/10/2020 1:00:00 PM 13.37 56.066 0.654 8.59 2.86 13.04
11/10/2020 1:15:00 PM 13.45 56.21 0.654 8.59 3.25 13.11
11/10/2020 1:30:00 PM 13.51 56.318 0.653 8.6 2.66 13.11
11/10/2020 1:45:00 PM 13.57 56.426 0.653 8.6 3.62 13.1
11/10/2020 2:00:00 PM 13.62 56.516 0.653 8.6 7.14 13.13
11/10/2020 2:15:00 PM 13.62 56.516 0.654 8.6 3.38 13.01
11/10/2020 2:30:00 PM 13.59 56.462 0.654 8.6 2.62 12.83
11/10/2020 2:45:00 PM 13.59 56.462 0.654 8.6 2.37 12.78
11/10/2020 3:00:00 PM 13.59 56.462 0.654 8.6 2.76 12.69
11/10/2020 3:15:00 PM 13.58 56.444 0.654 8.6 3.09 12.58
11/10/2020 3:30:00 PM 13.6 56.48 0.654 8.59 10.29 12.48
11/10/2020 3:45:00 PM 13.64 56.552 0.654 8.59 2.03 12.39
11/10/2020 4:00:00 PM 13.68 56.624 0.654 8.59 2.47 12.37
11/10/2020 4:15:00 PM 13.67 56.606 0.654 8.58 2.61 12.19
11/10/2020 4:30:00 PM 13.66 56.588 0.655 8.57 5.54 11.95
11/10/2020 4:45:00 PM 13.64 56.552 0.655 8.56 2.68 11.74
11/10/2020 5:00:00 PM 13.64 56.552 0.657 8.54 4.36 11.47
11/10/2020 5:15:00 PM 13.66 56.588 0.659 8.52 3.2 11.21
11/10/2020 5:30:00 PM 13.69 56.642 0.661 8.5 2.62 10.96
11/10/2020 5:45:00 PM 13.7 56.66 0.661 8.48 3.49 10.72
11/10/2020 6:00:00 PM 13.69 56.642 0.661 8.47 4.56 10.53
11/10/2020 6:15:00 PM 13.66 56.588 0.66 8.46 3.98 10.37
11/10/2020 6:30:00 PM 13.61 56.498 0.66 8.45 5.21 10.24
11/10/2020 6:45:00 PM 13.57 56.426 0.66 8.43 5.31 10.12
11/10/2020 7:00:00 PM 13.52 56.336 0.66 8.42 7.4 10.03
11/10/2020 7:15:00 PM 13.46 56.228 0.659 8.41 8.54 9.97
11/10/2020 7:30:00 PM 13.37 56.066 0.657 8.4 7.23 9.93
11/10/2020 7:45:00 PM 13.26 55.868 0.655 8.4 7.37 9.9
11/10/2020 8:00:00 PM 13.17 55.706 0.654 8.39 24.87 9.9
11/10/2020 8:15:00 PM 13.11 55.598 0.653 8.39 7.12 9.87
11/10/2020 8:30:00 PM 13.06 55.508 0.652 8.39 7.65 9.83
11/10/2020 8:45:00 PM 13.03 55.454 0.652 8.38 8.23 9.8
11/10/2020 9:00:00 PM 12.99 55.382 0.652 8.38 7.15 9.76
11/10/2020 9:15:00 PM 12.96 55.328 0.652 8.38 5.55 9.71
11/10/2020 9:30:00 PM 12.92 55.256 0.652 8.37 5.37 9.67
11/10/2020 9:45:00 PM 12.88 55.184 0.652 8.36 6.46 9.65
11/10/2020 10:00:00 PM 12.85 55.13 0.652 8.36 6.44 9.61
11/10/2020 10:15:00 PM 12.82 55.076 0.652 8.36 6.76 9.57
11/10/2020 10:30:00 PM 12.78 55.004 0.652 8.35 6.58 9.56
11/10/2020 10:45:00 PM 12.75 54.95 0.652 8.35 9.08 9.54
11/10/2020 11:00:00 PM 12.72 54.896 0.652 8.35 6.79 9.51
11/10/2020 11:15:00 PM 12.7 54.86 0.652 8.34 7.39 9.49
11/10/2020 11:30:00 PM 12.68 54.824 0.652 8.34 6.04 9.46
11/10/2020 11:45:00 PM 12.66 54.788 0.653 8.34 8.38 9.44
11/11/2020 12:00:00 AM 12.64 54.752 0.653 8.34 8.72 9.42
11/11/2020 12:15:00 AM 12.62 54.716 0.653 8.34 5.32 9.41
11/11/2020 12:30:00 AM 12.59 54.662 0.653 8.34 6.95 9.38
11/11/2020 12:45:00 AM 12.57 54.626 0.653 8.33 6.41 9.37
11/11/2020 1:00:00 AM 12.55 54.59 0.653 8.34 8.94 9.36
11/11/2020 1:15:00 AM 12.53 54.554 0.653 8.34 14.17 9.34
11/11/2020 1:30:00 AM 12.51 54.518 0.653 8.34 7.51 9.33
11/11/2020 1:45:00 AM 12.5 54.5 0.653 8.33 5.98 9.31
11/11/2020 2:00:00 AM 12.49 54.482 0.653 8.34 6.13 9.29
11/11/2020 2:15:00 AM 12.47 54.446 0.654 8.33 6.02 9.28
11/11/2020 2:30:00 AM 12.46 54.428 0.654 8.33 8.24 9.28
11/11/2020 2:45:00 AM 12.45 54.41 0.654 8.33 5.84 9.26
11/11/2020 3:00:00 AM 12.44 54.392 0.654 8.33 6 9.24
11/11/2020 3:15:00 AM 12.43 54.374 0.654 8.32 6.3 9.23
11/11/2020 3:30:00 AM 12.42 54.356 0.654 8.31 12.32 9.22
11/11/2020 3:45:00 AM 12.41 54.338 0.654 8.32 7 9.22
11/11/2020 4:00:00 AM 12.4 54.32 0.654 8.32 5.77 9.22
11/11/2020 4:15:00 AM 12.4 54.32 0.654 8.32 7.8 9.22
11/11/2020 4:30:00 AM 12.42 54.356 0.654 8.31 9.16 9.22
11/11/2020 4:45:00 AM 12.43 54.374 0.655 8.31 7.58 9.2
11/11/2020 5:00:00 AM 12.45 54.41 0.655 8.31 6.18 9.2
11/11/2020 5:15:00 AM 12.47 54.446 0.655 8.3 6.74 9.19
11/11/2020 5:30:00 AM 12.49 54.482 0.655 8.3 7.95 9.19
11/11/2020 5:45:00 AM 12.51 54.518 0.655 8.31 11.3 9.19
11/11/2020 6:00:00 AM 12.52 54.536 0.655 8.31 8.38 9.19
11/11/2020 6:15:00 AM 12.54 54.572 0.656 8.31 6.95 9.18
11/11/2020 6:30:00 AM 12.55 54.59 0.656 8.3 7.86 9.18
11/11/2020 6:45:00 AM 12.57 54.626 0.656 8.3 4.45 9.16
11/11/2020 7:00:00 AM 12.59 54.662 0.656 8.29 5.76 9.16
11/11/2020 7:15:00 AM 12.61 54.698 0.656 8.29 4.75 9.17
11/11/2020 7:30:00 AM 12.63 54.734 0.656 8.29 5.73 9.2
11/11/2020 7:45:00 AM 12.66 54.788 0.656 8.29 3.93 9.26
11/11/2020 8:00:00 AM 12.68 54.824 0.656 8.29 3.79 9.32
11/11/2020 8:15:00 AM 12.7 54.86 0.656 8.29 3.59 9.36
11/11/2020 8:30:00 AM 12.72 54.896 0.656 8.29 4.04 9.4
11/11/2020 8:45:00 AM 12.74 54.932 0.655 8.29 4.69 9.44
11/11/2020 9:00:00 AM 12.76 54.968 0.655 8.3 5.42 9.48
11/11/2020 9:15:00 AM 12.79 55.022 0.655 8.31 3.5 9.54
11/11/2020 9:30:00 AM 12.82 55.076 0.654 8.31 2.72 9.6
11/11/2020 9:45:00 AM 12.85 55.13 0.654 8.32 2.53 9.67
11/11/2020 10:00:00 AM 12.88 55.184 0.653 8.32 10.49 9.72
11/11/2020 10:15:00 AM 12.9 55.22 0.653 8.32 3.34 9.78
11/11/2020 10:30:00 AM 12.92 55.256 0.652 8.33 2.68 9.82
11/11/2020 10:45:00 AM 12.95 55.31 0.651 8.34 2.22 9.9
11/11/2020 11:00:00 AM 12.97 55.346 0.651 8.35 2.5 9.99
11/11/2020 11:15:00 AM 13 55.4 0.649 8.33 2.52 10.06
11/11/2020 11:30:00 AM 13.02 55.436 0.649 8.33 2.89 10.12
11/11/2020 11:45:00 AM 13.04 55.472 0.648 8.33 2.38 10.23
11/11/2020 12:00:00 PM 13.06 55.508 0.647 8.34 2.53 10.29
11/11/2020 12:15:00 PM 13.09 55.562 0.645 8.35 2.55 10.35
11/11/2020 12:30:00 PM 13.12 55.616 0.644 8.35 2.56 10.35
11/11/2020 12:45:00 PM 13.17 55.706 0.642 8.35 2.88 10.36
11/11/2020 1:00:00 PM 13.19 55.742 0.64 8.34 3.28 10.3
11/11/2020 1:15:00 PM 13.2 55.76 0.64 8.35 2.9 10.26
11/11/2020 1:30:00 PM 13.23 55.814 0.639 8.34 3.62 10.27
11/11/2020 1:45:00 PM 13.26 55.868 0.638 8.34 3.85 10.26
11/11/2020 2:00:00 PM 13.27 55.886 0.638 8.34 3.3 10.24
11/11/2020 2:15:00 PM 13.29 55.922 0.638 8.34 2.92 10.26
11/11/2020 2:30:00 PM 13.31 55.958 0.638 8.33 2.94 10.25
11/11/2020 2:45:00 PM 13.36 56.048 0.637 8.33 4.84 10.18
11/11/2020 3:00:00 PM 13.42 56.156 0.635 8.33 2.68 10.09
11/11/2020 3:15:00 PM 13.48 56.264 0.634 8.32 3.86 10
11/11/2020 3:30:00 PM 13.52 56.336 0.635 8.31 5.74 9.92
11/11/2020 3:45:00 PM 13.54 56.372 0.634 8.31 4.3 9.79
11/11/2020 4:00:00 PM 13.56 56.408 0.633 8.3 4.79 9.69
11/11/2020 4:15:00 PM 13.58 56.444 0.634 8.29 5.4 9.62
11/11/2020 4:30:00 PM 13.6 56.48 0.633 8.29 5.46 9.53
11/11/2020 4:45:00 PM 13.62 56.516 0.631 8.28 6.11 9.46
11/11/2020 5:00:00 PM 13.64 56.552 0.629 8.27 5.18 9.39
11/11/2020 5:15:00 PM 13.65 56.57 0.627 8.27 5.75 9.32
11/11/2020 5:30:00 PM 13.65 56.57 0.625 8.26 8.69 9.27
11/11/2020 5:45:00 PM 13.62 56.516 0.623 8.25 6.96 9.26
11/11/2020 6:00:00 PM 13.59 56.462 0.622 8.25 12.41 9.25
11/11/2020 6:15:00 PM 13.57 56.426 0.622 8.24 9.67 9.26
11/11/2020 6:30:00 PM 13.56 56.408 0.622 8.23 9.6 9.24
11/11/2020 6:45:00 PM 13.56 56.408 0.62 8.23 9.09 9.21
11/11/2020 7:00:00 PM 13.56 56.408 0.619 8.22 8.24 9.17
11/11/2020 7:15:00 PM 13.57 56.426 0.618 8.21 9.46 9.13
11/11/2020 7:30:00 PM 13.58 56.444 0.617 8.2 11.06 9.09
11/11/2020 7:45:00 PM 13.59 56.462 0.616 8.2 12.28 9.05
11/11/2020 8:00:00 PM 13.61 56.498 0.615 8.18 11.98 9.02
11/11/2020 8:15:00 PM 13.63 56.534 0.614 8.17 23.44 8.97
11/11/2020 8:30:00 PM 13.66 56.588 0.612 8.17 15.29 8.92
11/11/2020 8:45:00 PM 13.69 56.642 0.611 8.16 11.82 8.9
11/11/2020 9:00:00 PM 13.72 56.696 0.61 8.16 16.99 8.87
11/11/2020 9:15:00 PM 13.76 56.768 0.611 8.16 17.05 8.84
11/11/2020 9:30:00 PM 13.78 56.804 0.611 8.15 18.37 8.8
11/11/2020 9:45:00 PM 13.82 56.876 0.608 8.15 14.17 8.77
11/11/2020 10:00:00 PM 13.87 56.966 0.605 8.14 21.78 8.75
11/11/2020 10:15:00 PM 13.91 57.038 0.603 8.13 22.99 8.72
11/11/2020 10:30:00 PM 13.95 57.11 0.603 8.13 17.27 8.69
11/11/2020 10:45:00 PM 13.98 57.164 0.602 8.15 15.48 8.66
11/11/2020 11:00:00 PM 14 57.2 0.603 8.13 21.36 8.65
11/11/2020 11:15:00 PM 14.03 57.254 0.603 8.12 17.56 8.59
11/11/2020 11:30:00 PM 14.05 57.29 0.603 8.12 17.72 8.59
11/11/2020 11:45:00 PM 14.07 57.326 0.603 8.12 21.12 8.58
11/12/2020 12:00:00 AM 14.09 57.362 0.603 8.11 14.96 8.56
11/12/2020 12:15:00 AM 14.12 57.416 0.604 8.1 38.98 8.54
11/12/2020 12:30:00 AM 14.16 57.488 0.606 8.1 19.4 8.52
11/12/2020 12:45:00 AM 14.19 57.542 0.607 8.09 14.95 8.5
11/12/2020 1:00:00 AM 14.22 57.596 0.608 8.09 13.72 8.47
11/12/2020 1:15:00 AM 14.25 57.65 0.608 8.08 25.94 8.45
11/12/2020 1:30:00 AM 14.28 57.704 0.609 8.08 18.21 8.43
11/12/2020 1:45:00 AM 14.3 57.74 0.609 8.07 14.09 8.41
11/12/2020 2:00:00 AM 14.32 57.776 0.609 8.07 22.9 8.38
11/12/2020 2:15:00 AM 14.33 57.794 0.607 8.07 17.77 8.36
11/12/2020 2:30:00 AM 14.34 57.812 0.603 8.07 21.31 8.34
11/12/2020 2:45:00 AM 14.35 57.83 0.597 8.06 21.1 8.3
11/12/2020 3:00:00 AM 14.35 57.83 0.59 8.06 11.04 8.26
11/12/2020 3:15:00 AM 14.36 57.848 0.582 8.05 17.34 8.22
11/12/2020 3:30:00 AM 14.36 57.848 0.574 8.04 15.06 8.18
11/12/2020 3:45:00 AM 14.36 57.848 0.566 8.03 21.8 8.14
11/12/2020 4:00:00 AM 14.37 57.866 0.558 8.03 26.53 8.09
11/12/2020 4:15:00 AM 14.37 57.866 0.552 8.02 21.32 8.06
11/12/2020 4:30:00 AM 14.37 57.866 0.545 8.03 39.59 8.03
11/12/2020 4:45:00 AM 14.37 57.866 0.539 8.04 21.38 8.02
11/12/2020 5:00:00 AM 14.37 57.866 0.534 8.04 23.44 8.03
11/12/2020 5:15:00 AM 14.37 57.866 0.529 8.02 18.3 8.02
11/12/2020 5:30:00 AM 14.36 57.848 0.524 8.02 25.42 8.01
11/12/2020 5:45:00 AM 14.35 57.83 0.52 8.01 17.84 8.03
11/12/2020 6:00:00 AM 14.33 57.794 0.516 8.01 16.35 8.06
11/12/2020 6:15:00 AM 14.32 57.776 0.514 8.01 19.54 8.05
11/12/2020 6:30:00 AM 14.29 57.722 0.512 8.01 15.92 8.04
11/12/2020 6:45:00 AM 14.28 57.704 0.512 8.01 21.6 8.05
11/12/2020 7:00:00 AM 14.25 57.65 0.511 8.01 14.37 8.07
11/12/2020 7:15:00 AM 14.22 57.596 0.511 8.02 11.99 8.06
11/12/2020 7:30:00 AM 14.19 57.542 0.512 8.01 11.62 8.07
11/12/2020 7:45:00 AM 14.17 57.506 0.513 8.01 9.6 8.07
11/12/2020 8:00:00 AM 14.14 57.452 0.515 8.01 20.58 8.14
11/12/2020 8:15:00 AM 14.11 57.398 0.516 8.02 9.63 8.18
11/12/2020 8:30:00 AM 14.08 57.344 0.517 8.02 15.27 8.25
11/12/2020 8:45:00 AM 14.06 57.308 0.517 8.03 8.69 8.3
11/12/2020 9:00:00 AM 14.08 57.344 0.516 8.03 8.33 8.31
11/12/2020 9:15:00 AM 14.11 57.398 0.512 8.03 7.8 8.27
11/12/2020 9:30:00 AM 14.15 57.47 0.51 8.04 10.11 8.21
11/12/2020 9:45:00 AM 14.16 57.488 0.509 8.03 8.24 8.24
11/12/2020 10:00:00 AM 14.15 57.47 0.509 8.03 7.37 8.22
11/12/2020 10:15:00 AM 14.13 57.434 0.51 8.04 7.17 8.19
11/12/2020 10:30:00 AM 14.12 57.416 0.511 8.05 8.56 8.25
11/12/2020 10:45:00 AM 14.1 57.38 0.512 8.05 6.68 8.33
11/12/2020 11:00:00 AM 14.08 57.344 0.514 8.06 7.53 8.41
11/12/2020 11:15:00 AM 14.06 57.308 0.516 8.06 8.42 8.53
11/12/2020 11:30:00 AM 14.04 57.272 0.519 8.08 6.15 8.66
11/12/2020 11:45:00 AM 14.02 57.236 0.521 8.09 6.61 8.8
11/12/2020 12:00:00 PM 14.01 57.218 0.524 8.09 5.46 8.94
11/12/2020 12:15:00 PM 13.99 57.182 0.527 8.1 5.59 9.03
11/12/2020 12:30:00 PM 13.96 57.128 0.529 8.1 5.6 9.09
11/12/2020 12:45:00 PM 13.94 57.092 0.532 8.11 5.61 9.19
11/12/2020 1:00:00 PM 13.92 57.056 0.535 8.11 5.52 9.27
11/12/2020 1:15:00 PM 13.9 57.02 0.538 8.12 5.45 9.32
11/12/2020 1:30:00 PM 13.89 57.002 0.54 8.13 6.87 9.42
11/12/2020 1:45:00 PM 13.86 56.948 0.543 8.13 5.87 9.5
11/12/2020 2:00:00 PM 13.84 56.912 0.546 8.14 5.62 9.52
11/12/2020 2:15:00 PM 13.81 56.858 0.548 8.15 6.03 9.55
11/12/2020 2:30:00 PM 13.78 56.804 0.551 8.16 6.28 9.58
11/12/2020 2:45:00 PM 13.73 56.714 0.553 8.16 6.7 9.56
11/12/2020 3:00:00 PM 13.69 56.642 0.555 8.17 4.84 9.47
11/12/2020 3:15:00 PM 13.65 56.57 0.558 8.16 4.66 9.42
11/12/2020 3:30:00 PM 13.6 56.48 0.56 8.17 4.13 9.37
11/12/2020 3:45:00 PM 13.56 56.408 0.563 8.16 4.56 9.31
11/12/2020 4:00:00 PM 13.51 56.318 0.565 8.16 5.29 9.25
11/12/2020 4:15:00 PM 13.47 56.246 0.568 8.16 4.62 9.22
11/12/2020 4:30:00 PM 13.42 56.156 0.57 8.16 5 9.18
11/12/2020 4:45:00 PM 13.36 56.048 0.572 8.16 3.92 9.12
11/12/2020 5:00:00 PM 13.3 55.94 0.574 8.16 5.41 9.06
11/12/2020 5:15:00 PM 13.23 55.814 0.577 8.16 8.51 9.01
11/12/2020 5:30:00 PM 13.17 55.706 0.579 8.16 7.44 8.96
11/12/2020 5:45:00 PM 13.11 55.598 0.581 8.16 5.46 8.93
11/12/2020 6:00:00 PM 13.05 55.49 0.583 8.16 8.17 8.89
11/12/2020 6:15:00 PM 13 55.4 0.584 8.16 5.53 8.87
11/12/2020 6:30:00 PM 12.95 55.31 0.586 8.16 6.47 8.84
11/12/2020 6:45:00 PM 12.9 55.22 0.588 8.17 9.99 8.84
11/12/2020 7:00:00 PM 12.86 55.148 0.589 8.17 9.66 8.83
11/12/2020 7:15:00 PM 12.82 55.076 0.59 8.17 5.79 8.81
11/12/2020 7:30:00 PM 12.77 54.986 0.592 8.18 6.61 8.8
11/12/2020 7:45:00 PM 12.73 54.914 0.592 8.18 13 8.79
11/12/2020 8:00:00 PM 12.68 54.824 0.593 8.18 8.14 8.77
11/12/2020 8:15:00 PM 12.63 54.734 0.594 8.18 9.13 8.78
11/12/2020 8:30:00 PM 12.59 54.662 0.595 8.18 10.05 8.78
11/12/2020 8:45:00 PM 12.55 54.59 0.596 8.18 7.24 8.77
11/12/2020 9:00:00 PM 12.49 54.482 0.597 8.19 9.24 8.77
11/12/2020 9:15:00 PM 12.44 54.392 0.598 8.19 5.9 8.76
11/12/2020 9:30:00 PM 12.38 54.284 0.598 8.19 8.21 8.77
11/12/2020 9:45:00 PM 12.32 54.176 0.599 8.19 6.88 8.75
11/12/2020 10:00:00 PM 12.26 54.068 0.599 8.19 11.92 8.75
11/12/2020 10:15:00 PM 12.2 53.96 0.6 8.19 8.82 8.75
11/12/2020 10:30:00 PM 12.14 53.852 0.6 8.2 7.61 8.77
11/12/2020 10:45:00 PM 12.08 53.744 0.601 8.2 11.6 8.77
11/12/2020 11:00:00 PM 12.02 53.636 0.602 8.2 9.68 8.77
11/12/2020 11:15:00 PM 11.96 53.528 0.602 8.2 9.41 8.78
11/12/2020 11:30:00 PM 11.91 53.438 0.603 8.2 7.38 8.8
11/12/2020 11:45:00 PM 11.86 53.348 0.603 8.21 7.4 8.82
11/13/2020 12:00:00 AM 11.82 53.276 0.604 8.21 12.94 8.81
11/13/2020 12:15:00 AM 11.8 53.24 0.605 8.21 6.97 8.82
11/13/2020 12:30:00 AM 11.77 53.186 0.606 8.21 9.09 8.82
11/13/2020 12:45:00 AM 11.75 53.15 0.607 8.21 5.57 8.83
11/13/2020 1:00:00 AM 11.74 53.132 0.607 8.2 8.03 8.83
11/13/2020 1:15:00 AM 11.72 53.096 0.608 8.21 17.85 8.84
11/13/2020 1:30:00 AM 11.7 53.06 0.609 8.21 9.61 8.84
11/13/2020 1:45:00 AM 11.69 53.042 0.61 8.22 8.52 8.85
11/13/2020 2:00:00 AM 11.68 53.024 0.61 8.21 7.57 8.85
11/13/2020 2:15:00 AM 11.67 53.006 0.612 8.21 7.58 8.87
11/13/2020 2:30:00 AM 11.65 52.97 0.613 8.21 7.71 8.87
11/13/2020 2:45:00 AM 11.64 52.952 0.614 8.21 7.63 8.89
11/13/2020 3:00:00 AM 11.63 52.934 0.614 8.21 7.77 8.88
11/13/2020 3:15:00 AM 11.62 52.916 0.615 8.21 14.05 8.89
11/13/2020 3:30:00 AM 11.61 52.898 0.615 8.21 7.23 8.91
11/13/2020 3:45:00 AM 11.6 52.88 0.616 8.21 8.34 8.93
11/13/2020 4:00:00 AM 11.59 52.862 0.617 8.21 8.95 8.92
11/13/2020 4:15:00 AM 11.57 52.826 0.617 8.21 8.17 8.94
11/13/2020 4:30:00 AM 11.56 52.808 0.618 8.21 5.9 8.94
11/13/2020 4:45:00 AM 11.55 52.79 0.618 8.21 6.85 8.94
11/13/2020 5:00:00 AM 11.54 52.772 0.619 8.21 10.08 8.95
11/13/2020 5:15:00 AM 11.52 52.736 0.619 8.21 7.52 8.97
11/13/2020 5:30:00 AM 11.5 52.7 0.62 8.21 11.61 8.97
11/13/2020 5:45:00 AM 11.49 52.682 0.62 8.21 9.69 8.97
11/13/2020 6:00:00 AM 11.47 52.646 0.62 8.22 10.27 8.98
11/13/2020 6:15:00 AM 11.46 52.628 0.622 8.22 11.52 9
11/13/2020 6:30:00 AM 11.44 52.592 0.622 8.22 8.32 9.01
11/13/2020 6:45:00 AM 11.42 52.556 0.623 8.22 6.59 9.02
11/13/2020 7:00:00 AM 11.41 52.538 0.623 8.22 6.66 9.03
11/13/2020 7:15:00 AM 11.39 52.502 0.624 8.22 6.65 9.05
11/13/2020 7:30:00 AM 11.38 52.484 0.625 8.22 6.52 9.07
11/13/2020 7:45:00 AM 11.37 52.466 0.625 8.22 5.94 9.11
11/13/2020 8:00:00 AM 11.37 52.466 0.626 8.22 5.9 9.17
11/13/2020 8:15:00 AM 11.36 52.448 0.626 8.23 6.33 9.24
11/13/2020 8:30:00 AM 11.36 52.448 0.627 8.23 4.85 9.32
11/13/2020 8:45:00 AM 11.36 52.448 0.627 8.24 4.85 9.4
11/13/2020 9:00:00 AM 11.37 52.466 0.627 8.25 5.31 9.54
11/13/2020 9:15:00 AM 11.39 52.502 0.628 8.27 7.68 9.71
11/13/2020 9:30:00 AM<